<?xml version="1.0" encoding="UTF-8" standalone="no" ?><gpx xmlns="http://www.topografix.com/GPX/1/1" xmlns:gpxx="http://www.garmin.com/xmlschemas/GpxExtensions/v3" xmlns:wptx1="http://www.garmin.com/xmlschemas/WaypointExtension/v1" xmlns:gpxtpx="http://www.garmin.com/xmlschemas/TrackPointExtension/v1" creator="Astro 320" version="1.1" xmlns:xsi="http://www.w3.org/2001/XMLSchema-instance" xsi:schemaLocation="http://www.topografix.com/GPX/1/1 http://www.topografix.com/GPX/1/1/gpx.xsd http://www.garmin.com/xmlschemas/GpxExtensions/v3 http://www8.garmin.com/xmlschemas/GpxExtensionsv3.xsd http://www.garmin.com/xmlschemas/WaypointExtension/v1 http://www8.garmin.com/xmlschemas/WaypointExtensionv1.xsd http://www.garmin.com/xmlschemas/TrackPointExtension/v1 http://www.garmin.com/xmlschemas/TrackPointExtensionv1.xsd"><metadata><link href="http://www.garmin.com"><text>Garmin International</text></link><time>2026-04-25T14:16:49Z</time></metadata><trk><name>2026-04-25 17:16:45</name><extensions><gpxx:TrackExtension><gpxx:DisplayColor>Cyan</gpxx:DisplayColor></gpxx:TrackExtension></extensions><trkseg><trkpt lat="59.0726223215" lon="30.0208524708"><ele>76.08</ele><time>2026-04-25T08:18:56Z</time></trkpt><trkpt lat="59.0726218186" lon="30.0208289176"><ele>77.52</ele><time>2026-04-25T08:19:30Z</time></trkpt><trkpt lat="59.0726195555" lon="30.0208414067"><ele>77.52</ele><time>2026-04-25T08:19:59Z</time></trkpt><trkpt lat="59.0726221539" lon="30.0208524708"><ele>77.52</ele><time>2026-04-25T08:20:13Z</time></trkpt><trkpt lat="59.0726225730" lon="30.0208607689"><ele>76.08</ele><time>2026-04-25T08:20:24Z</time></trkpt><trkpt lat="59.0723682661" lon="30.0206519756"><ele>77.52</ele><time>2026-04-25T08:20:33Z</time></trkpt><trkpt lat="59.0724975988" lon="30.0207747705"><ele>89.54</ele><time>2026-04-25T08:20:34Z</time></trkpt><trkpt lat="59.0725742932" lon="30.0207733456"><ele>89.54</ele><time>2026-04-25T08:20:35Z</time></trkpt><trkpt lat="59.0726249199" lon="30.0208669715"><ele>88.10</ele><time>2026-04-25T08:21:02Z</time></trkpt><trkpt lat="59.0726562683" lon="30.0208787899"><ele>88.10</ele><time>2026-04-25T08:21:28Z</time></trkpt><trkpt lat="59.0726681706" lon="30.0208943803"><ele>88.10</ele><time>2026-04-25T08:21:50Z</time></trkpt><trkpt lat="59.0726614650" lon="30.0208787899"><ele>88.10</ele><time>2026-04-25T08:22:01Z</time></trkpt><trkpt lat="59.0726597048" lon="30.0208572485"><ele>88.10</ele><time>2026-04-25T08:22:02Z</time></trkpt><trkpt lat="59.0726484731" lon="30.0208124891"><ele>88.10</ele><time>2026-04-25T08:22:16Z</time></trkpt><trkpt lat="59.0726519097" lon="30.0208124891"><ele>88.10</ele><time>2026-04-25T08:22:43Z</time></trkpt><trkpt lat="59.0726505686" lon="30.0208041910"><ele>87.62</ele><time>2026-04-25T08:23:07Z</time></trkpt><trkpt lat="59.0726486407" lon="30.0208038557"><ele>87.62</ele><time>2026-04-25T08:23:09Z</time></trkpt><trkpt lat="59.0726597048" lon="30.0208061188"><ele>87.62</ele><time>2026-04-25T08:23:11Z</time></trkpt><trkpt lat="59.0727692563" lon="30.0208576676"><ele>87.62</ele><time>2026-04-25T08:23:24Z</time></trkpt><trkpt lat="59.0728362277" lon="30.0208061188"><ele>87.62</ele><time>2026-04-25T08:23:34Z</time></trkpt><trkpt lat="59.0729092341" lon="30.0207876787"><ele>87.62</ele><time>2026-04-25T08:23:44Z</time></trkpt><trkpt lat="59.0729863476" lon="30.0207747705"><ele>87.62</ele><time>2026-04-25T08:23:57Z</time></trkpt><trkpt lat="59.0730727650" lon="30.0207166001"><ele>87.62</ele><time>2026-04-25T08:24:08Z</time></trkpt><trkpt lat="59.0731408261" lon="30.0207074638"><ele>87.62</ele><time>2026-04-25T08:24:17Z</time></trkpt><trkpt lat="59.0732116532" lon="30.0206756126"><ele>87.62</ele><time>2026-04-25T08:24:28Z</time></trkpt><trkpt lat="59.0732894372" lon="30.0206477009"><ele>87.62</ele><time>2026-04-25T08:24:40Z</time></trkpt><trkpt lat="59.0733271558" lon="30.0205927156"><ele>87.14</ele><time>2026-04-25T08:24:51Z</time></trkpt><trkpt lat="59.0734115615" lon="30.0205979124"><ele>87.14</ele><time>2026-04-25T08:25:02Z</time></trkpt><trkpt lat="59.0734579135" lon="30.0204925518"><ele>87.14</ele><time>2026-04-25T08:25:11Z</time></trkpt><trkpt lat="59.0734932851" lon="30.0204282627"><ele>87.14</ele><time>2026-04-25T08:25:21Z</time></trkpt><trkpt lat="59.0735095460" lon="30.0204710942"><ele>87.14</ele><time>2026-04-25T08:25:26Z</time></trkpt><trkpt lat="59.0735578258" lon="30.0205289293"><ele>87.14</ele><time>2026-04-25T08:25:33Z</time></trkpt><trkpt lat="59.0736319218" lon="30.0204889476"><ele>87.14</ele><time>2026-04-25T08:25:43Z</time></trkpt><trkpt lat="59.0736888349" lon="30.0204663165"><ele>87.14</ele><time>2026-04-25T08:25:54Z</time></trkpt><trkpt lat="59.0737352706" lon="30.0204814039"><ele>87.14</ele><time>2026-04-25T08:26:02Z</time></trkpt><trkpt lat="59.0738034155" lon="30.0204331242"><ele>87.14</ele><time>2026-04-25T08:26:14Z</time></trkpt><trkpt lat="59.0738268849" lon="30.0204433501"><ele>87.14</ele><time>2026-04-25T08:26:17Z</time></trkpt><trkpt lat="59.0738510247" lon="30.0204033684"><ele>87.14</ele><time>2026-04-25T08:26:21Z</time></trkpt><trkpt lat="59.0739094466" lon="30.0203830004"><ele>86.66</ele><time>2026-04-25T08:26:31Z</time></trkpt><trkpt lat="59.0739184152" lon="30.0203783903"><ele>86.66</ele><time>2026-04-25T08:26:32Z</time></trkpt><trkpt lat="59.0739468299" lon="30.0203669909"><ele>86.66</ele><time>2026-04-25T08:26:35Z</time></trkpt><trkpt lat="59.0739976242" lon="30.0203041267"><ele>87.62</ele><time>2026-04-25T08:26:43Z</time></trkpt><trkpt lat="59.0740733966" lon="30.0203213096"><ele>87.62</ele><time>2026-04-25T08:26:54Z</time></trkpt><trkpt lat="59.0741492528" lon="30.0202648155"><ele>88.10</ele><time>2026-04-25T08:27:06Z</time></trkpt><trkpt lat="59.0742217563" lon="30.0202436931"><ele>88.10</ele><time>2026-04-25T08:27:19Z</time></trkpt><trkpt lat="59.0742388554" lon="30.0202176254"><ele>88.10</ele><time>2026-04-25T08:27:22Z</time></trkpt><trkpt lat="59.0742697008" lon="30.0201861095"><ele>88.10</ele><time>2026-04-25T08:27:26Z</time></trkpt><trkpt lat="59.0743055753" lon="30.0201504864"><ele>87.62</ele><time>2026-04-25T08:27:36Z</time></trkpt><trkpt lat="59.0743830241" lon="30.0202013645"><ele>87.62</ele><time>2026-04-25T08:27:49Z</time></trkpt><trkpt lat="59.0744630713" lon="30.0202179607"><ele>87.62</ele><time>2026-04-25T08:28:03Z</time></trkpt><trkpt lat="59.0744734649" lon="30.0202118419"><ele>87.62</ele><time>2026-04-25T08:28:05Z</time></trkpt><trkpt lat="59.0745634865" lon="30.0201136898"><ele>87.62</ele><time>2026-04-25T08:28:17Z</time></trkpt><trkpt lat="59.0746342298" lon="30.0200249255"><ele>87.62</ele><time>2026-04-25T08:28:29Z</time></trkpt><trkpt lat="59.0746587049" lon="30.0200175494"><ele>87.62</ele><time>2026-04-25T08:28:45Z</time></trkpt><trkpt lat="59.0747469664" lon="30.0200060662"><ele>87.62</ele><time>2026-04-25T08:28:57Z</time></trkpt><trkpt lat="59.0748007782" lon="30.0199654978"><ele>87.14</ele><time>2026-04-25T08:29:10Z</time></trkpt><trkpt lat="59.0748032089" lon="30.0199748017"><ele>87.14</ele><time>2026-04-25T08:29:30Z</time></trkpt><trkpt lat="59.0748040471" lon="30.0199798308"><ele>87.14</ele><time>2026-04-25T08:29:51Z</time></trkpt><trkpt lat="59.0748456214" lon="30.0199720357"><ele>87.14</ele><time>2026-04-25T08:30:07Z</time></trkpt><trkpt lat="59.0748913866" lon="30.0198830198"><ele>87.62</ele><time>2026-04-25T08:30:14Z</time></trkpt><trkpt lat="59.0749534126" lon="30.0198898930"><ele>87.62</ele><time>2026-04-25T08:30:20Z</time></trkpt><trkpt lat="59.0750528220" lon="30.0198535994"><ele>87.62</ele><time>2026-04-25T08:30:33Z</time></trkpt><trkpt lat="59.0750583541" lon="30.0198606402"><ele>87.62</ele><time>2026-04-25T08:30:44Z</time></trkpt><trkpt lat="59.0750974976" lon="30.0198018830"><ele>87.62</ele><time>2026-04-25T08:30:54Z</time></trkpt><trkpt lat="59.0751749463" lon="30.0197815150"><ele>87.62</ele><time>2026-04-25T08:31:04Z</time></trkpt><trkpt lat="59.0752544068" lon="30.0198175572"><ele>87.62</ele><time>2026-04-25T08:31:17Z</time></trkpt><trkpt lat="59.0752641298" lon="30.0197929982"><ele>87.14</ele><time>2026-04-25T08:31:34Z</time></trkpt><trkpt lat="59.0752648003" lon="30.0197907351"><ele>87.14</ele><time>2026-04-25T08:32:05Z</time></trkpt><trkpt lat="59.0753334481" lon="30.0196987856"><ele>87.14</ele><time>2026-04-25T08:32:16Z</time></trkpt><trkpt lat="59.0753556602" lon="30.0196551997"><ele>87.14</ele><time>2026-04-25T08:32:20Z</time></trkpt><trkpt lat="59.0754136629" lon="30.0196743105"><ele>87.14</ele><time>2026-04-25T08:32:28Z</time></trkpt><trkpt lat="59.0754711628" lon="30.0196386874"><ele>87.14</ele><time>2026-04-25T08:32:38Z</time></trkpt><trkpt lat="59.0755061992" lon="30.0196479075"><ele>87.14</ele><time>2026-04-25T08:32:46Z</time></trkpt><trkpt lat="59.0755279921" lon="30.0196336582"><ele>87.14</ele><time>2026-04-25T08:32:48Z</time></trkpt><trkpt lat="59.0756168403" lon="30.0195400324"><ele>86.66</ele><time>2026-04-25T08:33:00Z</time></trkpt><trkpt lat="59.0756252222" lon="30.0195562933"><ele>86.66</ele><time>2026-04-25T08:33:02Z</time></trkpt><trkpt lat="59.0756488591" lon="30.0195562094"><ele>86.66</ele><time>2026-04-25T08:33:05Z</time></trkpt><trkpt lat="59.0757170878" lon="30.0196153019"><ele>86.66</ele><time>2026-04-25T08:33:17Z</time></trkpt><trkpt lat="59.0758002363" lon="30.0195449777"><ele>86.66</ele><time>2026-04-25T08:33:30Z</time></trkpt><trkpt lat="59.0758838039" lon="30.0194929261"><ele>86.66</ele><time>2026-04-25T08:33:43Z</time></trkpt><trkpt lat="59.0759282280" lon="30.0194671098"><ele>86.66</ele><time>2026-04-25T08:33:48Z</time></trkpt><trkpt lat="59.0760126337" lon="30.0194085203"><ele>86.66</ele><time>2026-04-25T08:33:59Z</time></trkpt><trkpt lat="59.0760335885" lon="30.0193993002"><ele>86.66</ele><time>2026-04-25T08:34:02Z</time></trkpt><trkpt lat="59.0760608297" lon="30.0194072630"><ele>85.21</ele><time>2026-04-25T08:34:13Z</time></trkpt><trkpt lat="59.0760891605" lon="30.0193771720"><ele>84.73</ele><time>2026-04-25T08:34:17Z</time></trkpt><trkpt lat="59.0761015657" lon="30.0193527807"><ele>84.73</ele><time>2026-04-25T08:34:20Z</time></trkpt><trkpt lat="59.0761231072" lon="30.0193662755"><ele>84.73</ele><time>2026-04-25T08:34:23Z</time></trkpt><trkpt lat="59.0761379432" lon="30.0193221867"><ele>84.73</ele><time>2026-04-25T08:34:30Z</time></trkpt><trkpt lat="59.0761605743" lon="30.0193126313"><ele>84.73</ele><time>2026-04-25T08:34:34Z</time></trkpt><trkpt lat="59.0762055013" lon="30.0192998908"><ele>85.69</ele><time>2026-04-25T08:34:45Z</time></trkpt><trkpt lat="59.0762684494" lon="30.0192095339"><ele>85.69</ele><time>2026-04-25T08:34:58Z</time></trkpt><trkpt lat="59.0762723051" lon="30.0192036666"><ele>85.69</ele><time>2026-04-25T08:34:59Z</time></trkpt><trkpt lat="59.0763435513" lon="30.0192312431"><ele>85.21</ele><time>2026-04-25T08:35:12Z</time></trkpt><trkpt lat="59.0763780009" lon="30.0191637687"><ele>85.21</ele><time>2026-04-25T08:35:21Z</time></trkpt><trkpt lat="59.0763816051" lon="30.0191758387"><ele>85.21</ele><time>2026-04-25T08:35:33Z</time></trkpt><trkpt lat="59.0764013864" lon="30.0191689655"><ele>85.21</ele><time>2026-04-25T08:35:47Z</time></trkpt><trkpt lat="59.0764229279" lon="30.0191527884"><ele>85.21</ele><time>2026-04-25T08:36:14Z</time></trkpt><trkpt lat="59.0764688607" lon="30.0191888306"><ele>84.73</ele><time>2026-04-25T08:36:27Z</time></trkpt><trkpt lat="59.0765145421" lon="30.0191579852"><ele>84.73</ele><time>2026-04-25T08:36:38Z</time></trkpt><trkpt lat="59.0765562002" lon="30.0191418920"><ele>84.73</ele><time>2026-04-25T08:36:48Z</time></trkpt><trkpt lat="59.0765783284" lon="30.0191472564"><ele>84.73</ele><time>2026-04-25T08:36:59Z</time></trkpt><trkpt lat="59.0765808430" lon="30.0191571470"><ele>84.25</ele><time>2026-04-25T08:37:11Z</time></trkpt><trkpt lat="59.0766761452" lon="30.0191479269"><ele>84.25</ele><time>2026-04-25T08:37:26Z</time></trkpt><trkpt lat="59.0767594613" lon="30.0190791953"><ele>84.25</ele><time>2026-04-25T08:37:38Z</time></trkpt><trkpt lat="59.0768222418" lon="30.0190379564"><ele>84.25</ele><time>2026-04-25T08:37:49Z</time></trkpt><trkpt lat="59.0769015346" lon="30.0190076139"><ele>83.77</ele><time>2026-04-25T08:38:01Z</time></trkpt><trkpt lat="59.0769258421" lon="30.0189845636"><ele>83.77</ele><time>2026-04-25T08:38:04Z</time></trkpt><trkpt lat="59.0770793147" lon="30.0189646147"><ele>83.77</ele><time>2026-04-25T08:38:16Z</time></trkpt><trkpt lat="59.0771770477" lon="30.0188907702"><ele>83.77</ele><time>2026-04-25T08:38:29Z</time></trkpt><trkpt lat="59.0772294346" lon="30.0188538898"><ele>83.77</ele><time>2026-04-25T08:38:42Z</time></trkpt><trkpt lat="59.0772346314" lon="30.0188427418"><ele>83.77</ele><time>2026-04-25T08:38:59Z</time></trkpt><trkpt lat="59.0772394929" lon="30.0188425742"><ele>83.77</ele><time>2026-04-25T08:39:19Z</time></trkpt><trkpt lat="59.0772657283" lon="30.0188268162"><ele>83.29</ele><time>2026-04-25T08:39:46Z</time></trkpt><trkpt lat="59.0772910416" lon="30.0188455079"><ele>83.29</ele><time>2026-04-25T08:40:02Z</time></trkpt><trkpt lat="59.0773918759" lon="30.0188372936"><ele>83.29</ele><time>2026-04-25T08:40:16Z</time></trkpt><trkpt lat="59.0774357971" lon="30.0187134929"><ele>83.29</ele><time>2026-04-25T08:40:28Z</time></trkpt><trkpt lat="59.0774782095" lon="30.0187637843"><ele>83.29</ele><time>2026-04-25T08:40:40Z</time></trkpt><trkpt lat="59.0775211249" lon="30.0187258981"><ele>83.29</ele><time>2026-04-25T08:40:52Z</time></trkpt><trkpt lat="59.0775720030" lon="30.0187054463"><ele>83.29</ele><time>2026-04-25T08:41:02Z</time></trkpt><trkpt lat="59.0776533075" lon="30.0186387263"><ele>83.29</ele><time>2026-04-25T08:41:16Z</time></trkpt><trkpt lat="59.0777263977" lon="30.0186739303"><ele>83.29</ele><time>2026-04-25T08:41:30Z</time></trkpt><trkpt lat="59.0777870826" lon="30.0186627824"><ele>82.81</ele><time>2026-04-25T08:41:42Z</time></trkpt><trkpt lat="59.0778211970" lon="30.0185906980"><ele>82.81</ele><time>2026-04-25T08:41:57Z</time></trkpt><trkpt lat="59.0778454207" lon="30.0185839087"><ele>82.81</ele><time>2026-04-25T08:42:10Z</time></trkpt><trkpt lat="59.0778598376" lon="30.0185783766"><ele>82.81</ele><time>2026-04-25T08:42:21Z</time></trkpt><trkpt lat="59.0779075306" lon="30.0185541529"><ele>82.81</ele><time>2026-04-25T08:42:33Z</time></trkpt><trkpt lat="59.0779577382" lon="30.0185263250"><ele>82.81</ele><time>2026-04-25T08:42:46Z</time></trkpt><trkpt lat="59.0780246258" lon="30.0185767002"><ele>82.33</ele><time>2026-04-25T08:42:57Z</time></trkpt><trkpt lat="59.0780864842" lon="30.0184881035"><ele>82.33</ele><time>2026-04-25T08:43:09Z</time></trkpt><trkpt lat="59.0781928506" lon="30.0184539054"><ele>82.33</ele><time>2026-04-25T08:43:20Z</time></trkpt><trkpt lat="59.0782673657" lon="30.0184306037"><ele>82.33</ele><time>2026-04-25T08:43:31Z</time></trkpt><trkpt lat="59.0783274639" lon="30.0184050389"><ele>81.85</ele><time>2026-04-25T08:43:42Z</time></trkpt><trkpt lat="59.0784116182" lon="30.0183360558"><ele>81.85</ele><time>2026-04-25T08:43:56Z</time></trkpt><trkpt lat="59.0784811880" lon="30.0182555895"><ele>81.85</ele><time>2026-04-25T08:44:09Z</time></trkpt><trkpt lat="59.0785194095" lon="30.0182149373"><ele>81.85</ele><time>2026-04-25T08:44:21Z</time></trkpt><trkpt lat="59.0785597265" lon="30.0182389095"><ele>81.37</ele><time>2026-04-25T08:44:32Z</time></trkpt><trkpt lat="59.0786032286" lon="30.0182899553"><ele>81.37</ele><time>2026-04-25T08:44:44Z</time></trkpt><trkpt lat="59.0786471497" lon="30.0183008518"><ele>81.37</ele><time>2026-04-25T08:44:54Z</time></trkpt><trkpt lat="59.0786885563" lon="30.0183017738"><ele>81.37</ele><time>2026-04-25T08:45:05Z</time></trkpt><trkpt lat="59.0787330642" lon="30.0182545837"><ele>80.89</ele><time>2026-04-25T08:45:17Z</time></trkpt><trkpt lat="59.0787590481" lon="30.0181898754"><ele>80.89</ele><time>2026-04-25T08:45:22Z</time></trkpt><trkpt lat="59.0788204875" lon="30.0181210600"><ele>80.89</ele><time>2026-04-25T08:45:31Z</time></trkpt><trkpt lat="59.0788965952" lon="30.0181770511"><ele>80.89</ele><time>2026-04-25T08:45:43Z</time></trkpt><trkpt lat="59.0789164603" lon="30.0181584433"><ele>80.89</ele><time>2026-04-25T08:45:59Z</time></trkpt><trkpt lat="59.0789644886" lon="30.0181463733"><ele>80.89</ele><time>2026-04-25T08:46:10Z</time></trkpt><trkpt lat="59.0790588688" lon="30.0180791505"><ele>80.41</ele><time>2026-04-25T08:46:22Z</time></trkpt><trkpt lat="59.0791010298" lon="30.0180417672"><ele>80.41</ele><time>2026-04-25T08:46:33Z</time></trkpt><trkpt lat="59.0791389160" lon="30.0180584472"><ele>80.41</ele><time>2026-04-25T08:46:43Z</time></trkpt><trkpt lat="59.0792027861" lon="30.0179995224"><ele>80.41</ele><time>2026-04-25T08:46:53Z</time></trkpt><trkpt lat="59.0792407561" lon="30.0180014502"><ele>80.41</ele><time>2026-04-25T08:47:01Z</time></trkpt><trkpt lat="59.0792973340" lon="30.0180175435"><ele>80.41</ele><time>2026-04-25T08:47:14Z</time></trkpt><trkpt lat="59.0793200489" lon="30.0180140231"><ele>80.41</ele><time>2026-04-25T08:47:19Z</time></trkpt><trkpt lat="59.0793715976" lon="30.0179727841"><ele>79.93</ele><time>2026-04-25T08:47:31Z</time></trkpt><trkpt lat="59.0793744475" lon="30.0179691799"><ele>79.93</ele><time>2026-04-25T08:47:32Z</time></trkpt><trkpt lat="59.0793845057" lon="30.0178830139"><ele>79.93</ele><time>2026-04-25T08:47:43Z</time></trkpt><trkpt lat="59.0793832485" lon="30.0178642385"><ele>79.93</ele><time>2026-04-25T08:47:45Z</time></trkpt><trkpt lat="59.0794384852" lon="30.0177915674"><ele>79.93</ele><time>2026-04-25T08:47:56Z</time></trkpt><trkpt lat="59.0794487949" lon="30.0178108457"><ele>79.93</ele><time>2026-04-25T08:47:59Z</time></trkpt><trkpt lat="59.0794761200" lon="30.0178531744"><ele>79.93</ele><time>2026-04-25T08:48:12Z</time></trkpt><trkpt lat="59.0794949792" lon="30.0178408530"><ele>79.93</ele><time>2026-04-25T08:48:20Z</time></trkpt><trkpt lat="59.0795411635" lon="30.0178478099"><ele>79.93</ele><time>2026-04-25T08:48:32Z</time></trkpt><trkpt lat="59.0796135832" lon="30.0178359915"><ele>79.93</ele><time>2026-04-25T08:48:45Z</time></trkpt><trkpt lat="59.0796500444" lon="30.0178452954"><ele>79.93</ele><time>2026-04-25T08:48:56Z</time></trkpt><trkpt lat="59.0797113162" lon="30.0177593809"><ele>79.93</ele><time>2026-04-25T08:49:10Z</time></trkpt><trkpt lat="59.0797283314" lon="30.0177568663"><ele>79.93</ele><time>2026-04-25T08:49:33Z</time></trkpt><trkpt lat="59.0797437541" lon="30.0177730434"><ele>79.93</ele><time>2026-04-25T08:49:51Z</time></trkpt><trkpt lat="59.0797485318" lon="30.0177806709"><ele>78.48</ele><time>2026-04-25T08:49:59Z</time></trkpt><trkpt lat="59.0797631163" lon="30.0177897234"><ele>78.48</ele><time>2026-04-25T08:50:27Z</time></trkpt><trkpt lat="59.0797788743" lon="30.0177929085"><ele>78.48</ele><time>2026-04-25T08:50:56Z</time></trkpt><trkpt lat="59.0797967277" lon="30.0178127736"><ele>78.00</ele><time>2026-04-25T08:51:23Z</time></trkpt><trkpt lat="59.0798082110" lon="30.0178271905"><ele>78.00</ele><time>2026-04-25T08:51:44Z</time></trkpt><trkpt lat="59.0797986556" lon="30.0179250073"><ele>78.00</ele><time>2026-04-25T08:52:14Z</time></trkpt><trkpt lat="59.0797998291" lon="30.0179219060"><ele>78.00</ele><time>2026-04-25T08:52:43Z</time></trkpt><trkpt lat="59.0797840711" lon="30.0179535896"><ele>78.00</ele><time>2026-04-25T08:53:12Z</time></trkpt><trkpt lat="59.0797767788" lon="30.0179799926"><ele>78.00</ele><time>2026-04-25T08:53:41Z</time></trkpt><trkpt lat="59.0797813050" lon="30.0180037972"><ele>78.00</ele><time>2026-04-25T08:54:06Z</time></trkpt><trkpt lat="59.0797820594" lon="30.0180097483"><ele>78.00</ele><time>2026-04-25T08:54:29Z</time></trkpt><trkpt lat="59.0797938779" lon="30.0180022046"><ele>78.00</ele><time>2026-04-25T08:54:54Z</time></trkpt><trkpt lat="59.0797943808" lon="30.0180011149"><ele>78.00</ele><time>2026-04-25T08:55:17Z</time></trkpt><trkpt lat="59.0798030980" lon="30.0180011149"><ele>78.00</ele><time>2026-04-25T08:55:47Z</time></trkpt><trkpt lat="59.0798062831" lon="30.0179866143"><ele>78.00</ele><time>2026-04-25T08:56:09Z</time></trkpt><trkpt lat="59.0798028465" lon="30.0179916434"><ele>78.00</ele><time>2026-04-25T08:56:37Z</time></trkpt><trkpt lat="59.0798014216" lon="30.0178781524"><ele>78.00</ele><time>2026-04-25T08:56:59Z</time></trkpt><trkpt lat="59.0798144136" lon="30.0177510828"><ele>78.00</ele><time>2026-04-25T08:57:11Z</time></trkpt><trkpt lat="59.0798607655" lon="30.0175790861"><ele>78.97</ele><time>2026-04-25T08:57:23Z</time></trkpt><trkpt lat="59.0799013339" lon="30.0174691994"><ele>78.97</ele><time>2026-04-25T08:57:34Z</time></trkpt><trkpt lat="59.0799413156" lon="30.0173381064"><ele>78.97</ele><time>2026-04-25T08:57:43Z</time></trkpt><trkpt lat="59.0799677186" lon="30.0173655991"><ele>78.97</ele><time>2026-04-25T08:57:54Z</time></trkpt><trkpt lat="59.0799895115" lon="30.0173732266"><ele>79.45</ele><time>2026-04-25T08:58:02Z</time></trkpt><trkpt lat="59.0800204407" lon="30.0174022280"><ele>79.45</ele><time>2026-04-25T08:58:12Z</time></trkpt><trkpt lat="59.0800917707" lon="30.0174325705"><ele>79.45</ele><time>2026-04-25T08:58:26Z</time></trkpt><trkpt lat="59.0801807866" lon="30.0173762441"><ele>79.45</ele><time>2026-04-25T08:58:38Z</time></trkpt><trkpt lat="59.0802036691" lon="30.0173958577"><ele>79.45</ele><time>2026-04-25T08:58:46Z</time></trkpt><trkpt lat="59.0802727360" lon="30.0174413715"><ele>79.45</ele><time>2026-04-25T08:58:58Z</time></trkpt><trkpt lat="59.0803199261" lon="30.0174236856"><ele>79.45</ele><time>2026-04-25T08:59:10Z</time></trkpt><trkpt lat="59.0803595725" lon="30.0174508430"><ele>79.45</ele><time>2026-04-25T08:59:23Z</time></trkpt><trkpt lat="59.0803968720" lon="30.0174733903"><ele>79.45</ele><time>2026-04-25T08:59:38Z</time></trkpt><trkpt lat="59.0804379433" lon="30.0174114481"><ele>79.45</ele><time>2026-04-25T08:59:47Z</time></trkpt><trkpt lat="59.0804715548" lon="30.0174022280"><ele>79.45</ele><time>2026-04-25T09:00:04Z</time></trkpt><trkpt lat="59.0805807710" lon="30.0173851289"><ele>79.45</ele><time>2026-04-25T09:00:17Z</time></trkpt><trkpt lat="59.0807282925" lon="30.0173303951"><ele>79.45</ele><time>2026-04-25T09:00:30Z</time></trkpt><trkpt lat="59.0807586350" lon="30.0173383579"><ele>79.45</ele><time>2026-04-25T09:00:33Z</time></trkpt><trkpt lat="59.0808415320" lon="30.0173676945"><ele>79.45</ele><time>2026-04-25T09:00:44Z</time></trkpt><trkpt lat="59.0808650013" lon="30.0173459016"><ele>79.45</ele><time>2026-04-25T09:00:47Z</time></trkpt><trkpt lat="59.0810008720" lon="30.0172994658"><ele>79.93</ele><time>2026-04-25T09:00:58Z</time></trkpt><trkpt lat="59.0810328908" lon="30.0174298882"><ele>79.93</ele><time>2026-04-25T09:01:10Z</time></trkpt><trkpt lat="59.0811267681" lon="30.0173640065"><ele>79.93</ele><time>2026-04-25T09:01:25Z</time></trkpt><trkpt lat="59.0811322164" lon="30.0172851328"><ele>79.93</ele><time>2026-04-25T09:01:30Z</time></trkpt><trkpt lat="59.0811576135" lon="30.0171741564"><ele>79.93</ele><time>2026-04-25T09:01:39Z</time></trkpt><trkpt lat="59.0812152810" lon="30.0171411317"><ele>79.93</ele><time>2026-04-25T09:01:49Z</time></trkpt><trkpt lat="59.0812353976" lon="30.0170558039"><ele>79.93</ele><time>2026-04-25T09:01:56Z</time></trkpt><trkpt lat="59.0812785644" lon="30.0170210190"><ele>79.93</ele><time>2026-04-25T09:02:01Z</time></trkpt><trkpt lat="59.0813191328" lon="30.0169733260"><ele>79.93</ele><time>2026-04-25T09:02:12Z</time></trkpt><trkpt lat="59.0813307837" lon="30.0169878267"><ele>79.93</ele><time>2026-04-25T09:02:18Z</time></trkpt><trkpt lat="59.0813852660" lon="30.0170371123"><ele>80.41</ele><time>2026-04-25T09:02:29Z</time></trkpt><trkpt lat="59.0814195480" lon="30.0170484278"><ele>80.41</ele><time>2026-04-25T09:02:34Z</time></trkpt><trkpt lat="59.0814751200" lon="30.0169355236"><ele>80.41</ele><time>2026-04-25T09:02:46Z</time></trkpt><trkpt lat="59.0815265011" lon="30.0168833882"><ele>79.93</ele><time>2026-04-25T09:03:00Z</time></trkpt><trkpt lat="59.0815766249" lon="30.0168825500"><ele>79.93</ele><time>2026-04-25T09:03:10Z</time></trkpt><trkpt lat="59.0816736035" lon="30.0168975536"><ele>79.93</ele><time>2026-04-25T09:03:23Z</time></trkpt><trkpt lat="59.0817257389" lon="30.0168898422"><ele>79.93</ele><time>2026-04-25T09:03:34Z</time></trkpt><trkpt lat="59.0818024334" lon="30.0167928636"><ele>78.97</ele><time>2026-04-25T09:03:45Z</time></trkpt><trkpt lat="59.0818630345" lon="30.0167741720"><ele>78.97</ele><time>2026-04-25T09:03:51Z</time></trkpt><trkpt lat="59.0819696523" lon="30.0167515408"><ele>78.97</ele><time>2026-04-25T09:04:03Z</time></trkpt><trkpt lat="59.0820483584" lon="30.0166859105"><ele>78.48</ele><time>2026-04-25T09:04:16Z</time></trkpt><trkpt lat="59.0820957161" lon="30.0167628564"><ele>78.48</ele><time>2026-04-25T09:04:30Z</time></trkpt><trkpt lat="59.0821270645" lon="30.0167811289"><ele>78.48</ele><time>2026-04-25T09:04:34Z</time></trkpt><trkpt lat="59.0821645316" lon="30.0167189352"><ele>78.48</ele><time>2026-04-25T09:04:42Z</time></trkpt><trkpt lat="59.0821856540" lon="30.0167015847"><ele>78.48</ele><time>2026-04-25T09:04:44Z</time></trkpt><trkpt lat="59.0822248813" lon="30.0166486949"><ele>78.48</ele><time>2026-04-25T09:04:54Z</time></trkpt><trkpt lat="59.0822513681" lon="30.0165901054"><ele>78.48</ele><time>2026-04-25T09:04:59Z</time></trkpt><trkpt lat="59.0823196806" lon="30.0166031811"><ele>78.48</ele><time>2026-04-25T09:05:07Z</time></trkpt><trkpt lat="59.0824183356" lon="30.0165496208"><ele>78.00</ele><time>2026-04-25T09:05:22Z</time></trkpt><trkpt lat="59.0824492648" lon="30.0165451784"><ele>78.00</ele><time>2026-04-25T09:05:36Z</time></trkpt><trkpt lat="59.0825361013" lon="30.0165399816"><ele>77.52</ele><time>2026-04-25T09:05:48Z</time></trkpt><trkpt lat="59.0825770888" lon="30.0164932944"><ele>77.52</ele><time>2026-04-25T09:05:55Z</time></trkpt><trkpt lat="59.0825983789" lon="30.0165084656"><ele>77.52</ele><time>2026-04-25T09:05:58Z</time></trkpt><trkpt lat="59.0826785937" lon="30.0164618623"><ele>77.52</ele><time>2026-04-25T09:06:10Z</time></trkpt><trkpt lat="59.0827395301" lon="30.0164418295"><ele>77.52</ele><time>2026-04-25T09:06:21Z</time></trkpt><trkpt lat="59.0827652626" lon="30.0164469425"><ele>77.52</ele><time>2026-04-25T09:06:25Z</time></trkpt><trkpt lat="59.0828328207" lon="30.0164191984"><ele>77.04</ele><time>2026-04-25T09:06:35Z</time></trkpt><trkpt lat="59.0828963555" lon="30.0163901970"><ele>77.04</ele><time>2026-04-25T09:06:43Z</time></trkpt><trkpt lat="59.0829405282" lon="30.0163898617"><ele>77.04</ele><time>2026-04-25T09:06:51Z</time></trkpt><trkpt lat="59.0829770733" lon="30.0163465273"><ele>77.04</ele><time>2026-04-25T09:06:56Z</time></trkpt><trkpt lat="59.0829997882" lon="30.0163711701"><ele>77.04</ele><time>2026-04-25T09:07:04Z</time></trkpt><trkpt lat="59.0830603894" lon="30.0163629558"><ele>77.04</ele><time>2026-04-25T09:07:11Z</time></trkpt><trkpt lat="59.0830891393" lon="30.0163432583"><ele>77.04</ele><time>2026-04-25T09:07:15Z</time></trkpt><trkpt lat="59.0831068251" lon="30.0162032805"><ele>77.04</ele><time>2026-04-25T09:07:27Z</time></trkpt><trkpt lat="59.0831136145" lon="30.0161923002"><ele>77.04</ele><time>2026-04-25T09:07:50Z</time></trkpt><trkpt lat="59.0831129439" lon="30.0161894504"><ele>76.56</ele><time>2026-04-25T09:08:16Z</time></trkpt><trkpt lat="59.0831109323" lon="30.0161954854"><ele>76.08</ele><time>2026-04-25T09:08:48Z</time></trkpt><trkpt lat="59.0831338149" lon="30.0161735248"><ele>76.08</ele><time>2026-04-25T09:08:53Z</time></trkpt><trkpt lat="59.0831943322" lon="30.0161302742"><ele>76.08</ele><time>2026-04-25T09:09:05Z</time></trkpt><trkpt lat="59.0832188912" lon="30.0161311962"><ele>76.08</ele><time>2026-04-25T09:09:10Z</time></trkpt><trkpt lat="59.0832244232" lon="30.0161705073"><ele>76.08</ele><time>2026-04-25T09:09:12Z</time></trkpt><trkpt lat="59.0832578670" lon="30.0161779672"><ele>76.08</ele><time>2026-04-25T09:09:21Z</time></trkpt><trkpt lat="59.0832921490" lon="30.0161858462"><ele>76.08</ele><time>2026-04-25T09:09:32Z</time></trkpt><trkpt lat="59.0833363216" lon="30.0161666516"><ele>76.08</ele><time>2026-04-25T09:09:43Z</time></trkpt><trkpt lat="59.0833532531" lon="30.0161487143"><ele>76.08</ele><time>2026-04-25T09:09:52Z</time></trkpt><trkpt lat="59.0833992697" lon="30.0161533244"><ele>76.08</ele><time>2026-04-25T09:10:04Z</time></trkpt><trkpt lat="59.0834467113" lon="30.0161535759"><ele>76.08</ele><time>2026-04-25T09:10:14Z</time></trkpt><trkpt lat="59.0835122578" lon="30.0161096547"><ele>76.08</ele><time>2026-04-25T09:10:25Z</time></trkpt><trkpt lat="59.0835877787" lon="30.0160629675"><ele>75.60</ele><time>2026-04-25T09:10:35Z</time></trkpt><trkpt lat="59.0836032853" lon="30.0160959922"><ele>75.60</ele><time>2026-04-25T09:10:38Z</time></trkpt><trkpt lat="59.0836152714" lon="30.0161369797"><ele>75.60</ele><time>2026-04-25T09:10:41Z</time></trkpt><trkpt lat="59.0836829972" lon="30.0161302742"><ele>75.60</ele><time>2026-04-25T09:10:49Z</time></trkpt><trkpt lat="59.0837572608" lon="30.0160414260"><ele>75.60</ele><time>2026-04-25T09:11:00Z</time></trkpt><trkpt lat="59.0838286746" lon="30.0159536675"><ele>76.56</ele><time>2026-04-25T09:11:09Z</time></trkpt><trkpt lat="59.0838744398" lon="30.0159441959"><ele>76.56</ele><time>2026-04-25T09:11:15Z</time></trkpt><trkpt lat="59.0839077160" lon="30.0158548448"><ele>76.56</ele><time>2026-04-25T09:11:27Z</time></trkpt><trkpt lat="59.0839647129" lon="30.0158537552"><ele>76.56</ele><time>2026-04-25T09:11:39Z</time></trkpt><trkpt lat="59.0839627851" lon="30.0158743747"><ele>77.04</ele><time>2026-04-25T09:11:52Z</time></trkpt><trkpt lat="59.0839606896" lon="30.0158649869"><ele>77.52</ele><time>2026-04-25T09:12:07Z</time></trkpt><trkpt lat="59.0839694068" lon="30.0158659928"><ele>77.52</ele><time>2026-04-25T09:12:18Z</time></trkpt><trkpt lat="59.0840433352" lon="30.0158390868"><ele>77.52</ele><time>2026-04-25T09:12:30Z</time></trkpt><trkpt lat="59.0840234701" lon="30.0158152822"><ele>77.52</ele><time>2026-04-25T09:13:01Z</time></trkpt><trkpt lat="59.0840065386" lon="30.0158209819"><ele>77.52</ele><time>2026-04-25T09:13:29Z</time></trkpt><trkpt lat="59.0840047784" lon="30.0158189703"><ele>77.52</ele><time>2026-04-25T09:13:40Z</time></trkpt><trkpt lat="59.0840034373" lon="30.0157971773"><ele>77.52</ele><time>2026-04-25T09:13:52Z</time></trkpt><trkpt lat="59.0839699935" lon="30.0155714527"><ele>77.04</ele><time>2026-04-25T09:14:06Z</time></trkpt><trkpt lat="59.0839489549" lon="30.0154266134"><ele>76.08</ele><time>2026-04-25T09:14:16Z</time></trkpt><trkpt lat="59.0839233901" lon="30.0152092706"><ele>75.60</ele><time>2026-04-25T09:14:29Z</time></trkpt><trkpt lat="59.0839090571" lon="30.0151154771"><ele>75.60</ele><time>2026-04-25T09:14:34Z</time></trkpt><trkpt lat="59.0838624537" lon="30.0148718990"><ele>75.60</ele><time>2026-04-25T09:14:47Z</time></trkpt><trkpt lat="59.0838544071" lon="30.0147118047"><ele>75.60</ele><time>2026-04-25T09:14:56Z</time></trkpt><trkpt lat="59.0838384815" lon="30.0145582482"><ele>76.56</ele><time>2026-04-25T09:15:06Z</time></trkpt><trkpt lat="59.0838269982" lon="30.0145025924"><ele>76.56</ele><time>2026-04-25T09:15:10Z</time></trkpt><trkpt lat="59.0838325303" lon="30.0144576654"><ele>77.04</ele><time>2026-04-25T09:15:24Z</time></trkpt><trkpt lat="59.0838269982" lon="30.0144696515"><ele>77.04</ele><time>2026-04-25T09:15:44Z</time></trkpt><trkpt lat="59.0838148445" lon="30.0143895205"><ele>77.04</ele><time>2026-04-25T09:15:56Z</time></trkpt><trkpt lat="59.0838081390" lon="30.0143247284"><ele>77.04</ele><time>2026-04-25T09:16:00Z</time></trkpt><trkpt lat="59.0837829933" lon="30.0140681583"><ele>77.04</ele><time>2026-04-25T09:16:14Z</time></trkpt><trkpt lat="59.0837608650" lon="30.0138794817"><ele>76.56</ele><time>2026-04-25T09:16:25Z</time></trkpt><trkpt lat="59.0837340429" lon="30.0136752985"><ele>76.56</ele><time>2026-04-25T09:16:38Z</time></trkpt><trkpt lat="59.0836707596" lon="30.0134417787"><ele>76.56</ele><time>2026-04-25T09:16:50Z</time></trkpt><trkpt lat="59.0836234856" lon="30.0132611487"><ele>76.56</ele><time>2026-04-25T09:17:01Z</time></trkpt><trkpt lat="59.0835939813" lon="30.0131133758"><ele>76.56</ele><time>2026-04-25T09:17:11Z</time></trkpt><trkpt lat="59.0835632198" lon="30.0129591487"><ele>76.56</ele><time>2026-04-25T09:17:21Z</time></trkpt><trkpt lat="59.0835680813" lon="30.0128393713"><ele>76.08</ele><time>2026-04-25T09:17:36Z</time></trkpt><trkpt lat="59.0835717693" lon="30.0128377788"><ele>76.08</ele><time>2026-04-25T09:18:04Z</time></trkpt><trkpt lat="59.0835734457" lon="30.0128321629"><ele>76.08</ele><time>2026-04-25T09:18:20Z</time></trkpt><trkpt lat="59.0835782234" lon="30.0128257927"><ele>75.60</ele><time>2026-04-25T09:18:48Z</time></trkpt><trkpt lat="59.0835797321" lon="30.0128116272"><ele>76.08</ele><time>2026-04-25T09:19:16Z</time></trkpt><trkpt lat="59.0835752897" lon="30.0128057599"><ele>76.08</ele><time>2026-04-25T09:19:28Z</time></trkpt><trkpt lat="59.0835646447" lon="30.0128329173"><ele>76.08</ele><time>2026-04-25T09:19:45Z</time></trkpt><trkpt lat="59.0835460369" lon="30.0128671993"><ele>76.08</ele><time>2026-04-25T09:19:57Z</time></trkpt><trkpt lat="59.0835343022" lon="30.0128900819"><ele>75.60</ele><time>2026-04-25T09:20:08Z</time></trkpt><trkpt lat="59.0835089888" lon="30.0129081029"><ele>75.60</ele><time>2026-04-25T09:20:24Z</time></trkpt><trkpt lat="59.0834939014" lon="30.0128750782"><ele>75.60</ele><time>2026-04-25T09:20:37Z</time></trkpt><trkpt lat="59.0834457893" lon="30.0128488429"><ele>75.60</ele><time>2026-04-25T09:20:53Z</time></trkpt><trkpt lat="59.0834291931" lon="30.0128549617"><ele>75.60</ele><time>2026-04-25T09:21:05Z</time></trkpt><trkpt lat="59.0834085736" lon="30.0128848851"><ele>75.60</ele><time>2026-04-25T09:21:17Z</time></trkpt><trkpt lat="59.0833966713" lon="30.0129169878"><ele>75.60</ele><time>2026-04-25T09:21:20Z</time></trkpt><trkpt lat="59.0833736211" lon="30.0129477493"><ele>75.60</ele><time>2026-04-25T09:21:33Z</time></trkpt><trkpt lat="59.0833587013" lon="30.0129386969"><ele>75.60</ele><time>2026-04-25T09:21:46Z</time></trkpt><trkpt lat="59.0833280236" lon="30.0129261240"><ele>75.60</ele><time>2026-04-25T09:21:58Z</time></trkpt><trkpt lat="59.0832598787" lon="30.0129258726"><ele>75.60</ele><time>2026-04-25T09:22:10Z</time></trkpt><trkpt lat="59.0832203999" lon="30.0129419658"><ele>75.60</ele><time>2026-04-25T09:22:24Z</time></trkpt><trkpt lat="59.0831943322" lon="30.0130016450"><ele>75.60</ele><time>2026-04-25T09:22:36Z</time></trkpt><trkpt lat="59.0831733774" lon="30.0130371004"><ele>75.60</ele><time>2026-04-25T09:22:50Z</time></trkpt><trkpt lat="59.0831491537" lon="30.0130204204"><ele>75.60</ele><time>2026-04-25T09:22:54Z</time></trkpt><trkpt lat="59.0830730461" lon="30.0130022317"><ele>75.60</ele><time>2026-04-25T09:23:06Z</time></trkpt><trkpt lat="59.0830744710" lon="30.0130149722"><ele>75.60</ele><time>2026-04-25T09:23:32Z</time></trkpt><trkpt lat="59.0830472298" lon="30.0130306464"><ele>75.60</ele><time>2026-04-25T09:24:05Z</time></trkpt><trkpt lat="59.0830364171" lon="30.0130848773"><ele>75.60</ele><time>2026-04-25T09:24:17Z</time></trkpt><trkpt lat="59.0830245987" lon="30.0131989550"><ele>75.60</ele><time>2026-04-25T09:24:29Z</time></trkpt><trkpt lat="59.0830310527" lon="30.0133297127"><ele>75.60</ele><time>2026-04-25T09:24:37Z</time></trkpt><trkpt lat="59.0831081662" lon="30.0135334767"><ele>75.60</ele><time>2026-04-25T09:24:50Z</time></trkpt><trkpt lat="59.0830970183" lon="30.0136987679"><ele>75.60</ele><time>2026-04-25T09:25:02Z</time></trkpt><trkpt lat="59.0830893070" lon="30.0137268472"><ele>75.60</ele><time>2026-04-25T09:25:05Z</time></trkpt><trkpt lat="59.0830537677" lon="30.0138450321"><ele>75.60</ele><time>2026-04-25T09:25:18Z</time></trkpt><trkpt lat="59.0831015445" lon="30.0138814934"><ele>75.60</ele><time>2026-04-25T09:25:25Z</time></trkpt><trkpt lat="59.0831518359" lon="30.0139478780"><ele>75.60</ele><time>2026-04-25T09:25:38Z</time></trkpt><trkpt lat="59.0831489861" lon="30.0139431003"><ele>75.60</ele><time>2026-04-25T09:25:57Z</time></trkpt><trkpt lat="59.0831840225" lon="30.0140626263"><ele>75.60</ele><time>2026-04-25T09:26:12Z</time></trkpt><trkpt lat="59.0831981879" lon="30.0141004287"><ele>75.60</ele><time>2026-04-25T09:26:22Z</time></trkpt><trkpt lat="59.0832035523" lon="30.0141893607"><ele>75.60</ele><time>2026-04-25T09:26:33Z</time></trkpt><trkpt lat="59.0832011215" lon="30.0142052863"><ele>75.60</ele><time>2026-04-25T09:26:34Z</time></trkpt><trkpt lat="59.0832176339" lon="30.0143508799"><ele>75.60</ele><time>2026-04-25T09:26:47Z</time></trkpt><trkpt lat="59.0832634829" lon="30.0144027639"><ele>74.16</ele><time>2026-04-25T09:26:59Z</time></trkpt><trkpt lat="59.0832959209" lon="30.0144451763"><ele>75.12</ele><time>2026-04-25T09:27:11Z</time></trkpt><trkpt lat="59.0833075717" lon="30.0144851580"><ele>75.12</ele><time>2026-04-25T09:27:21Z</time></trkpt><trkpt lat="59.0832929872" lon="30.0145621877"><ele>75.12</ele><time>2026-04-25T09:27:31Z</time></trkpt><trkpt lat="59.0833049733" lon="30.0145913567"><ele>75.12</ele><time>2026-04-25T09:27:43Z</time></trkpt><trkpt lat="59.0832886286" lon="30.0146224536"><ele>75.12</ele><time>2026-04-25T09:27:54Z</time></trkpt><trkpt lat="59.0832986031" lon="30.0146634411"><ele>75.12</ele><time>2026-04-25T09:28:05Z</time></trkpt><trkpt lat="59.0832999442" lon="30.0147616770"><ele>75.12</ele><time>2026-04-25T09:28:18Z</time></trkpt><trkpt lat="59.0833074879" lon="30.0148149859"><ele>75.12</ele><time>2026-04-25T09:28:28Z</time></trkpt><trkpt lat="59.0833157022" lon="30.0148795266"><ele>75.12</ele><time>2026-04-25T09:28:40Z</time></trkpt><trkpt lat="59.0833208989" lon="30.0149373617"><ele>75.12</ele><time>2026-04-25T09:28:53Z</time></trkpt><trkpt lat="59.0833299514" lon="30.0149934366"><ele>75.12</ele><time>2026-04-25T09:29:06Z</time></trkpt><trkpt lat="59.0833200607" lon="30.0150253717"><ele>74.16</ele><time>2026-04-25T09:29:30Z</time></trkpt><trkpt lat="59.0832536761" lon="30.0150420517"><ele>74.16</ele><time>2026-04-25T09:29:40Z</time></trkpt><trkpt lat="59.0832121857" lon="30.0150684547"><ele>74.16</ele><time>2026-04-25T09:29:50Z</time></trkpt><trkpt lat="59.0832084138" lon="30.0150852185"><ele>74.16</ele><time>2026-04-25T09:29:53Z</time></trkpt><trkpt lat="59.0831462201" lon="30.0151474960"><ele>74.16</ele><time>2026-04-25T09:30:03Z</time></trkpt><trkpt lat="59.0831183083" lon="30.0151806045"><ele>74.16</ele><time>2026-04-25T09:30:14Z</time></trkpt><trkpt lat="59.0830531809" lon="30.0152370147"><ele>74.16</ele><time>2026-04-25T09:30:25Z</time></trkpt><trkpt lat="59.0830102656" lon="30.0152194127"><ele>74.16</ele><time>2026-04-25T09:30:33Z</time></trkpt><trkpt lat="59.0829411987" lon="30.0152828638"><ele>74.16</ele><time>2026-04-25T09:30:44Z</time></trkpt><trkpt lat="59.0829354152" lon="30.0152892340"><ele>74.16</ele><time>2026-04-25T09:30:46Z</time></trkpt><trkpt lat="59.0829102695" lon="30.0153317302"><ele>74.16</ele><time>2026-04-25T09:30:50Z</time></trkpt><trkpt lat="59.0828725509" lon="30.0153364241"><ele>74.16</ele><time>2026-04-25T09:31:06Z</time></trkpt><trkpt lat="59.0828565415" lon="30.0153037347"><ele>74.16</ele><time>2026-04-25T09:31:22Z</time></trkpt><trkpt lat="59.0828304738" lon="30.0151364319"><ele>74.16</ele><time>2026-04-25T09:31:31Z</time></trkpt><trkpt lat="59.0828131232" lon="30.0149495993"><ele>74.16</ele><time>2026-04-25T09:31:42Z</time></trkpt><trkpt lat="59.0828083456" lon="30.0148726534"><ele>74.16</ele><time>2026-04-25T09:31:47Z</time></trkpt><trkpt lat="59.0827540308" lon="30.0147392973"><ele>74.16</ele><time>2026-04-25T09:31:56Z</time></trkpt><trkpt lat="59.0827311482" lon="30.0146609265"><ele>74.16</ele><time>2026-04-25T09:32:07Z</time></trkpt><trkpt lat="59.0827381052" lon="30.0146493595"><ele>74.16</ele><time>2026-04-25T09:32:23Z</time></trkpt><trkpt lat="59.0827355906" lon="30.0146540534"><ele>75.60</ele><time>2026-04-25T09:32:38Z</time></trkpt><trkpt lat="59.0827417932" lon="30.0146413967"><ele>75.60</ele><time>2026-04-25T09:33:12Z</time></trkpt><trkpt lat="59.0827470738" lon="30.0145964697"><ele>75.60</ele><time>2026-04-25T09:33:23Z</time></trkpt><trkpt lat="59.0827175695" lon="30.0145095494"><ele>75.60</ele><time>2026-04-25T09:33:34Z</time></trkpt><trkpt lat="59.0826878138" lon="30.0144466851"><ele>75.60</ele><time>2026-04-25T09:33:43Z</time></trkpt><trkpt lat="59.0826718044" lon="30.0143960584"><ele>75.60</ele><time>2026-04-25T09:33:47Z</time></trkpt><trkpt lat="59.0826304816" lon="30.0142083876"><ele>75.60</ele><time>2026-04-25T09:34:00Z</time></trkpt><trkpt lat="59.0826261230" lon="30.0140508078"><ele>75.12</ele><time>2026-04-25T09:34:12Z</time></trkpt><trkpt lat="59.0826145560" lon="30.0139444415"><ele>75.12</ele><time>2026-04-25T09:34:27Z</time></trkpt><trkpt lat="59.0825779270" lon="30.0138389971"><ele>75.12</ele><time>2026-04-25T09:34:38Z</time></trkpt><trkpt lat="59.0825365204" lon="30.0137326308"><ele>75.12</ele><time>2026-04-25T09:34:49Z</time></trkpt><trkpt lat="59.0824995562" lon="30.0135960896"><ele>75.12</ele><time>2026-04-25T09:35:00Z</time></trkpt><trkpt lat="59.0825096145" lon="30.0134504959"><ele>75.12</ele><time>2026-04-25T09:35:10Z</time></trkpt><trkpt lat="59.0824684594" lon="30.0133531820"><ele>75.12</ele><time>2026-04-25T09:35:22Z</time></trkpt><trkpt lat="59.0824586526" lon="30.0133270305"><ele>75.12</ele><time>2026-04-25T09:35:39Z</time></trkpt><trkpt lat="59.0824564733" lon="30.0133218337"><ele>75.12</ele><time>2026-04-25T09:35:56Z</time></trkpt><trkpt lat="59.0824579820" lon="30.0133126974"><ele>75.12</ele><time>2026-04-25T09:36:21Z</time></trkpt><trkpt lat="59.0824609995" lon="30.0133059919"><ele>75.12</ele><time>2026-04-25T09:36:50Z</time></trkpt><trkpt lat="59.0824608319" lon="30.0133035611"><ele>75.12</ele><time>2026-04-25T09:37:18Z</time></trkpt><trkpt lat="59.0824616700" lon="30.0132968556"><ele>75.12</ele><time>2026-04-25T09:37:44Z</time></trkpt><trkpt lat="59.0824600775" lon="30.0132831093"><ele>75.12</ele><time>2026-04-25T09:38:11Z</time></trkpt><trkpt lat="59.0824558865" lon="30.0132686086"><ele>76.08</ele><time>2026-04-25T09:38:39Z</time></trkpt><trkpt lat="59.0824475884" lon="30.0132648367"><ele>76.08</ele><time>2026-04-25T09:39:07Z</time></trkpt><trkpt lat="59.0824387874" lon="30.0132566225"><ele>76.08</ele><time>2026-04-25T09:39:35Z</time></trkpt><trkpt lat="59.0824308246" lon="30.0132674351"><ele>76.08</ele><time>2026-04-25T09:40:04Z</time></trkpt><trkpt lat="59.0824257117" lon="30.0132718775"><ele>76.08</ele><time>2026-04-25T09:40:36Z</time></trkpt><trkpt lat="59.0824176650" lon="30.0132779125"><ele>76.08</ele><time>2026-04-25T09:41:08Z</time></trkpt><trkpt lat="59.0824162401" lon="30.0132718775"><ele>76.08</ele><time>2026-04-25T09:41:37Z</time></trkpt><trkpt lat="59.0824173298" lon="30.0132631604"><ele>76.08</ele><time>2026-04-25T09:42:07Z</time></trkpt><trkpt lat="59.0824096184" lon="30.0132658426"><ele>76.56</ele><time>2026-04-25T09:42:24Z</time></trkpt><trkpt lat="59.0823496040" lon="30.0133529305"><ele>76.56</ele><time>2026-04-25T09:42:39Z</time></trkpt><trkpt lat="59.0822846442" lon="30.0133971870"><ele>76.56</ele><time>2026-04-25T09:42:50Z</time></trkpt><trkpt lat="59.0822325088" lon="30.0134430360"><ele>76.56</ele><time>2026-04-25T09:43:01Z</time></trkpt><trkpt lat="59.0821717400" lon="30.0134205725"><ele>76.56</ele><time>2026-04-25T09:43:13Z</time></trkpt><trkpt lat="59.0820891783" lon="30.0134463049"><ele>76.56</ele><time>2026-04-25T09:43:25Z</time></trkpt><trkpt lat="59.0820055269" lon="30.0134950038"><ele>76.56</ele><time>2026-04-25T09:43:36Z</time></trkpt><trkpt lat="59.0819473565" lon="30.0135395955"><ele>76.56</ele><time>2026-04-25T09:43:50Z</time></trkpt><trkpt lat="59.0819378011" lon="30.0135513302"><ele>76.56</ele><time>2026-04-25T09:44:14Z</time></trkpt><trkpt lat="59.0819567442" lon="30.0136767235"><ele>76.56</ele><time>2026-04-25T09:44:27Z</time></trkpt><trkpt lat="59.0819694847" lon="30.0137937348"><ele>76.56</ele><time>2026-04-25T09:44:34Z</time></trkpt><trkpt lat="59.0820092987" lon="30.0140010193"><ele>76.56</ele><time>2026-04-25T09:44:45Z</time></trkpt><trkpt lat="59.0820135735" lon="30.0140658952"><ele>76.56</ele><time>2026-04-25T09:44:48Z</time></trkpt><trkpt lat="59.0820385516" lon="30.0142046995"><ele>76.56</ele><time>2026-04-25T09:45:00Z</time></trkpt><trkpt lat="59.0820741747" lon="30.0143423304"><ele>76.56</ele><time>2026-04-25T09:45:11Z</time></trkpt><trkpt lat="59.0820692293" lon="30.0145135727"><ele>76.56</ele><time>2026-04-25T09:45:21Z</time></trkpt><trkpt lat="59.0821030922" lon="30.0146054383"><ele>76.56</ele><time>2026-04-25T09:45:31Z</time></trkpt><trkpt lat="59.0821360331" lon="30.0146969687"><ele>76.56</ele><time>2026-04-25T09:45:37Z</time></trkpt><trkpt lat="59.0821516234" lon="30.0148586556"><ele>76.56</ele><time>2026-04-25T09:45:49Z</time></trkpt><trkpt lat="59.0821771044" lon="30.0150406267"><ele>76.56</ele><time>2026-04-25T09:46:01Z</time></trkpt><trkpt lat="59.0821775235" lon="30.0150701310"><ele>76.56</ele><time>2026-04-25T09:46:03Z</time></trkpt><trkpt lat="59.0821968857" lon="30.0151605718"><ele>76.56</ele><time>2026-04-25T09:46:11Z</time></trkpt><trkpt lat="59.0822376218" lon="30.0153183192"><ele>76.56</ele><time>2026-04-25T09:46:24Z</time></trkpt><trkpt lat="59.0822441597" lon="30.0154277869"><ele>76.56</ele><time>2026-04-25T09:46:37Z</time></trkpt><trkpt lat="59.0822247136" lon="30.0154172257"><ele>76.56</ele><time>2026-04-25T09:47:03Z</time></trkpt><trkpt lat="59.0821630228" lon="30.0154702831"><ele>76.56</ele><time>2026-04-25T09:47:15Z</time></trkpt><trkpt lat="59.0820895974" lon="30.0154982787"><ele>76.56</ele><time>2026-04-25T09:47:24Z</time></trkpt><trkpt lat="59.0820448380" lon="30.0155431218"><ele>76.56</ele><time>2026-04-25T09:47:29Z</time></trkpt><trkpt lat="59.0820027608" lon="30.0155674294"><ele>76.56</ele><time>2026-04-25T09:47:33Z</time></trkpt><trkpt lat="59.0819571633" lon="30.0155983586"><ele>76.56</ele><time>2026-04-25T09:47:38Z</time></trkpt><trkpt lat="59.0818534791" lon="30.0156497397"><ele>76.56</ele><time>2026-04-25T09:47:50Z</time></trkpt><trkpt lat="59.0818401519" lon="30.0156434532"><ele>76.56</ele><time>2026-04-25T09:47:52Z</time></trkpt><trkpt lat="59.0818062052" lon="30.0157072395"><ele>76.56</ele><time>2026-04-25T09:47:57Z</time></trkpt><trkpt lat="59.0817751922" lon="30.0157309603"><ele>76.56</ele><time>2026-04-25T09:48:12Z</time></trkpt><trkpt lat="59.0817346238" lon="30.0156180561"><ele>76.08</ele><time>2026-04-25T09:48:28Z</time></trkpt><trkpt lat="59.0817000903" lon="30.0154827721"><ele>76.08</ele><time>2026-04-25T09:48:39Z</time></trkpt><trkpt lat="59.0816860087" lon="30.0153799262"><ele>76.08</ele><time>2026-04-25T09:48:52Z</time></trkpt><trkpt lat="59.0816602763" lon="30.0152681954"><ele>76.56</ele><time>2026-04-25T09:49:05Z</time></trkpt><trkpt lat="59.0816572588" lon="30.0151537824"><ele>76.56</ele><time>2026-04-25T09:49:18Z</time></trkpt><trkpt lat="59.0816399083" lon="30.0150524452"><ele>76.56</ele><time>2026-04-25T09:49:30Z</time></trkpt><trkpt lat="59.0816302691" lon="30.0150328316"><ele>76.56</ele><time>2026-04-25T09:49:32Z</time></trkpt><trkpt lat="59.0816167742" lon="30.0148641039"><ele>76.56</ele><time>2026-04-25T09:49:45Z</time></trkpt><trkpt lat="59.0815919638" lon="30.0147991441"><ele>76.56</ele><time>2026-04-25T09:49:51Z</time></trkpt><trkpt lat="59.0815486293" lon="30.0146004092"><ele>76.56</ele><time>2026-04-25T09:50:04Z</time></trkpt><trkpt lat="59.0814933926" lon="30.0144165102"><ele>76.56</ele><time>2026-04-25T09:50:18Z</time></trkpt><trkpt lat="59.0814787243" lon="30.0142458547"><ele>76.56</ele><time>2026-04-25T09:50:31Z</time></trkpt><trkpt lat="59.0814210568" lon="30.0141306035"><ele>77.04</ele><time>2026-04-25T09:50:42Z</time></trkpt><trkpt lat="59.0814181231" lon="30.0140193757"><ele>77.04</ele><time>2026-04-25T09:50:50Z</time></trkpt><trkpt lat="59.0813821647" lon="30.0139238220"><ele>77.04</ele><time>2026-04-25T09:51:06Z</time></trkpt><trkpt lat="59.0813700110" lon="30.0139271747"><ele>77.04</ele><time>2026-04-25T09:51:34Z</time></trkpt><trkpt lat="59.0813695919" lon="30.0139227323"><ele>77.04</ele><time>2026-04-25T09:51:51Z</time></trkpt><trkpt lat="59.0813696757" lon="30.0139691681"><ele>77.04</ele><time>2026-04-25T09:52:24Z</time></trkpt><trkpt lat="59.0813564323" lon="30.0139768794"><ele>77.52</ele><time>2026-04-25T09:52:56Z</time></trkpt><trkpt lat="59.0813539177" lon="30.0139705930"><ele>77.52</ele><time>2026-04-25T09:53:16Z</time></trkpt><trkpt lat="59.0813017823" lon="30.0139037892"><ele>77.52</ele><time>2026-04-25T09:53:29Z</time></trkpt><trkpt lat="59.0812344756" lon="30.0139919668"><ele>77.52</ele><time>2026-04-25T09:53:41Z</time></trkpt><trkpt lat="59.0811768081" lon="30.0140565075"><ele>77.52</ele><time>2026-04-25T09:53:52Z</time></trkpt><trkpt lat="59.0811530873" lon="30.0140477065"><ele>77.52</ele><time>2026-04-25T09:53:55Z</time></trkpt><trkpt lat="59.0810375847" lon="30.0141080562"><ele>77.04</ele><time>2026-04-25T09:54:10Z</time></trkpt><trkpt lat="59.0809324756" lon="30.0141765364"><ele>77.04</ele><time>2026-04-25T09:54:21Z</time></trkpt><trkpt lat="59.0809054021" lon="30.0141547434"><ele>77.04</ele><time>2026-04-25T09:54:49Z</time></trkpt><trkpt lat="59.0809130296" lon="30.0141717587"><ele>77.04</ele><time>2026-04-25T09:55:11Z</time></trkpt><trkpt lat="59.0809193160" lon="30.0141949765"><ele>77.04</ele><time>2026-04-25T09:55:25Z</time></trkpt><trkpt lat="59.0809082519" lon="30.0142383948"><ele>77.04</ele><time>2026-04-25T09:55:28Z</time></trkpt><trkpt lat="59.0809289552" lon="30.0144142471"><ele>77.04</ele><time>2026-04-25T09:55:40Z</time></trkpt><trkpt lat="59.0809499938" lon="30.0146216154"><ele>77.04</ele><time>2026-04-25T09:55:51Z</time></trkpt><trkpt lat="59.0809943341" lon="30.0148097891"><ele>77.04</ele><time>2026-04-25T09:56:02Z</time></trkpt><trkpt lat="59.0810000338" lon="30.0148841366"><ele>77.04</ele><time>2026-04-25T09:56:06Z</time></trkpt><trkpt lat="59.0810165461" lon="30.0149326678"><ele>77.04</ele><time>2026-04-25T09:56:09Z</time></trkpt><trkpt lat="59.0810861159" lon="30.0150308199"><ele>77.04</ele><time>2026-04-25T09:56:21Z</time></trkpt><trkpt lat="59.0810951684" lon="30.0150686223"><ele>77.04</ele><time>2026-04-25T09:56:31Z</time></trkpt><trkpt lat="59.0810728725" lon="30.0152028166"><ele>77.04</ele><time>2026-04-25T09:56:39Z</time></trkpt><trkpt lat="59.0810564440" lon="30.0152541976"><ele>77.04</ele><time>2026-04-25T09:56:42Z</time></trkpt><trkpt lat="59.0810684301" lon="30.0153997075"><ele>77.04</ele><time>2026-04-25T09:56:51Z</time></trkpt><trkpt lat="59.0810619760" lon="30.0154417846"><ele>77.04</ele><time>2026-04-25T09:56:54Z</time></trkpt><trkpt lat="59.0810901392" lon="30.0155742187"><ele>77.04</ele><time>2026-04-25T09:57:02Z</time></trkpt><trkpt lat="59.0810955875" lon="30.0156085007"><ele>77.04</ele><time>2026-04-25T09:57:04Z</time></trkpt><trkpt lat="59.0811221581" lon="30.0157273561"><ele>77.04</ele><time>2026-04-25T09:57:13Z</time></trkpt><trkpt lat="59.0811260976" lon="30.0158569403"><ele>77.04</ele><time>2026-04-25T09:57:24Z</time></trkpt><trkpt lat="59.0811571106" lon="30.0159700960"><ele>77.04</ele><time>2026-04-25T09:57:35Z</time></trkpt><trkpt lat="59.0811454598" lon="30.0159581099"><ele>76.56</ele><time>2026-04-25T09:57:50Z</time></trkpt><trkpt lat="59.0811183024" lon="30.0159479678"><ele>76.56</ele><time>2026-04-25T09:57:55Z</time></trkpt><trkpt lat="59.0810840204" lon="30.0159776397"><ele>76.56</ele><time>2026-04-25T09:58:01Z</time></trkpt><trkpt lat="59.0810600482" lon="30.0159984268"><ele>76.56</ele><time>2026-04-25T09:58:04Z</time></trkpt><trkpt lat="59.0810181387" lon="30.0160640571"><ele>76.56</ele><time>2026-04-25T09:58:12Z</time></trkpt><trkpt lat="59.0809493233" lon="30.0160504784"><ele>76.56</ele><time>2026-04-25T09:58:22Z</time></trkpt><trkpt lat="59.0809085034" lon="30.0161035359"><ele>76.56</ele><time>2026-04-25T09:58:32Z</time></trkpt><trkpt lat="59.0808436275" lon="30.0161881093"><ele>76.56</ele><time>2026-04-25T09:58:44Z</time></trkpt><trkpt lat="59.0807962697" lon="30.0162076391"><ele>76.56</ele><time>2026-04-25T09:58:50Z</time></trkpt><trkpt lat="59.0807591379" lon="30.0162056275"><ele>76.56</ele><time>2026-04-25T09:58:55Z</time></trkpt><trkpt lat="59.0807030629" lon="30.0162513927"><ele>76.56</ele><time>2026-04-25T09:59:08Z</time></trkpt><trkpt lat="59.0806900710" lon="30.0162050407"><ele>76.56</ele><time>2026-04-25T09:59:34Z</time></trkpt><trkpt lat="59.0806615725" lon="30.0161226466"><ele>76.56</ele><time>2026-04-25T09:59:41Z</time></trkpt><trkpt lat="59.0806315653" lon="30.0160494726"><ele>76.56</ele><time>2026-04-25T09:59:46Z</time></trkpt><trkpt lat="59.0805984568" lon="30.0160025340"><ele>76.56</ele><time>2026-04-25T09:59:51Z</time></trkpt><trkpt lat="59.0806011390" lon="30.0159079861"><ele>76.56</ele><time>2026-04-25T10:00:01Z</time></trkpt><trkpt lat="59.0806008875" lon="30.0158580299"><ele>76.56</ele><time>2026-04-25T10:00:13Z</time></trkpt><trkpt lat="59.0805809386" lon="30.0157745462"><ele>76.56</ele><time>2026-04-25T10:00:24Z</time></trkpt><trkpt lat="59.0805752389" lon="30.0157419406"><ele>77.04</ele><time>2026-04-25T10:00:28Z</time></trkpt><trkpt lat="59.0805527754" lon="30.0156357419"><ele>77.04</ele><time>2026-04-25T10:00:38Z</time></trkpt><trkpt lat="59.0805437230" lon="30.0155257713"><ele>77.04</ele><time>2026-04-25T10:00:50Z</time></trkpt><trkpt lat="59.0805096924" lon="30.0153368432"><ele>77.04</ele><time>2026-04-25T10:01:03Z</time></trkpt><trkpt lat="59.0805019811" lon="30.0153235998"><ele>77.04</ele><time>2026-04-25T10:01:04Z</time></trkpt><trkpt lat="59.0804548748" lon="30.0151511002"><ele>77.04</ele><time>2026-04-25T10:01:16Z</time></trkpt><trkpt lat="59.0804522764" lon="30.0151043292"><ele>77.04</ele><time>2026-04-25T10:01:28Z</time></trkpt><trkpt lat="59.0804563835" lon="30.0150321610"><ele>77.52</ele><time>2026-04-25T10:01:46Z</time></trkpt><trkpt lat="59.0804454871" lon="30.0148484297"><ele>77.52</ele><time>2026-04-25T10:02:00Z</time></trkpt><trkpt lat="59.0804175753" lon="30.0146962982"><ele>77.52</ele><time>2026-04-25T10:02:10Z</time></trkpt><trkpt lat="59.0804210957" lon="30.0146117248"><ele>77.52</ele><time>2026-04-25T10:02:22Z</time></trkpt><trkpt lat="59.0803832095" lon="30.0145582482"><ele>77.52</ele><time>2026-04-25T10:02:36Z</time></trkpt><trkpt lat="59.0803607460" lon="30.0145203620"><ele>77.52</ele><time>2026-04-25T10:03:04Z</time></trkpt><trkpt lat="59.0803552140" lon="30.0144807156"><ele>77.52</ele><time>2026-04-25T10:03:36Z</time></trkpt><trkpt lat="59.0803566389" lon="30.0144848228"><ele>77.52</ele><time>2026-04-25T10:04:01Z</time></trkpt><trkpt lat="59.0803549625" lon="30.0144769438"><ele>77.52</ele><time>2026-04-25T10:04:20Z</time></trkpt><trkpt lat="59.0803415515" lon="30.0144743454"><ele>78.48</ele><time>2026-04-25T10:04:44Z</time></trkpt><trkpt lat="59.0803084429" lon="30.0145174284"><ele>78.48</ele><time>2026-04-25T10:04:55Z</time></trkpt><trkpt lat="59.0802351851" lon="30.0145763531"><ele>78.48</ele><time>2026-04-25T10:05:08Z</time></trkpt><trkpt lat="59.0801999811" lon="30.0146418996"><ele>78.48</ele><time>2026-04-25T10:05:15Z</time></trkpt><trkpt lat="59.0801287349" lon="30.0146829709"><ele>78.48</ele><time>2026-04-25T10:05:25Z</time></trkpt><trkpt lat="59.0800702292" lon="30.0146644469"><ele>78.48</ele><time>2026-04-25T10:05:37Z</time></trkpt><trkpt lat="59.0799713228" lon="30.0146139879"><ele>78.48</ele><time>2026-04-25T10:05:50Z</time></trkpt><trkpt lat="59.0798857436" lon="30.0146564841"><ele>78.48</ele><time>2026-04-25T10:06:03Z</time></trkpt><trkpt lat="59.0798358712" lon="30.0146374572"><ele>78.48</ele><time>2026-04-25T10:06:19Z</time></trkpt><trkpt lat="59.0798211191" lon="30.0146659557"><ele>78.97</ele><time>2026-04-25T10:06:44Z</time></trkpt><trkpt lat="59.0798197780" lon="30.0146531314"><ele>78.97</ele><time>2026-04-25T10:07:08Z</time></trkpt><trkpt lat="59.0798160899" lon="30.0146605074"><ele>78.97</ele><time>2026-04-25T10:07:30Z</time></trkpt><trkpt lat="59.0798121504" lon="30.0146767683"><ele>78.97</ele><time>2026-04-25T10:07:51Z</time></trkpt><trkpt lat="59.0798046067" lon="30.0146820489"><ele>79.45</ele><time>2026-04-25T10:08:12Z</time></trkpt><trkpt lat="59.0798021760" lon="30.0146852341"><ele>79.45</ele><time>2026-04-25T10:08:40Z</time></trkpt><trkpt lat="59.0798019245" lon="30.0146810431"><ele>79.45</ele><time>2026-04-25T10:09:11Z</time></trkpt><trkpt lat="59.0797866695" lon="30.0146978907"><ele>79.93</ele><time>2026-04-25T10:09:39Z</time></trkpt><trkpt lat="59.0797864180" lon="30.0146952085"><ele>79.93</ele><time>2026-04-25T10:09:59Z</time></trkpt><trkpt lat="59.0797932073" lon="30.0147004891"><ele>78.97</ele><time>2026-04-25T10:10:25Z</time></trkpt><trkpt lat="59.0798046067" lon="30.0147199351"><ele>78.97</ele><time>2026-04-25T10:10:52Z</time></trkpt><trkpt lat="59.0798108093" lon="30.0147337653"><ele>79.45</ele><time>2026-04-25T10:11:22Z</time></trkpt><trkpt lat="59.0798172634" lon="30.0147412252"><ele>79.45</ele><time>2026-04-25T10:11:50Z</time></trkpt><trkpt lat="59.0798204485" lon="30.0147318374"><ele>79.93</ele><time>2026-04-25T10:12:19Z</time></trkpt><trkpt lat="59.0798250586" lon="30.0147464219"><ele>79.93</ele><time>2026-04-25T10:12:47Z</time></trkpt><trkpt lat="59.0798357874" lon="30.0147618446"><ele>79.93</ele><time>2026-04-25T10:13:17Z</time></trkpt><trkpt lat="59.0798479412" lon="30.0147667900"><ele>79.93</ele><time>2026-04-25T10:13:49Z</time></trkpt><trkpt lat="59.0798559040" lon="30.0147708133"><ele>79.93</ele><time>2026-04-25T10:14:14Z</time></trkpt><trkpt lat="59.0798605140" lon="30.0147755910"><ele>80.41</ele><time>2026-04-25T10:14:43Z</time></trkpt><trkpt lat="59.0798634477" lon="30.0147700589"><ele>81.37</ele><time>2026-04-25T10:15:06Z</time></trkpt><trkpt lat="59.0798661299" lon="30.0147794466"><ele>81.37</ele><time>2026-04-25T10:15:34Z</time></trkpt><trkpt lat="59.0798740089" lon="30.0147902593"><ele>81.37</ele><time>2026-04-25T10:16:02Z</time></trkpt><trkpt lat="59.0798773617" lon="30.0147852302"><ele>81.37</ele><time>2026-04-25T10:16:36Z</time></trkpt><trkpt lat="59.0798514616" lon="30.0147977192"><ele>81.85</ele><time>2026-04-25T10:16:59Z</time></trkpt><trkpt lat="59.0798295848" lon="30.0148028322"><ele>81.85</ele><time>2026-04-25T10:17:10Z</time></trkpt><trkpt lat="59.0798441693" lon="30.0148355216"><ele>81.85</ele><time>2026-04-25T10:17:20Z</time></trkpt><trkpt lat="59.0798427444" lon="30.0149470847"><ele>81.85</ele><time>2026-04-25T10:17:32Z</time></trkpt><trkpt lat="59.0798517969" lon="30.0151294749"><ele>81.85</ele><time>2026-04-25T10:17:45Z</time></trkpt><trkpt lat="59.0798643697" lon="30.0153272040"><ele>82.33</ele><time>2026-04-25T10:17:56Z</time></trkpt><trkpt lat="59.0799094643" lon="30.0155087560"><ele>82.33</ele><time>2026-04-25T10:18:10Z</time></trkpt><trkpt lat="59.0799327660" lon="30.0156279467"><ele>82.33</ele><time>2026-04-25T10:18:21Z</time></trkpt><trkpt lat="59.0799618512" lon="30.0157335587"><ele>82.33</ele><time>2026-04-25T10:18:33Z</time></trkpt><trkpt lat="59.0799802914" lon="30.0159248337"><ele>82.33</ele><time>2026-04-25T10:18:45Z</time></trkpt><trkpt lat="59.0800034255" lon="30.0160311162"><ele>82.33</ele><time>2026-04-25T10:18:58Z</time></trkpt><trkpt lat="59.0800574049" lon="30.0162199605"><ele>82.33</ele><time>2026-04-25T10:19:11Z</time></trkpt><trkpt lat="59.0801054332" lon="30.0163081381"><ele>82.33</ele><time>2026-04-25T10:19:23Z</time></trkpt><trkpt lat="59.0801190957" lon="30.0163646322"><ele>82.33</ele><time>2026-04-25T10:19:41Z</time></trkpt><trkpt lat="59.0801100433" lon="30.0164197851"><ele>81.85</ele><time>2026-04-25T10:20:07Z</time></trkpt><trkpt lat="59.0800945368" lon="30.0164107326"><ele>81.85</ele><time>2026-04-25T10:20:20Z</time></trkpt><trkpt lat="59.0800869092" lon="30.0165183563"><ele>81.85</ele><time>2026-04-25T10:20:33Z</time></trkpt><trkpt lat="59.0799914394" lon="30.0165117346"><ele>81.85</ele><time>2026-04-25T10:20:46Z</time></trkpt><trkpt lat="59.0799325146" lon="30.0165433343"><ele>81.85</ele><time>2026-04-25T10:20:58Z</time></trkpt><trkpt lat="59.0798598435" lon="30.0166446716"><ele>81.85</ele><time>2026-04-25T10:21:09Z</time></trkpt><trkpt lat="59.0798030980" lon="30.0166729186"><ele>81.85</ele><time>2026-04-25T10:21:17Z</time></trkpt><trkpt lat="59.0796910319" lon="30.0166360382"><ele>81.85</ele><time>2026-04-25T10:21:30Z</time></trkpt><trkpt lat="59.0796580072" lon="30.0166565739"><ele>81.85</ele><time>2026-04-25T10:21:56Z</time></trkpt><trkpt lat="59.0796488710" lon="30.0166138262"><ele>81.85</ele><time>2026-04-25T10:22:13Z</time></trkpt><trkpt lat="59.0796164330" lon="30.0164428353"><ele>81.85</ele><time>2026-04-25T10:22:24Z</time></trkpt><trkpt lat="59.0795935504" lon="30.0163829885"><ele>81.85</ele><time>2026-04-25T10:22:28Z</time></trkpt><trkpt lat="59.0795899462" lon="30.0163337030"><ele>81.85</ele><time>2026-04-25T10:22:30Z</time></trkpt><trkpt lat="59.0796330292" lon="30.0162039511"><ele>81.85</ele><time>2026-04-25T10:22:40Z</time></trkpt><trkpt lat="59.0795604419" lon="30.0160857663"><ele>81.85</ele><time>2026-04-25T10:22:51Z</time></trkpt><trkpt lat="59.0794990025" lon="30.0159434415"><ele>81.85</ele><time>2026-04-25T10:22:59Z</time></trkpt><trkpt lat="59.0794614516" lon="30.0157812517"><ele>81.85</ele><time>2026-04-25T10:23:10Z</time></trkpt><trkpt lat="59.0794715937" lon="30.0156495720"><ele>81.85</ele><time>2026-04-25T10:23:20Z</time></trkpt><trkpt lat="59.0794403292" lon="30.0155604724"><ele>81.85</ele><time>2026-04-25T10:23:31Z</time></trkpt><trkpt lat="59.0794604458" lon="30.0155192334"><ele>83.29</ele><time>2026-04-25T10:23:40Z</time></trkpt><trkpt lat="59.0794679895" lon="30.0154719595"><ele>83.29</ele><time>2026-04-25T10:24:05Z</time></trkpt><trkpt lat="59.0794088133" lon="30.0154552795"><ele>83.29</ele><time>2026-04-25T10:24:13Z</time></trkpt><trkpt lat="59.0793391597" lon="30.0153655093"><ele>83.29</ele><time>2026-04-25T10:24:24Z</time></trkpt><trkpt lat="59.0793018602" lon="30.0153470691"><ele>83.77</ele><time>2026-04-25T10:24:49Z</time></trkpt><trkpt lat="59.0792822465" lon="30.0153109431"><ele>83.77</ele><time>2026-04-25T10:25:20Z</time></trkpt><trkpt lat="59.0792835038" lon="30.0152693689"><ele>83.77</ele><time>2026-04-25T10:25:54Z</time></trkpt><trkpt lat="59.0792868566" lon="30.0152728893"><ele>83.77</ele><time>2026-04-25T10:26:19Z</time></trkpt><trkpt lat="59.0792954899" lon="30.0152635016"><ele>83.77</ele><time>2026-04-25T10:26:26Z</time></trkpt><trkpt lat="59.0793410875" lon="30.0152191613"><ele>84.25</ele><time>2026-04-25T10:26:40Z</time></trkpt><trkpt lat="59.0793580189" lon="30.0151713844"><ele>84.25</ele><time>2026-04-25T10:26:52Z</time></trkpt><trkpt lat="59.0793772973" lon="30.0150617491"><ele>84.25</ele><time>2026-04-25T10:27:05Z</time></trkpt><trkpt lat="59.0793829132" lon="30.0149795227"><ele>82.81</ele><time>2026-04-25T10:27:26Z</time></trkpt><trkpt lat="59.0793415066" lon="30.0149081927"><ele>82.81</ele><time>2026-04-25T10:27:39Z</time></trkpt><trkpt lat="59.0792715177" lon="30.0148482621"><ele>83.77</ele><time>2026-04-25T10:27:54Z</time></trkpt><trkpt lat="59.0792757925" lon="30.0148008205"><ele>83.77</ele><time>2026-04-25T10:28:05Z</time></trkpt><trkpt lat="59.0793113317" lon="30.0146843959"><ele>84.25</ele><time>2026-04-25T10:28:18Z</time></trkpt><trkpt lat="59.0793354716" lon="30.0145688932"><ele>84.25</ele><time>2026-04-25T10:28:31Z</time></trkpt><trkpt lat="59.0793404169" lon="30.0144538935"><ele>84.25</ele><time>2026-04-25T10:28:41Z</time></trkpt><trkpt lat="59.0793726034" lon="30.0142432563"><ele>84.25</ele><time>2026-04-25T10:28:56Z</time></trkpt><trkpt lat="59.0794028621" lon="30.0141018536"><ele>84.25</ele><time>2026-04-25T10:29:07Z</time></trkpt><trkpt lat="59.0794338752" lon="30.0140176993"><ele>84.25</ele><time>2026-04-25T10:29:27Z</time></trkpt><trkpt lat="59.0794295166" lon="30.0139402505"><ele>84.25</ele><time>2026-04-25T10:29:47Z</time></trkpt><trkpt lat="59.0794242360" lon="30.0138866901"><ele>84.25</ele><time>2026-04-25T10:30:06Z</time></trkpt><trkpt lat="59.0794087294" lon="30.0138477981"><ele>84.25</ele><time>2026-04-25T10:30:12Z</time></trkpt><trkpt lat="59.0794135910" lon="30.0137613807"><ele>84.25</ele><time>2026-04-25T10:30:23Z</time></trkpt><trkpt lat="59.0794599429" lon="30.0137241650"><ele>84.25</ele><time>2026-04-25T10:30:42Z</time></trkpt><trkpt lat="59.0794710070" lon="30.0137374923"><ele>84.25</ele><time>2026-04-25T10:31:13Z</time></trkpt><trkpt lat="59.0794715099" lon="30.0136976782"><ele>84.25</ele><time>2026-04-25T10:31:37Z</time></trkpt><trkpt lat="59.0794314444" lon="30.0134809222"><ele>84.25</ele><time>2026-04-25T10:31:51Z</time></trkpt><trkpt lat="59.0794413351" lon="30.0134939980"><ele>84.73</ele><time>2026-04-25T10:32:11Z</time></trkpt><trkpt lat="59.0794327017" lon="30.0134924054"><ele>84.73</ele><time>2026-04-25T10:32:39Z</time></trkpt><trkpt lat="59.0794182848" lon="30.0135183893"><ele>84.73</ele><time>2026-04-25T10:32:41Z</time></trkpt><trkpt lat="59.0793898702" lon="30.0135597959"><ele>84.73</ele><time>2026-04-25T10:32:44Z</time></trkpt><trkpt lat="59.0793133434" lon="30.0135052297"><ele>84.73</ele><time>2026-04-25T10:32:57Z</time></trkpt><trkpt lat="59.0792911313" lon="30.0134556927"><ele>84.73</ele><time>2026-04-25T10:33:06Z</time></trkpt><trkpt lat="59.0792101622" lon="30.0133212470"><ele>84.73</ele><time>2026-04-25T10:33:20Z</time></trkpt><trkpt lat="59.0791607928" lon="30.0133389328"><ele>84.73</ele><time>2026-04-25T10:33:32Z</time></trkpt><trkpt lat="59.0791116748" lon="30.0133370049"><ele>84.73</ele><time>2026-04-25T10:33:44Z</time></trkpt><trkpt lat="59.0790923126" lon="30.0133922417"><ele>84.73</ele><time>2026-04-25T10:33:55Z</time></trkpt><trkpt lat="59.0790626407" lon="30.0135103427"><ele>84.73</ele><time>2026-04-25T10:34:06Z</time></trkpt><trkpt lat="59.0790696815" lon="30.0136372447"><ele>84.73</ele><time>2026-04-25T10:34:23Z</time></trkpt><trkpt lat="59.0790666640" lon="30.0137390010"><ele>84.73</ele><time>2026-04-25T10:34:33Z</time></trkpt><trkpt lat="59.0790514927" lon="30.0137567706"><ele>84.73</ele><time>2026-04-25T10:34:39Z</time></trkpt><trkpt lat="59.0789694339" lon="30.0137923937"><ele>84.73</ele><time>2026-04-25T10:34:53Z</time></trkpt><trkpt lat="59.0789231658" lon="30.0138343032"><ele>84.73</ele><time>2026-04-25T10:35:05Z</time></trkpt><trkpt lat="59.0788233373" lon="30.0138996821"><ele>84.25</ele><time>2026-04-25T10:35:16Z</time></trkpt><trkpt lat="59.0787217487" lon="30.0139596127"><ele>84.25</ele><time>2026-04-25T10:35:28Z</time></trkpt><trkpt lat="59.0786483232" lon="30.0140557531"><ele>84.25</ele><time>2026-04-25T10:35:40Z</time></trkpt><trkpt lat="59.0785939246" lon="30.0141376443"><ele>84.73</ele><time>2026-04-25T10:36:01Z</time></trkpt><trkpt lat="59.0786071680" lon="30.0142385624"><ele>84.73</ele><time>2026-04-25T10:36:14Z</time></trkpt><trkpt lat="59.0786126163" lon="30.0143207889"><ele>84.73</ele><time>2026-04-25T10:36:29Z</time></trkpt><trkpt lat="59.0786297154" lon="30.0143906102"><ele>84.73</ele><time>2026-04-25T10:36:38Z</time></trkpt><trkpt lat="59.0786618181" lon="30.0144782010"><ele>84.73</ele><time>2026-04-25T10:36:56Z</time></trkpt><trkpt lat="59.0786968544" lon="30.0145538896"><ele>84.73</ele><time>2026-04-25T10:37:11Z</time></trkpt><trkpt lat="59.0787310526" lon="30.0145906862"><ele>84.73</ele><time>2026-04-25T10:37:16Z</time></trkpt><trkpt lat="59.0787901450" lon="30.0146735832"><ele>84.73</ele><time>2026-04-25T10:37:28Z</time></trkpt><trkpt lat="59.0788788255" lon="30.0147977192"><ele>84.73</ele><time>2026-04-25T10:37:40Z</time></trkpt><trkpt lat="59.0789432824" lon="30.0148502737"><ele>84.25</ele><time>2026-04-25T10:37:52Z</time></trkpt><trkpt lat="59.0789963398" lon="30.0148592424"><ele>84.25</ele><time>2026-04-25T10:38:01Z</time></trkpt><trkpt lat="59.0790832601" lon="30.0149041694"><ele>84.25</ele><time>2026-04-25T10:38:09Z</time></trkpt><trkpt lat="59.0791554283" lon="30.0149482582"><ele>84.25</ele><time>2026-04-25T10:38:20Z</time></trkpt><trkpt lat="59.0791666601" lon="30.0149878208"><ele>84.25</ele><time>2026-04-25T10:38:48Z</time></trkpt><trkpt lat="59.0790918097" lon="30.0149455760"><ele>84.25</ele><time>2026-04-25T10:38:58Z</time></trkpt><trkpt lat="59.0789970104" lon="30.0149715599"><ele>84.25</ele><time>2026-04-25T10:39:10Z</time></trkpt><trkpt lat="59.0789219923" lon="30.0149953645"><ele>82.81</ele><time>2026-04-25T10:39:21Z</time></trkpt><trkpt lat="59.0788647439" lon="30.0150433928"><ele>82.81</ele><time>2026-04-25T10:39:32Z</time></trkpt><trkpt lat="59.0787876304" lon="30.0150368549"><ele>82.81</ele><time>2026-04-25T10:39:51Z</time></trkpt><trkpt lat="59.0787643287" lon="30.0150504336"><ele>82.81</ele><time>2026-04-25T10:40:05Z</time></trkpt><trkpt lat="59.0787758958" lon="30.0152156409"><ele>82.81</ele><time>2026-04-25T10:40:16Z</time></trkpt><trkpt lat="59.0788038913" lon="30.0153615698"><ele>82.81</ele><time>2026-04-25T10:40:26Z</time></trkpt><trkpt lat="59.0787994489" lon="30.0155074988"><ele>82.81</ele><time>2026-04-25T10:40:38Z</time></trkpt><trkpt lat="59.0787970182" lon="30.0156059023"><ele>82.81</ele><time>2026-04-25T10:40:46Z</time></trkpt><trkpt lat="59.0788409393" lon="30.0157633144"><ele>82.81</ele><time>2026-04-25T10:40:56Z</time></trkpt><trkpt lat="59.0789064020" lon="30.0160343014"><ele>82.81</ele><time>2026-04-25T10:41:10Z</time></trkpt><trkpt lat="59.0789173823" lon="30.0161852594"><ele>82.81</ele><time>2026-04-25T10:41:20Z</time></trkpt><trkpt lat="59.0789179690" lon="30.0162047893"><ele>82.81</ele><time>2026-04-25T10:41:21Z</time></trkpt><trkpt lat="59.0789239202" lon="30.0164168514"><ele>82.33</ele><time>2026-04-25T10:41:32Z</time></trkpt><trkpt lat="59.0789629798" lon="30.0165959727"><ele>82.33</ele><time>2026-04-25T10:41:43Z</time></trkpt><trkpt lat="59.0789739601" lon="30.0167152472"><ele>82.33</ele><time>2026-04-25T10:41:55Z</time></trkpt><trkpt lat="59.0790035482" lon="30.0167731661"><ele>82.33</ele><time>2026-04-25T10:42:05Z</time></trkpt><trkpt lat="59.0790403448" lon="30.0169112161"><ele>82.33</ele><time>2026-04-25T10:42:17Z</time></trkpt><trkpt lat="59.0790593717" lon="30.0169960409"><ele>82.33</ele><time>2026-04-25T10:42:28Z</time></trkpt><trkpt lat="59.0790540073" lon="30.0170428120"><ele>82.33</ele><time>2026-04-25T10:42:46Z</time></trkpt><trkpt lat="59.0790159535" lon="30.0170812011"><ele>82.33</ele><time>2026-04-25T10:42:57Z</time></trkpt><trkpt lat="59.0789370798" lon="30.0170731544"><ele>82.33</ele><time>2026-04-25T10:43:09Z</time></trkpt><trkpt lat="59.0788606368" lon="30.0171134714"><ele>82.33</ele><time>2026-04-25T10:43:20Z</time></trkpt><trkpt lat="59.0788597148" lon="30.0171216857"><ele>82.33</ele><time>2026-04-25T10:43:25Z</time></trkpt><trkpt lat="59.0787984431" lon="30.0171282236"><ele>82.33</ele><time>2026-04-25T10:43:36Z</time></trkpt><trkpt lat="59.0787314717" lon="30.0171149801"><ele>82.33</ele><time>2026-04-25T10:43:48Z</time></trkpt><trkpt lat="59.0786941722" lon="30.0171129685"><ele>82.33</ele><time>2026-04-25T10:43:59Z</time></trkpt><trkpt lat="59.0786665119" lon="30.0171263795"><ele>82.33</ele><time>2026-04-25T10:44:09Z</time></trkpt><trkpt lat="59.0786247700" lon="30.0171754975"><ele>82.33</ele><time>2026-04-25T10:44:21Z</time></trkpt><trkpt lat="59.0785550326" lon="30.0172710512"><ele>82.33</ele><time>2026-04-25T10:44:33Z</time></trkpt><trkpt lat="59.0785149671" lon="30.0173201691"><ele>82.33</ele><time>2026-04-25T10:44:55Z</time></trkpt><trkpt lat="59.0784960240" lon="30.0172952749"><ele>82.33</ele><time>2026-04-25T10:45:05Z</time></trkpt><trkpt lat="59.0784683637" lon="30.0171425566"><ele>82.33</ele><time>2026-04-25T10:45:19Z</time></trkpt><trkpt lat="59.0784702916" lon="30.0170641858"><ele>82.33</ele><time>2026-04-25T10:45:28Z</time></trkpt><trkpt lat="59.0784796793" lon="30.0169883296"><ele>82.33</ele><time>2026-04-25T10:45:41Z</time></trkpt><trkpt lat="59.0784807689" lon="30.0169857312"><ele>82.33</ele><time>2026-04-25T10:45:42Z</time></trkpt><trkpt lat="59.0784811042" lon="30.0168435741"><ele>82.33</ele><time>2026-04-25T10:45:54Z</time></trkpt><trkpt lat="59.0784701239" lon="30.0167804584"><ele>83.29</ele><time>2026-04-25T10:46:06Z</time></trkpt><trkpt lat="59.0784639213" lon="30.0167501159"><ele>83.77</ele><time>2026-04-25T10:46:20Z</time></trkpt><trkpt lat="59.0784437209" lon="30.0166831445"><ele>83.77</ele><time>2026-04-25T10:46:30Z</time></trkpt><trkpt lat="59.0784418769" lon="30.0166484434"><ele>83.77</ele><time>2026-04-25T10:46:36Z</time></trkpt><trkpt lat="59.0784163959" lon="30.0165165961"><ele>83.77</ele><time>2026-04-25T10:46:49Z</time></trkpt><trkpt lat="59.0784122050" lon="30.0164845772"><ele>83.77</ele><time>2026-04-25T10:46:53Z</time></trkpt><trkpt lat="59.0783781745" lon="30.0163388159"><ele>83.29</ele><time>2026-04-25T10:47:05Z</time></trkpt><trkpt lat="59.0783685353" lon="30.0162104890"><ele>83.29</ele><time>2026-04-25T10:47:17Z</time></trkpt><trkpt lat="59.0783143882" lon="30.0160180405"><ele>83.29</ele><time>2026-04-25T10:47:30Z</time></trkpt><trkpt lat="59.0783184115" lon="30.0159976725"><ele>83.29</ele><time>2026-04-25T10:47:33Z</time></trkpt><trkpt lat="59.0783272963" lon="30.0159338862"><ele>83.29</ele><time>2026-04-25T10:47:44Z</time></trkpt><trkpt lat="59.0783421323" lon="30.0158452895"><ele>83.29</ele><time>2026-04-25T10:47:58Z</time></trkpt><trkpt lat="59.0783516038" lon="30.0157586206"><ele>83.77</ele><time>2026-04-25T10:48:10Z</time></trkpt><trkpt lat="59.0783039108" lon="30.0155878812"><ele>83.77</ele><time>2026-04-25T10:48:22Z</time></trkpt><trkpt lat="59.0782635938" lon="30.0155019667"><ele>83.77</ele><time>2026-04-25T10:48:34Z</time></trkpt><trkpt lat="59.0782526974" lon="30.0153944269"><ele>83.77</ele><time>2026-04-25T10:48:46Z</time></trkpt><trkpt lat="59.0782516915" lon="30.0153686944"><ele>83.77</ele><time>2026-04-25T10:49:15Z</time></trkpt><trkpt lat="59.0782239474" lon="30.0153193250"><ele>83.77</ele><time>2026-04-25T10:49:27Z</time></trkpt><trkpt lat="59.0781437326" lon="30.0152476598"><ele>83.77</ele><time>2026-04-25T10:49:38Z</time></trkpt><trkpt lat="59.0781057626" lon="30.0152152218"><ele>83.77</ele><time>2026-04-25T10:49:51Z</time></trkpt><trkpt lat="59.0780939441" lon="30.0152045768"><ele>83.77</ele><time>2026-04-25T10:49:55Z</time></trkpt><trkpt lat="59.0780315828" lon="30.0152188260"><ele>83.29</ele><time>2026-04-25T10:50:07Z</time></trkpt><trkpt lat="59.0780138969" lon="30.0152200833"><ele>83.29</ele><time>2026-04-25T10:50:32Z</time></trkpt><trkpt lat="59.0780195966" lon="30.0152205024"><ele>83.29</ele><time>2026-04-25T10:50:45Z</time></trkpt><trkpt lat="59.0780436527" lon="30.0152188260"><ele>83.29</ele><time>2026-04-25T10:50:59Z</time></trkpt><trkpt lat="59.0780679602" lon="30.0152388588"><ele>83.29</ele><time>2026-04-25T10:51:16Z</time></trkpt><trkpt lat="59.0781070199" lon="30.0152329076"><ele>83.29</ele><time>2026-04-25T10:51:27Z</time></trkpt><trkpt lat="59.0781326685" lon="30.0152360089"><ele>83.77</ele><time>2026-04-25T10:51:40Z</time></trkpt><trkpt lat="59.0781394579" lon="30.0152250286"><ele>83.77</ele><time>2026-04-25T10:51:53Z</time></trkpt><trkpt lat="59.0781575628" lon="30.0152239390"><ele>83.77</ele><time>2026-04-25T10:52:06Z</time></trkpt><trkpt lat="59.0781714767" lon="30.0152303930"><ele>83.77</ele><time>2026-04-25T10:52:31Z</time></trkpt><trkpt lat="59.0781791881" lon="30.0152359251"><ele>83.77</ele><time>2026-04-25T10:52:58Z</time></trkpt><trkpt lat="59.0781913418" lon="30.0152240228"><ele>83.77</ele><time>2026-04-25T10:53:24Z</time></trkpt><trkpt lat="59.0782053396" lon="30.0152800977"><ele>83.29</ele><time>2026-04-25T10:53:49Z</time></trkpt><trkpt lat="59.0782516077" lon="30.0153629947"><ele>83.29</ele><time>2026-04-25T10:54:25Z</time></trkpt><trkpt lat="59.0782691259" lon="30.0153904874"><ele>83.29</ele><time>2026-04-25T10:55:00Z</time></trkpt><trkpt lat="59.0783027373" lon="30.0154006295"><ele>83.29</ele><time>2026-04-25T10:55:39Z</time></trkpt><trkpt lat="59.0783120412" lon="30.0153986178"><ele>83.29</ele><time>2026-04-25T10:56:12Z</time></trkpt><trkpt lat="59.0783249494" lon="30.0153931696"><ele>83.29</ele><time>2026-04-25T10:56:46Z</time></trkpt><trkpt lat="59.0783314034" lon="30.0153866317"><ele>82.81</ele><time>2026-04-25T10:57:16Z</time></trkpt><trkpt lat="59.0783397853" lon="30.0153779145"><ele>82.81</ele><time>2026-04-25T10:57:46Z</time></trkpt><trkpt lat="59.0783514362" lon="30.0153411180"><ele>82.81</ele><time>2026-04-25T10:58:20Z</time></trkpt><trkpt lat="59.0783540346" lon="30.0153427944"><ele>83.29</ele><time>2026-04-25T10:58:54Z</time></trkpt><trkpt lat="59.0783441439" lon="30.0153271202"><ele>83.29</ele><time>2026-04-25T10:59:29Z</time></trkpt><trkpt lat="59.0783395339" lon="30.0153731368"><ele>83.29</ele><time>2026-04-25T11:00:08Z</time></trkpt><trkpt lat="59.0783375222" lon="30.0153557025"><ele>83.29</ele><time>2026-04-25T11:00:42Z</time></trkpt><trkpt lat="59.0783503465" lon="30.0153245218"><ele>83.29</ele><time>2026-04-25T11:01:12Z</time></trkpt><trkpt lat="59.0783487540" lon="30.0153207500"><ele>83.29</ele><time>2026-04-25T11:01:29Z</time></trkpt><trkpt lat="59.0783496760" lon="30.0153322332"><ele>83.29</ele><time>2026-04-25T11:02:01Z</time></trkpt><trkpt lat="59.0783505980" lon="30.0153412856"><ele>83.29</ele><time>2026-04-25T11:02:36Z</time></trkpt><trkpt lat="59.0783557948" lon="30.0153394416"><ele>83.29</ele><time>2026-04-25T11:03:09Z</time></trkpt><trkpt lat="59.0783644281" lon="30.0153488293"><ele>83.77</ele><time>2026-04-25T11:03:43Z</time></trkpt><trkpt lat="59.0783536155" lon="30.0153349154"><ele>84.25</ele><time>2026-04-25T11:04:15Z</time></trkpt><trkpt lat="59.0783483349" lon="30.0152934249"><ele>84.25</ele><time>2026-04-25T11:04:32Z</time></trkpt><trkpt lat="59.0783402044" lon="30.0152303092"><ele>84.25</ele><time>2026-04-25T11:04:51Z</time></trkpt><trkpt lat="59.0783076826" lon="30.0151511841"><ele>84.25</ele><time>2026-04-25T11:05:13Z</time></trkpt><trkpt lat="59.0782373585" lon="30.0150935166"><ele>84.25</ele><time>2026-04-25T11:05:25Z</time></trkpt><trkpt lat="59.0782284737" lon="30.0151541177"><ele>84.25</ele><time>2026-04-25T11:05:37Z</time></trkpt><trkpt lat="59.0781910066" lon="30.0151618291"><ele>84.25</ele><time>2026-04-25T11:05:42Z</time></trkpt><trkpt lat="59.0780711453" lon="30.0151764136"><ele>84.73</ele><time>2026-04-25T11:05:54Z</time></trkpt><trkpt lat="59.0780273918" lon="30.0152683631"><ele>84.73</ele><time>2026-04-25T11:06:04Z</time></trkpt><trkpt lat="59.0779931936" lon="30.0152492523"><ele>84.73</ele><time>2026-04-25T11:06:14Z</time></trkpt><trkpt lat="59.0779491886" lon="30.0152180716"><ele>84.73</ele><time>2026-04-25T11:06:24Z</time></trkpt><trkpt lat="59.0779103804" lon="30.0151827000"><ele>84.73</ele><time>2026-04-25T11:06:36Z</time></trkpt><trkpt lat="59.0778963827" lon="30.0152086839"><ele>84.73</ele><time>2026-04-25T11:06:38Z</time></trkpt><trkpt lat="59.0778504498" lon="30.0153076742"><ele>84.25</ele><time>2026-04-25T11:06:49Z</time></trkpt><trkpt lat="59.0778341051" lon="30.0153406151"><ele>84.25</ele><time>2026-04-25T11:06:56Z</time></trkpt><trkpt lat="59.0777544770" lon="30.0153151341"><ele>84.25</ele><time>2026-04-25T11:07:08Z</time></trkpt><trkpt lat="59.0777018387" lon="30.0152956042"><ele>84.25</ele><time>2026-04-25T11:07:21Z</time></trkpt><trkpt lat="59.0776631143" lon="30.0153078418"><ele>84.25</ele><time>2026-04-25T11:07:38Z</time></trkpt><trkpt lat="59.0776285809" lon="30.0153413694"><ele>84.25</ele><time>2026-04-25T11:08:16Z</time></trkpt><trkpt lat="59.0776290838" lon="30.0153483264"><ele>84.73</ele><time>2026-04-25T11:08:29Z</time></trkpt><trkpt lat="59.0776241384" lon="30.0154828560"><ele>85.21</ele><time>2026-04-25T11:08:39Z</time></trkpt><trkpt lat="59.0776284970" lon="30.0155709498"><ele>85.21</ele><time>2026-04-25T11:08:52Z</time></trkpt><trkpt lat="59.0776164271" lon="30.0156474765"><ele>84.73</ele><time>2026-04-25T11:09:06Z</time></trkpt><trkpt lat="59.0776180197" lon="30.0157012884"><ele>84.73</ele><time>2026-04-25T11:09:18Z</time></trkpt><trkpt lat="59.0776316822" lon="30.0157534238"><ele>84.73</ele><time>2026-04-25T11:09:32Z</time></trkpt><trkpt lat="59.0776734240" lon="30.0158282742"><ele>84.73</ele><time>2026-04-25T11:09:45Z</time></trkpt><trkpt lat="59.0777084604" lon="30.0159298629"><ele>84.73</ele><time>2026-04-25T11:09:54Z</time></trkpt><trkpt lat="59.0777253918" lon="30.0159750413"><ele>84.73</ele><time>2026-04-25T11:09:58Z</time></trkpt><trkpt lat="59.0777530521" lon="30.0160690024"><ele>84.73</ele><time>2026-04-25T11:10:04Z</time></trkpt><trkpt lat="59.0777544770" lon="30.0162303541"><ele>84.73</ele><time>2026-04-25T11:10:15Z</time></trkpt><trkpt lat="59.0777396411" lon="30.0163522270"><ele>84.73</ele><time>2026-04-25T11:10:26Z</time></trkpt><trkpt lat="59.0777330194" lon="30.0164880976"><ele>84.73</ele><time>2026-04-25T11:10:38Z</time></trkpt><trkpt lat="59.0777333546" lon="30.0165666360"><ele>84.25</ele><time>2026-04-25T11:10:48Z</time></trkpt><trkpt lat="59.0777459275" lon="30.0166692305"><ele>84.25</ele><time>2026-04-25T11:11:00Z</time></trkpt><trkpt lat="59.0777605120" lon="30.0167476013"><ele>84.25</ele><time>2026-04-25T11:11:11Z</time></trkpt><trkpt lat="59.0777524654" lon="30.0168574043"><ele>84.25</ele><time>2026-04-25T11:11:22Z</time></trkpt><trkpt lat="59.0777678043" lon="30.0169347692"><ele>84.25</ele><time>2026-04-25T11:11:33Z</time></trkpt><trkpt lat="59.0778020862" lon="30.0171121303"><ele>84.25</ele><time>2026-04-25T11:11:46Z</time></trkpt><trkpt lat="59.0777994040" lon="30.0172140542"><ele>84.25</ele><time>2026-04-25T11:12:09Z</time></trkpt><trkpt lat="59.0778158326" lon="30.0172431394"><ele>83.77</ele><time>2026-04-25T11:12:38Z</time></trkpt><trkpt lat="59.0778141562" lon="30.0172778405"><ele>83.77</ele><time>2026-04-25T11:13:07Z</time></trkpt><trkpt lat="59.0778076183" lon="30.0172844622"><ele>83.77</ele><time>2026-04-25T11:13:38Z</time></trkpt><trkpt lat="59.0778123960" lon="30.0172947720"><ele>83.77</ele><time>2026-04-25T11:14:06Z</time></trkpt><trkpt lat="59.0778209455" lon="30.0173167326"><ele>83.77</ele><time>2026-04-25T11:14:42Z</time></trkpt><trkpt lat="59.0778256394" lon="30.0173205044"><ele>84.25</ele><time>2026-04-25T11:15:09Z</time></trkpt><trkpt lat="59.0778309200" lon="30.0173213426"><ele>84.25</ele><time>2026-04-25T11:15:33Z</time></trkpt><trkpt lat="59.0778304171" lon="30.0173233543"><ele>84.25</ele><time>2026-04-25T11:15:59Z</time></trkpt><trkpt lat="59.0778342728" lon="30.0173198339"><ele>84.25</ele><time>2026-04-25T11:16:29Z</time></trkpt><trkpt lat="59.0778465942" lon="30.0173257012"><ele>84.25</ele><time>2026-04-25T11:16:55Z</time></trkpt><trkpt lat="59.0778518748" lon="30.0173472427"><ele>84.25</ele><time>2026-04-25T11:17:22Z</time></trkpt><trkpt lat="59.0778518748" lon="30.0173502602"><ele>84.25</ele><time>2026-04-25T11:17:47Z</time></trkpt><trkpt lat="59.0778595861" lon="30.0173728913"><ele>84.25</ele><time>2026-04-25T11:18:12Z</time></trkpt><trkpt lat="59.0778690577" lon="30.0173691195"><ele>84.25</ele><time>2026-04-25T11:18:42Z</time></trkpt><trkpt lat="59.0778682195" lon="30.0173700415"><ele>84.25</ele><time>2026-04-25T11:19:05Z</time></trkpt><trkpt lat="59.0778709017" lon="30.0173730589"><ele>84.73</ele><time>2026-04-25T11:19:30Z</time></trkpt><trkpt lat="59.0778763499" lon="30.0173895713"><ele>84.73</ele><time>2026-04-25T11:19:57Z</time></trkpt><trkpt lat="59.0778791998" lon="30.0173616596"><ele>83.77</ele><time>2026-04-25T11:20:25Z</time></trkpt><trkpt lat="59.0778854862" lon="30.0173790101"><ele>83.77</ele><time>2026-04-25T11:20:51Z</time></trkpt><trkpt lat="59.0778841451" lon="30.0173847936"><ele>83.77</ele><time>2026-04-25T11:21:18Z</time></trkpt><trkpt lat="59.0778615139" lon="30.0173635874"><ele>84.25</ele><time>2026-04-25T11:21:33Z</time></trkpt><trkpt lat="59.0778406430" lon="30.0173215941"><ele>84.25</ele><time>2026-04-25T11:21:59Z</time></trkpt><trkpt lat="59.0778176766" lon="30.0173345022"><ele>84.25</ele><time>2026-04-25T11:22:17Z</time></trkpt><trkpt lat="59.0777859092" lon="30.0173739810"><ele>84.25</ele><time>2026-04-25T11:22:25Z</time></trkpt><trkpt lat="59.0776999108" lon="30.0174432993"><ele>84.25</ele><time>2026-04-25T11:22:35Z</time></trkpt><trkpt lat="59.0776067041" lon="30.0174582191"><ele>84.25</ele><time>2026-04-25T11:22:46Z</time></trkpt><trkpt lat="59.0775383078" lon="30.0174002163"><ele>84.25</ele><time>2026-04-25T11:22:58Z</time></trkpt><trkpt lat="59.0775287524" lon="30.0173985399"><ele>84.25</ele><time>2026-04-25T11:22:59Z</time></trkpt><trkpt lat="59.0775228012" lon="30.0174532738"><ele>83.77</ele><time>2026-04-25T11:23:08Z</time></trkpt><trkpt lat="59.0775294229" lon="30.0175440498"><ele>83.77</ele><time>2026-04-25T11:23:19Z</time></trkpt><trkpt lat="59.0775399841" lon="30.0175723806"><ele>83.77</ele><time>2026-04-25T11:23:32Z</time></trkpt><trkpt lat="59.0775516350" lon="30.0176373404"><ele>83.77</ele><time>2026-04-25T11:23:43Z</time></trkpt><trkpt lat="59.0775421634" lon="30.0177141186"><ele>83.77</ele><time>2026-04-25T11:23:55Z</time></trkpt><trkpt lat="59.0775197838" lon="30.0177695230"><ele>83.77</ele><time>2026-04-25T11:24:01Z</time></trkpt><trkpt lat="59.0775091387" lon="30.0177625660"><ele>83.77</ele><time>2026-04-25T11:24:07Z</time></trkpt><trkpt lat="59.0774803050" lon="30.0176788308"><ele>83.77</ele><time>2026-04-25T11:24:17Z</time></trkpt><trkpt lat="59.0774543211" lon="30.0177309662"><ele>83.29</ele><time>2026-04-25T11:24:28Z</time></trkpt><trkpt lat="59.0774373058" lon="30.0177405216"><ele>83.29</ele><time>2026-04-25T11:24:57Z</time></trkpt><trkpt lat="59.0774370544" lon="30.0176865421"><ele>83.29</ele><time>2026-04-25T11:25:13Z</time></trkpt><trkpt lat="59.0774140041" lon="30.0176230911"><ele>83.29</ele><time>2026-04-25T11:25:23Z</time></trkpt><trkpt lat="59.0774124954" lon="30.0175703689"><ele>84.25</ele><time>2026-04-25T11:25:34Z</time></trkpt><trkpt lat="59.0773777105" lon="30.0175670162"><ele>84.25</ele><time>2026-04-25T11:25:44Z</time></trkpt><trkpt lat="59.0773722623" lon="30.0174954347"><ele>84.25</ele><time>2026-04-25T11:25:55Z</time></trkpt><trkpt lat="59.0773646347" lon="30.0174637511"><ele>84.25</ele><time>2026-04-25T11:26:07Z</time></trkpt><trkpt lat="59.0773720946" lon="30.0174438860"><ele>84.25</ele><time>2026-04-25T11:26:20Z</time></trkpt><trkpt lat="59.0773787163" lon="30.0173904933"><ele>84.25</ele><time>2026-04-25T11:26:33Z</time></trkpt><trkpt lat="59.0773787163" lon="30.0173505116"><ele>84.25</ele><time>2026-04-25T11:26:40Z</time></trkpt><trkpt lat="59.0773671493" lon="30.0172817800"><ele>83.77</ele><time>2026-04-25T11:26:51Z</time></trkpt><trkpt lat="59.0773536544" lon="30.0172451511"><ele>83.77</ele><time>2026-04-25T11:26:59Z</time></trkpt><trkpt lat="59.0773057099" lon="30.0171933509"><ele>83.77</ele><time>2026-04-25T11:27:12Z</time></trkpt><trkpt lat="59.0772995073" lon="30.0170997251"><ele>83.77</ele><time>2026-04-25T11:27:24Z</time></trkpt><trkpt lat="59.0773150977" lon="30.0170649402"><ele>83.77</ele><time>2026-04-25T11:27:34Z</time></trkpt><trkpt lat="59.0773293469" lon="30.0169856474"><ele>83.77</ele><time>2026-04-25T11:27:46Z</time></trkpt><trkpt lat="59.0773228928" lon="30.0168957096"><ele>83.29</ele><time>2026-04-25T11:27:55Z</time></trkpt><trkpt lat="59.0773182828" lon="30.0167103857"><ele>83.29</ele><time>2026-04-25T11:28:06Z</time></trkpt><trkpt lat="59.0773085598" lon="30.0166222919"><ele>83.29</ele><time>2026-04-25T11:28:14Z</time></trkpt><trkpt lat="59.0773070510" lon="30.0165680610"><ele>83.29</ele><time>2026-04-25T11:28:26Z</time></trkpt><trkpt lat="59.0773134213" lon="30.0165524706"><ele>83.29</ele><time>2026-04-25T11:28:35Z</time></trkpt><trkpt lat="59.0772849228" lon="30.0164816435"><ele>83.29</ele><time>2026-04-25T11:28:45Z</time></trkpt><trkpt lat="59.0772437677" lon="30.0163390674"><ele>83.29</ele><time>2026-04-25T11:28:57Z</time></trkpt><trkpt lat="59.0772371460" lon="30.0163094793"><ele>82.81</ele><time>2026-04-25T11:29:10Z</time></trkpt><trkpt lat="59.0772435162" lon="30.0163058750"><ele>82.81</ele><time>2026-04-25T11:29:21Z</time></trkpt><trkpt lat="59.0772440191" lon="30.0162430108"><ele>82.81</ele><time>2026-04-25T11:29:37Z</time></trkpt><trkpt lat="59.0772384871" lon="30.0161990058"><ele>82.81</ele><time>2026-04-25T11:29:40Z</time></trkpt><trkpt lat="59.0772049595" lon="30.0160416774"><ele>82.81</ele><time>2026-04-25T11:29:52Z</time></trkpt><trkpt lat="59.0771958232" lon="30.0160115026"><ele>83.29</ele><time>2026-04-25T11:30:04Z</time></trkpt><trkpt lat="59.0772015229" lon="30.0160162803"><ele>83.29</ele><time>2026-04-25T11:30:29Z</time></trkpt><trkpt lat="59.0771886148" lon="30.0159694254"><ele>82.81</ele><time>2026-04-25T11:30:51Z</time></trkpt><trkpt lat="59.0771822445" lon="30.0159343891"><ele>82.81</ele><time>2026-04-25T11:30:53Z</time></trkpt><trkpt lat="59.0771604516" lon="30.0157658290"><ele>82.81</ele><time>2026-04-25T11:31:04Z</time></trkpt><trkpt lat="59.0771490522" lon="30.0156863686"><ele>82.81</ele><time>2026-04-25T11:31:11Z</time></trkpt><trkpt lat="59.0771148540" lon="30.0155490730"><ele>82.81</ele><time>2026-04-25T11:31:21Z</time></trkpt><trkpt lat="59.0771127585" lon="30.0154550280"><ele>82.81</ele><time>2026-04-25T11:31:32Z</time></trkpt><trkpt lat="59.0771028679" lon="30.0154498313"><ele>82.33</ele><time>2026-04-25T11:31:58Z</time></trkpt><trkpt lat="59.0771111660" lon="30.0154479034"><ele>82.81</ele><time>2026-04-25T11:32:14Z</time></trkpt><trkpt lat="59.0771162789" lon="30.0154568721"><ele>82.81</ele><time>2026-04-25T11:32:42Z</time></trkpt><trkpt lat="59.0771149378" lon="30.0154563691"><ele>82.81</ele><time>2026-04-25T11:32:44Z</time></trkpt><trkpt lat="59.0771008562" lon="30.0154524297"><ele>82.81</ele><time>2026-04-25T11:32:49Z</time></trkpt><trkpt lat="59.0770897921" lon="30.0154750608"><ele>82.81</ele><time>2026-04-25T11:32:51Z</time></trkpt><trkpt lat="59.0770153608" lon="30.0154142920"><ele>82.81</ele><time>2026-04-25T11:33:02Z</time></trkpt><trkpt lat="59.0770074818" lon="30.0154207461"><ele>82.81</ele><time>2026-04-25T11:33:03Z</time></trkpt><trkpt lat="59.0769881196" lon="30.0154121965"><ele>82.81</ele><time>2026-04-25T11:33:05Z</time></trkpt><trkpt lat="59.0769435279" lon="30.0154139567"><ele>82.81</ele><time>2026-04-25T11:33:14Z</time></trkpt><trkpt lat="59.0769058932" lon="30.0154570397"><ele>82.81</ele><time>2026-04-25T11:33:22Z</time></trkpt><trkpt lat="59.0768235829" lon="30.0154839456"><ele>82.81</ele><time>2026-04-25T11:33:34Z</time></trkpt><trkpt lat="59.0767816734" lon="30.0154326484"><ele>82.33</ele><time>2026-04-25T11:33:44Z</time></trkpt><trkpt lat="59.0767519176" lon="30.0154965185"><ele>82.33</ele><time>2026-04-25T11:33:53Z</time></trkpt><trkpt lat="59.0766904783" lon="30.0154623203"><ele>82.33</ele><time>2026-04-25T11:34:06Z</time></trkpt><trkpt lat="59.0766654164" lon="30.0154629070"><ele>82.81</ele><time>2026-04-25T11:34:15Z</time></trkpt><trkpt lat="59.0766292904" lon="30.0154440477"><ele>82.81</ele><time>2026-04-25T11:34:22Z</time></trkpt><trkpt lat="59.0765986126" lon="30.0154774915"><ele>82.81</ele><time>2026-04-25T11:34:32Z</time></trkpt><trkpt lat="59.0765985288" lon="30.0154710375"><ele>82.81</ele><time>2026-04-25T11:34:57Z</time></trkpt><trkpt lat="59.0765950922" lon="30.0154666789"><ele>82.81</ele><time>2026-04-25T11:35:17Z</time></trkpt><trkpt lat="59.0765848663" lon="30.0155012961"><ele>82.81</ele><time>2026-04-25T11:35:37Z</time></trkpt><trkpt lat="59.0765895601" lon="30.0155080855"><ele>82.81</ele><time>2026-04-25T11:35:57Z</time></trkpt><trkpt lat="59.0765738860" lon="30.0156462193"><ele>82.81</ele><time>2026-04-25T11:36:10Z</time></trkpt><trkpt lat="59.0765871294" lon="30.0157408509"><ele>82.33</ele><time>2026-04-25T11:36:17Z</time></trkpt><trkpt lat="59.0766046476" lon="30.0158242509"><ele>82.33</ele><time>2026-04-25T11:36:26Z</time></trkpt><trkpt lat="59.0766095091" lon="30.0159117579"><ele>82.33</ele><time>2026-04-25T11:36:32Z</time></trkpt><trkpt lat="59.0766238421" lon="30.0159818307"><ele>82.33</ele><time>2026-04-25T11:36:40Z</time></trkpt><trkpt lat="59.0766304638" lon="30.0159866922"><ele>82.33</ele><time>2026-04-25T11:36:42Z</time></trkpt><trkpt lat="59.0766740497" lon="30.0160585251"><ele>82.33</ele><time>2026-04-25T11:36:53Z</time></trkpt><trkpt lat="59.0766668413" lon="30.0161060505"><ele>82.33</ele><time>2026-04-25T11:36:56Z</time></trkpt><trkpt lat="59.0766686015" lon="30.0162022747"><ele>82.33</ele><time>2026-04-25T11:37:01Z</time></trkpt><trkpt lat="59.0766490716" lon="30.0162892789"><ele>82.33</ele><time>2026-04-25T11:37:07Z</time></trkpt><trkpt lat="59.0766725410" lon="30.0163180288"><ele>82.33</ele><time>2026-04-25T11:37:17Z</time></trkpt><trkpt lat="59.0766743012" lon="30.0163932983"><ele>82.33</ele><time>2026-04-25T11:37:28Z</time></trkpt><trkpt lat="59.0766787436" lon="30.0164823979"><ele>82.33</ele><time>2026-04-25T11:37:35Z</time></trkpt><trkpt lat="59.0767004527" lon="30.0165773649"><ele>82.33</ele><time>2026-04-25T11:37:47Z</time></trkpt><trkpt lat="59.0767082479" lon="30.0166450907"><ele>82.33</ele><time>2026-04-25T11:37:58Z</time></trkpt><trkpt lat="59.0767175518" lon="30.0167527143"><ele>82.33</ele><time>2026-04-25T11:38:10Z</time></trkpt><trkpt lat="59.0767433681" lon="30.0168872438"><ele>82.33</ele><time>2026-04-25T11:38:21Z</time></trkpt><trkpt lat="59.0767366625" lon="30.0170146488"><ele>81.85</ele><time>2026-04-25T11:38:32Z</time></trkpt><trkpt lat="59.0767400153" lon="30.0170402136"><ele>81.85</ele><time>2026-04-25T11:38:36Z</time></trkpt><trkpt lat="59.0767299570" lon="30.0170908403"><ele>81.85</ele><time>2026-04-25T11:38:46Z</time></trkpt><trkpt lat="59.0767308790" lon="30.0171366055"><ele>81.85</ele><time>2026-04-25T11:38:50Z</time></trkpt><trkpt lat="59.0767224971" lon="30.0172218494"><ele>81.85</ele><time>2026-04-25T11:39:03Z</time></trkpt><trkpt lat="59.0767334774" lon="30.0172651839"><ele>81.85</ele><time>2026-04-25T11:39:14Z</time></trkpt><trkpt lat="59.0767356567" lon="30.0172862224"><ele>81.85</ele><time>2026-04-25T11:39:27Z</time></trkpt><trkpt lat="59.0767457150" lon="30.0173288025"><ele>81.85</ele><time>2026-04-25T11:39:36Z</time></trkpt><trkpt lat="59.0767653286" lon="30.0173683651"><ele>81.85</ele><time>2026-04-25T11:39:47Z</time></trkpt><trkpt lat="59.0767670888" lon="30.0174065027"><ele>81.37</ele><time>2026-04-25T11:40:04Z</time></trkpt><trkpt lat="59.0767701063" lon="30.0174965244"><ele>81.37</ele><time>2026-04-25T11:40:12Z</time></trkpt><trkpt lat="59.0767711122" lon="30.0175387692"><ele>81.37</ele><time>2026-04-25T11:40:15Z</time></trkpt><trkpt lat="59.0767798293" lon="30.0176821835"><ele>81.37</ele><time>2026-04-25T11:40:30Z</time></trkpt><trkpt lat="59.0767749678" lon="30.0177029707"><ele>81.37</ele><time>2026-04-25T11:40:48Z</time></trkpt><trkpt lat="59.0767220780" lon="30.0176693592"><ele>81.37</ele><time>2026-04-25T11:40:57Z</time></trkpt><trkpt lat="59.0766945016" lon="30.0176755618"><ele>81.37</ele><time>2026-04-25T11:41:09Z</time></trkpt><trkpt lat="59.0766649134" lon="30.0177081674"><ele>81.37</ele><time>2026-04-25T11:41:19Z</time></trkpt><trkpt lat="59.0766297095" lon="30.0177344028"><ele>81.37</ele><time>2026-04-25T11:41:27Z</time></trkpt><trkpt lat="59.0766151249" lon="30.0177765638"><ele>81.85</ele><time>2026-04-25T11:41:37Z</time></trkpt><trkpt lat="59.0766012948" lon="30.0178079959"><ele>81.85</ele><time>2026-04-25T11:41:45Z</time></trkpt><trkpt lat="59.0765649173" lon="30.0178076606"><ele>81.37</ele><time>2026-04-25T11:41:57Z</time></trkpt><trkpt lat="59.0765522607" lon="30.0177525915"><ele>81.37</ele><time>2026-04-25T11:42:07Z</time></trkpt><trkpt lat="59.0765508357" lon="30.0177372526"><ele>81.37</ele><time>2026-04-25T11:42:10Z</time></trkpt><trkpt lat="59.0765283722" lon="30.0177102629"><ele>81.37</ele><time>2026-04-25T11:42:20Z</time></trkpt><trkpt lat="59.0764808469" lon="30.0177524239"><ele>81.37</ele><time>2026-04-25T11:42:30Z</time></trkpt><trkpt lat="59.0764677711" lon="30.0177572854"><ele>81.37</ele><time>2026-04-25T11:42:34Z</time></trkpt><trkpt lat="59.0764480736" lon="30.0178014580"><ele>81.37</ele><time>2026-04-25T11:42:43Z</time></trkpt><trkpt lat="59.0764192399" lon="30.0178269390"><ele>81.37</ele><time>2026-04-25T11:42:46Z</time></trkpt><trkpt lat="59.0763938427" lon="30.0178149529"><ele>81.37</ele><time>2026-04-25T11:42:50Z</time></trkpt><trkpt lat="59.0763712954" lon="30.0178104267"><ele>81.37</ele><time>2026-04-25T11:42:55Z</time></trkpt><trkpt lat="59.0763034858" lon="30.0177762285"><ele>81.37</ele><time>2026-04-25T11:43:05Z</time></trkpt><trkpt lat="59.0762926731" lon="30.0178215746"><ele>81.37</ele><time>2026-04-25T11:43:13Z</time></trkpt><trkpt lat="59.0762509312" lon="30.0178402662"><ele>81.85</ele><time>2026-04-25T11:43:21Z</time></trkpt><trkpt lat="59.0762313176" lon="30.0178415235"><ele>81.85</ele><time>2026-04-25T11:43:31Z</time></trkpt><trkpt lat="59.0762197506" lon="30.0178173836"><ele>81.85</ele><time>2026-04-25T11:43:42Z</time></trkpt><trkpt lat="59.0761961136" lon="30.0177805033"><ele>82.33</ele><time>2026-04-25T11:44:05Z</time></trkpt><trkpt lat="59.0761722252" lon="30.0177633204"><ele>82.33</ele><time>2026-04-25T11:44:08Z</time></trkpt><trkpt lat="59.0761474986" lon="30.0177047309"><ele>82.33</ele><time>2026-04-25T11:44:13Z</time></trkpt><trkpt lat="59.0761615802" lon="30.0175844505"><ele>81.85</ele><time>2026-04-25T11:44:24Z</time></trkpt><trkpt lat="59.0761661064" lon="30.0175472349"><ele>81.85</ele><time>2026-04-25T11:44:29Z</time></trkpt><trkpt lat="59.0761824511" lon="30.0174274575"><ele>81.85</ele><time>2026-04-25T11:44:40Z</time></trkpt><trkpt lat="59.0761987120" lon="30.0173338316"><ele>81.85</ele><time>2026-04-25T11:44:48Z</time></trkpt><trkpt lat="59.0761799365" lon="30.0172336679"><ele>81.85</ele><time>2026-04-25T11:44:55Z</time></trkpt><trkpt lat="59.0761535335" lon="30.0171955302"><ele>81.85</ele><time>2026-04-25T11:44:59Z</time></trkpt><trkpt lat="59.0761213470" lon="30.0170282274"><ele>80.89</ele><time>2026-04-25T11:45:10Z</time></trkpt><trkpt lat="59.0761002246" lon="30.0168975536"><ele>80.89</ele><time>2026-04-25T11:45:20Z</time></trkpt><trkpt lat="59.0760730673" lon="30.0168356951"><ele>80.89</ele><time>2026-04-25T11:45:30Z</time></trkpt><trkpt lat="59.0760682896" lon="30.0168561470"><ele>80.89</ele><time>2026-04-25T11:45:32Z</time></trkpt><trkpt lat="59.0760273859" lon="30.0168172549"><ele>80.89</ele><time>2026-04-25T11:45:42Z</time></trkpt><trkpt lat="59.0760358516" lon="30.0167643651"><ele>80.89</ele><time>2026-04-25T11:45:45Z</time></trkpt><trkpt lat="59.0760511067" lon="30.0167045183"><ele>80.89</ele><time>2026-04-25T11:45:48Z</time></trkpt><trkpt lat="59.0760536212" lon="30.0166688114"><ele>80.89</ele><time>2026-04-25T11:45:50Z</time></trkpt><trkpt lat="59.0760776773" lon="30.0165656302"><ele>80.89</ele><time>2026-04-25T11:45:57Z</time></trkpt><trkpt lat="59.0760599915" lon="30.0164761115"><ele>80.89</ele><time>2026-04-25T11:46:03Z</time></trkpt><trkpt lat="59.0760537889" lon="30.0163391512"><ele>80.89</ele><time>2026-04-25T11:46:15Z</time></trkpt><trkpt lat="59.0760550462" lon="30.0163341220"><ele>80.89</ele><time>2026-04-25T11:46:17Z</time></trkpt><trkpt lat="59.0760696307" lon="30.0163116585"><ele>81.85</ele><time>2026-04-25T11:46:19Z</time></trkpt><trkpt lat="59.0760312416" lon="30.0161964074"><ele>81.85</ele><time>2026-04-25T11:46:32Z</time></trkpt><trkpt lat="59.0760357678" lon="30.0161375664"><ele>81.85</ele><time>2026-04-25T11:46:42Z</time></trkpt><trkpt lat="59.0760106221" lon="30.0161134265"><ele>81.85</ele><time>2026-04-25T11:46:46Z</time></trkpt><trkpt lat="59.0760278050" lon="30.0160710141"><ele>81.85</ele><time>2026-04-25T11:46:52Z</time></trkpt><trkpt lat="59.0759972110" lon="30.0159727782"><ele>81.85</ele><time>2026-04-25T11:47:03Z</time></trkpt><trkpt lat="59.0759786032" lon="30.0158788171"><ele>81.85</ele><time>2026-04-25T11:47:14Z</time></trkpt><trkpt lat="59.0759734064" lon="30.0158583652"><ele>81.85</ele><time>2026-04-25T11:47:18Z</time></trkpt><trkpt lat="59.0759594087" lon="30.0157398451"><ele>81.85</ele><time>2026-04-25T11:47:29Z</time></trkpt><trkpt lat="59.0759615880" lon="30.0157254282"><ele>81.85</ele><time>2026-04-25T11:47:30Z</time></trkpt><trkpt lat="59.0759476740" lon="30.0156215765"><ele>81.85</ele><time>2026-04-25T11:47:43Z</time></trkpt><trkpt lat="59.0759128053" lon="30.0155981909"><ele>81.85</ele><time>2026-04-25T11:48:02Z</time></trkpt><trkpt lat="59.0758750867" lon="30.0156112667"><ele>81.85</ele><time>2026-04-25T11:48:10Z</time></trkpt><trkpt lat="59.0758275613" lon="30.0156032201"><ele>81.85</ele><time>2026-04-25T11:48:21Z</time></trkpt><trkpt lat="59.0757889207" lon="30.0156248454"><ele>81.85</ele><time>2026-04-25T11:48:26Z</time></trkpt><trkpt lat="59.0757137351" lon="30.0156053994"><ele>81.37</ele><time>2026-04-25T11:48:36Z</time></trkpt><trkpt lat="59.0756511223" lon="30.0156674255"><ele>82.33</ele><time>2026-04-25T11:48:47Z</time></trkpt><trkpt lat="59.0756418183" lon="30.0156605523"><ele>82.33</ele><time>2026-04-25T11:48:48Z</time></trkpt><trkpt lat="59.0755678061" lon="30.0156438723"><ele>82.33</ele><time>2026-04-25T11:48:59Z</time></trkpt><trkpt lat="59.0755623579" lon="30.0156526733"><ele>82.33</ele><time>2026-04-25T11:49:02Z</time></trkpt><trkpt lat="59.0755487792" lon="30.0156678446"><ele>82.33</ele><time>2026-04-25T11:49:04Z</time></trkpt><trkpt lat="59.0755367093" lon="30.0156720355"><ele>82.33</ele><time>2026-04-25T11:49:06Z</time></trkpt><trkpt lat="59.0754906926" lon="30.0157719478"><ele>82.33</ele><time>2026-04-25T11:49:17Z</time></trkpt><trkpt lat="59.0754203685" lon="30.0157670025"><ele>82.33</ele><time>2026-04-25T11:49:29Z</time></trkpt><trkpt lat="59.0753580071" lon="30.0157675054"><ele>81.85</ele><time>2026-04-25T11:49:40Z</time></trkpt><trkpt lat="59.0753455181" lon="30.0157594588"><ele>82.33</ele><time>2026-04-25T11:49:52Z</time></trkpt><trkpt lat="59.0753519721" lon="30.0157807488"><ele>82.33</ele><time>2026-04-25T11:50:21Z</time></trkpt><trkpt lat="59.0753634553" lon="30.0157867838"><ele>82.33</ele><time>2026-04-25T11:50:31Z</time></trkpt><trkpt lat="59.0753691550" lon="30.0157825928"><ele>82.33</ele><time>2026-04-25T11:50:52Z</time></trkpt><trkpt lat="59.0753719211" lon="30.0157895498"><ele>81.85</ele><time>2026-04-25T11:51:13Z</time></trkpt><trkpt lat="59.0753756091" lon="30.0157931540"><ele>81.85</ele><time>2026-04-25T11:51:44Z</time></trkpt><trkpt lat="59.0753746033" lon="30.0157917291"><ele>81.85</ele><time>2026-04-25T11:52:12Z</time></trkpt><trkpt lat="59.0753722563" lon="30.0157986861"><ele>81.85</ele><time>2026-04-25T11:52:42Z</time></trkpt><trkpt lat="59.0753724240" lon="30.0157970935"><ele>81.37</ele><time>2026-04-25T11:53:21Z</time></trkpt><trkpt lat="59.0753722563" lon="30.0157889631"><ele>81.37</ele><time>2026-04-25T11:53:55Z</time></trkpt><trkpt lat="59.0753721725" lon="30.0157886278"><ele>81.37</ele><time>2026-04-25T11:54:25Z</time></trkpt><trkpt lat="59.0753733460" lon="30.0157874543"><ele>81.37</ele><time>2026-04-25T11:54:58Z</time></trkpt><trkpt lat="59.0753756929" lon="30.0157895498"><ele>80.89</ele><time>2026-04-25T11:55:31Z</time></trkpt><trkpt lat="59.0753745195" lon="30.0157980993"><ele>80.89</ele><time>2026-04-25T11:56:01Z</time></trkpt><trkpt lat="59.0753798839" lon="30.0158022903"><ele>80.89</ele><time>2026-04-25T11:56:29Z</time></trkpt><trkpt lat="59.0753801353" lon="30.0157769769"><ele>81.37</ele><time>2026-04-25T11:56:54Z</time></trkpt><trkpt lat="59.0753772017" lon="30.0157810841"><ele>81.37</ele><time>2026-04-25T11:57:19Z</time></trkpt><trkpt lat="59.0753812250" lon="30.0157839339"><ele>81.37</ele><time>2026-04-25T11:57:58Z</time></trkpt><trkpt lat="59.0753849968" lon="30.0157957524"><ele>80.89</ele><time>2026-04-25T11:58:28Z</time></trkpt><trkpt lat="59.0753906965" lon="30.0158056431"><ele>80.89</ele><time>2026-04-25T11:59:03Z</time></trkpt><trkpt lat="59.0753911994" lon="30.0158007815"><ele>80.89</ele><time>2026-04-25T11:59:39Z</time></trkpt><trkpt lat="59.0753909480" lon="30.0158028770"><ele>81.37</ele><time>2026-04-25T12:00:13Z</time></trkpt><trkpt lat="59.0753839910" lon="30.0158069842"><ele>81.85</ele><time>2026-04-25T12:00:38Z</time></trkpt><trkpt lat="59.0753876790" lon="30.0157865323"><ele>82.33</ele><time>2026-04-25T12:00:51Z</time></trkpt><trkpt lat="59.0753793810" lon="30.0157857779"><ele>81.85</ele><time>2026-04-25T12:01:13Z</time></trkpt><trkpt lat="59.0753792133" lon="30.0157850236"><ele>81.85</ele><time>2026-04-25T12:01:28Z</time></trkpt><trkpt lat="59.0753485356" lon="30.0157839339"><ele>81.85</ele><time>2026-04-25T12:01:32Z</time></trkpt><trkpt lat="59.0753252339" lon="30.0158555992"><ele>81.85</ele><time>2026-04-25T12:01:38Z</time></trkpt><trkpt lat="59.0752959810" lon="30.0159591995"><ele>81.85</ele><time>2026-04-25T12:01:48Z</time></trkpt><trkpt lat="59.0752907004" lon="30.0160001870"><ele>81.85</ele><time>2026-04-25T12:01:51Z</time></trkpt><trkpt lat="59.0752967354" lon="30.0161280949"><ele>81.85</ele><time>2026-04-25T12:02:00Z</time></trkpt><trkpt lat="59.0752975736" lon="30.0162099861"><ele>81.85</ele><time>2026-04-25T12:02:07Z</time></trkpt><trkpt lat="59.0752932150" lon="30.0162919611"><ele>82.33</ele><time>2026-04-25T12:02:11Z</time></trkpt><trkpt lat="59.0752810612" lon="30.0163123291"><ele>82.33</ele><time>2026-04-25T12:02:13Z</time></trkpt><trkpt lat="59.0753045306" lon="30.0164058711"><ele>82.33</ele><time>2026-04-25T12:02:24Z</time></trkpt><trkpt lat="59.0753758606" lon="30.0165223796"><ele>82.33</ele><time>2026-04-25T12:02:37Z</time></trkpt><trkpt lat="59.0753948875" lon="30.0166346133"><ele>82.33</ele><time>2026-04-25T12:02:48Z</time></trkpt><trkpt lat="59.0753980726" lon="30.0166577473"><ele>82.33</ele><time>2026-04-25T12:02:51Z</time></trkpt><trkpt lat="59.0754160099" lon="30.0166979805"><ele>82.33</ele><time>2026-04-25T12:02:55Z</time></trkpt><trkpt lat="59.0754464362" lon="30.0168222841"><ele>82.33</ele><time>2026-04-25T12:03:04Z</time></trkpt><trkpt lat="59.0754518006" lon="30.0169449113"><ele>82.33</ele><time>2026-04-25T12:03:11Z</time></trkpt><trkpt lat="59.0754758567" lon="30.0170751661"><ele>82.33</ele><time>2026-04-25T12:03:22Z</time></trkpt><trkpt lat="59.0755056962" lon="30.0172179099"><ele>82.33</ele><time>2026-04-25T12:03:34Z</time></trkpt><trkpt lat="59.0755025949" lon="30.0173722208"><ele>81.85</ele><time>2026-04-25T12:03:45Z</time></trkpt><trkpt lat="59.0755026788" lon="30.0174557045"><ele>81.85</ele><time>2026-04-25T12:03:52Z</time></trkpt><trkpt lat="59.0755045228" lon="30.0174930040"><ele>81.85</ele><time>2026-04-25T12:03:54Z</time></trkpt><trkpt lat="59.0755095519" lon="30.0175391044"><ele>81.85</ele><time>2026-04-25T12:03:57Z</time></trkpt><trkpt lat="59.0755190235" lon="30.0176143739"><ele>81.85</ele><time>2026-04-25T12:04:04Z</time></trkpt><trkpt lat="59.0755180176" lon="30.0177091733"><ele>81.85</ele><time>2026-04-25T12:04:11Z</time></trkpt><trkpt lat="59.0755309258" lon="30.0178017933"><ele>81.85</ele><time>2026-04-25T12:04:17Z</time></trkpt><trkpt lat="59.0755504556" lon="30.0178674236"><ele>81.85</ele><time>2026-04-25T12:04:21Z</time></trkpt><trkpt lat="59.0755641181" lon="30.0179529190"><ele>81.85</ele><time>2026-04-25T12:04:26Z</time></trkpt><trkpt lat="59.0755691472" lon="30.0181009434"><ele>81.85</ele><time>2026-04-25T12:04:35Z</time></trkpt><trkpt lat="59.0755965561" lon="30.0181636401"><ele>81.85</ele><time>2026-04-25T12:04:50Z</time></trkpt><trkpt lat="59.0755864978" lon="30.0182019453"><ele>81.85</ele><time>2026-04-25T12:04:59Z</time></trkpt><trkpt lat="59.0755097196" lon="30.0182467047"><ele>81.85</ele><time>2026-04-25T12:05:11Z</time></trkpt><trkpt lat="59.0754948836" lon="30.0182543322"><ele>81.85</ele><time>2026-04-25T12:05:13Z</time></trkpt><trkpt lat="59.0754081309" lon="30.0182653125"><ele>81.85</ele><time>2026-04-25T12:05:24Z</time></trkpt><trkpt lat="59.0753571689" lon="30.0182783045"><ele>82.33</ele><time>2026-04-25T12:05:32Z</time></trkpt><trkpt lat="59.0752649680" lon="30.0183019415"><ele>82.33</ele><time>2026-04-25T12:05:44Z</time></trkpt><trkpt lat="59.0752451029" lon="30.0183779653"><ele>82.33</ele><time>2026-04-25T12:05:52Z</time></trkpt><trkpt lat="59.0751799755" lon="30.0184127502"><ele>82.33</ele><time>2026-04-25T12:06:02Z</time></trkpt><trkpt lat="59.0751461126" lon="30.0184528995"><ele>82.33</ele><time>2026-04-25T12:06:07Z</time></trkpt><trkpt lat="59.0751035325" lon="30.0184310228"><ele>82.33</ele><time>2026-04-25T12:06:19Z</time></trkpt><trkpt lat="59.0750657301" lon="30.0184283406"><ele>81.85</ele><time>2026-04-25T12:06:30Z</time></trkpt><trkpt lat="59.0750618745" lon="30.0183314458"><ele>81.85</ele><time>2026-04-25T12:06:42Z</time></trkpt><trkpt lat="59.0750391595" lon="30.0183515623"><ele>81.85</ele><time>2026-04-25T12:06:53Z</time></trkpt><trkpt lat="59.0750439372" lon="30.0183721818"><ele>81.85</ele><time>2026-04-25T12:07:03Z</time></trkpt><trkpt lat="59.0750618745" lon="30.0184520613"><ele>81.85</ele><time>2026-04-25T12:07:11Z</time></trkpt><trkpt lat="59.0750338789" lon="30.0184665620"><ele>81.85</ele><time>2026-04-25T12:07:16Z</time></trkpt><trkpt lat="59.0749971662" lon="30.0185060408"><ele>81.85</ele><time>2026-04-25T12:07:26Z</time></trkpt><trkpt lat="59.0749945678" lon="30.0185016822"><ele>81.85</ele><time>2026-04-25T12:07:52Z</time></trkpt><trkpt lat="59.0749922208" lon="30.0185093097"><ele>81.85</ele><time>2026-04-25T12:08:13Z</time></trkpt><trkpt lat="59.0749866888" lon="30.0185128301"><ele>81.37</ele><time>2026-04-25T12:08:48Z</time></trkpt><trkpt lat="59.0749879461" lon="30.0185299292"><ele>81.37</ele><time>2026-04-25T12:09:24Z</time></trkpt><trkpt lat="59.0749844257" lon="30.0185301807"><ele>81.37</ele><time>2026-04-25T12:09:57Z</time></trkpt><trkpt lat="59.0749896225" lon="30.0184830744"><ele>81.37</ele><time>2026-04-25T12:10:15Z</time></trkpt><trkpt lat="59.0749970824" lon="30.0184409972"><ele>81.37</ele><time>2026-04-25T12:10:19Z</time></trkpt><trkpt lat="59.0749534126" lon="30.0183674041"><ele>81.37</ele><time>2026-04-25T12:10:31Z</time></trkpt><trkpt lat="59.0749524906" lon="30.0182568468"><ele>81.37</ele><time>2026-04-25T12:10:41Z</time></trkpt><trkpt lat="59.0749120060" lon="30.0181294419"><ele>81.37</ele><time>2026-04-25T12:10:51Z</time></trkpt><trkpt lat="59.0749376547" lon="30.0180347264"><ele>81.37</ele><time>2026-04-25T12:11:03Z</time></trkpt><trkpt lat="59.0749211423" lon="30.0179506559"><ele>81.37</ele><time>2026-04-25T12:11:10Z</time></trkpt><trkpt lat="59.0749244951" lon="30.0178716984"><ele>81.37</ele><time>2026-04-25T12:11:14Z</time></trkpt><trkpt lat="59.0749082342" lon="30.0178105105"><ele>81.37</ele><time>2026-04-25T12:11:19Z</time></trkpt><trkpt lat="59.0748504829" lon="30.0177222490"><ele>80.89</ele><time>2026-04-25T12:11:30Z</time></trkpt><trkpt lat="59.0748525783" lon="30.0177029707"><ele>80.89</ele><time>2026-04-25T12:11:33Z</time></trkpt><trkpt lat="59.0748640615" lon="30.0176339038"><ele>80.89</ele><time>2026-04-25T12:11:38Z</time></trkpt><trkpt lat="59.0748250857" lon="30.0175026432"><ele>80.89</ele><time>2026-04-25T12:11:49Z</time></trkpt><trkpt lat="59.0747943241" lon="30.0174723845"><ele>81.37</ele><time>2026-04-25T12:11:54Z</time></trkpt><trkpt lat="59.0748329647" lon="30.0174291339"><ele>81.37</ele><time>2026-04-25T12:12:04Z</time></trkpt><trkpt lat="59.0748276841" lon="30.0174156390"><ele>81.37</ele><time>2026-04-25T12:12:07Z</time></trkpt><trkpt lat="59.0748228226" lon="30.0172795169"><ele>81.37</ele><time>2026-04-25T12:12:17Z</time></trkpt><trkpt lat="59.0748066455" lon="30.0172181614"><ele>81.37</ele><time>2026-04-25T12:12:21Z</time></trkpt><trkpt lat="59.0748116747" lon="30.0171202607"><ele>81.37</ele><time>2026-04-25T12:12:27Z</time></trkpt><trkpt lat="59.0748079028" lon="30.0170581508"><ele>81.37</ele><time>2026-04-25T12:12:31Z</time></trkpt><trkpt lat="59.0747503191" lon="30.0169603340"><ele>81.37</ele><time>2026-04-25T12:12:41Z</time></trkpt><trkpt lat="59.0747356508" lon="30.0169241242"><ele>81.37</ele><time>2026-04-25T12:12:49Z</time></trkpt><trkpt lat="59.0747463796" lon="30.0168713182"><ele>81.37</ele><time>2026-04-25T12:12:56Z</time></trkpt><trkpt lat="59.0747448709" lon="30.0167911034"><ele>81.37</ele><time>2026-04-25T12:13:06Z</time></trkpt><trkpt lat="59.0747172106" lon="30.0166796241"><ele>81.37</ele><time>2026-04-25T12:13:15Z</time></trkpt><trkpt lat="59.0746791568" lon="30.0165226310"><ele>81.85</ele><time>2026-04-25T12:13:27Z</time></trkpt><trkpt lat="59.0746848565" lon="30.0164802186"><ele>81.85</ele><time>2026-04-25T12:13:30Z</time></trkpt><trkpt lat="59.0746823419" lon="30.0163946394"><ele>81.85</ele><time>2026-04-25T12:13:42Z</time></trkpt><trkpt lat="59.0746586211" lon="30.0163383968"><ele>81.85</ele><time>2026-04-25T12:13:48Z</time></trkpt><trkpt lat="59.0746352356" lon="30.0162127521"><ele>81.85</ele><time>2026-04-25T12:13:56Z</time></trkpt><trkpt lat="59.0746416897" lon="30.0161527377"><ele>81.85</ele><time>2026-04-25T12:14:08Z</time></trkpt><trkpt lat="59.0746388398" lon="30.0161436014"><ele>81.37</ele><time>2026-04-25T12:14:34Z</time></trkpt><trkpt lat="59.0746042226" lon="30.0161639694"><ele>81.37</ele><time>2026-04-25T12:14:47Z</time></trkpt><trkpt lat="59.0745862853" lon="30.0162179489"><ele>81.37</ele><time>2026-04-25T12:14:51Z</time></trkpt><trkpt lat="59.0745478962" lon="30.0162006821"><ele>81.37</ele><time>2026-04-25T12:14:56Z</time></trkpt><trkpt lat="59.0745241754" lon="30.0162033644"><ele>81.37</ele><time>2026-04-25T12:14:59Z</time></trkpt><trkpt lat="59.0744902287" lon="30.0162067171"><ele>81.85</ele><time>2026-04-25T12:15:02Z</time></trkpt><trkpt lat="59.0744186472" lon="30.0162463635"><ele>81.85</ele><time>2026-04-25T12:15:10Z</time></trkpt><trkpt lat="59.0743526816" lon="30.0162950624"><ele>81.85</ele><time>2026-04-25T12:15:21Z</time></trkpt><trkpt lat="59.0743238479" lon="30.0162959844"><ele>81.85</ele><time>2026-04-25T12:15:24Z</time></trkpt><trkpt lat="59.0742113627" lon="30.0163528975"><ele>81.85</ele><time>2026-04-25T12:15:38Z</time></trkpt><trkpt lat="59.0741716325" lon="30.0163898617"><ele>81.85</ele><time>2026-04-25T12:15:47Z</time></trkpt><trkpt lat="59.0741336625" lon="30.0162902847"><ele>81.85</ele><time>2026-04-25T12:15:56Z</time></trkpt><trkpt lat="59.0741071757" lon="30.0163027737"><ele>81.85</ele><time>2026-04-25T12:15:59Z</time></trkpt><trkpt lat="59.0740590636" lon="30.0163774565"><ele>81.85</ele><time>2026-04-25T12:16:09Z</time></trkpt><trkpt lat="59.0740396176" lon="30.0163958967"><ele>81.85</ele><time>2026-04-25T12:16:12Z</time></trkpt><trkpt lat="59.0740197524" lon="30.0163919572"><ele>81.85</ele><time>2026-04-25T12:16:28Z</time></trkpt><trkpt lat="59.0740187466" lon="30.0163827371"><ele>82.33</ele><time>2026-04-25T12:16:50Z</time></trkpt><trkpt lat="59.0739996359" lon="30.0164343696"><ele>82.33</ele><time>2026-04-25T12:16:54Z</time></trkpt><trkpt lat="59.0739738196" lon="30.0164172705"><ele>82.33</ele><time>2026-04-25T12:16:57Z</time></trkpt><trkpt lat="59.0739118773" lon="30.0163829885"><ele>82.33</ele><time>2026-04-25T12:17:04Z</time></trkpt><trkpt lat="59.0738460794" lon="30.0163620338"><ele>81.85</ele><time>2026-04-25T12:17:14Z</time></trkpt><trkpt lat="59.0738317464" lon="30.0163619500"><ele>81.85</ele><time>2026-04-25T12:17:16Z</time></trkpt><trkpt lat="59.0738138091" lon="30.0163663924"><ele>81.85</ele><time>2026-04-25T12:17:18Z</time></trkpt><trkpt lat="59.0737247933" lon="30.0162819866"><ele>82.33</ele><time>2026-04-25T12:17:30Z</time></trkpt><trkpt lat="59.0737172496" lon="30.0162545778"><ele>82.33</ele><time>2026-04-25T12:17:39Z</time></trkpt><trkpt lat="59.0737003181" lon="30.0162498839"><ele>82.33</ele><time>2026-04-25T12:17:58Z</time></trkpt><trkpt lat="59.0736653656" lon="30.0162095670"><ele>82.33</ele><time>2026-04-25T12:18:11Z</time></trkpt><trkpt lat="59.0736492723" lon="30.0162026100"><ele>82.33</ele><time>2026-04-25T12:18:25Z</time></trkpt><trkpt lat="59.0736486018" lon="30.0162013527"><ele>82.33</ele><time>2026-04-25T12:18:26Z</time></trkpt><trkpt lat="59.0735641960" lon="30.0162706710"><ele>82.33</ele><time>2026-04-25T12:18:38Z</time></trkpt><trkpt lat="59.0735548921" lon="30.0162678212"><ele>82.33</ele><time>2026-04-25T12:18:56Z</time></trkpt><trkpt lat="59.0735498630" lon="30.0162962358"><ele>82.33</ele><time>2026-04-25T12:19:24Z</time></trkpt><trkpt lat="59.0735664591" lon="30.0163330324"><ele>82.33</ele><time>2026-04-25T12:19:26Z</time></trkpt><trkpt lat="59.0735684708" lon="30.0163748581"><ele>82.33</ele><time>2026-04-25T12:19:28Z</time></trkpt><trkpt lat="59.0735869948" lon="30.0163955614"><ele>82.33</ele><time>2026-04-25T12:19:30Z</time></trkpt><trkpt lat="59.0736181755" lon="30.0164578389"><ele>82.33</ele><time>2026-04-25T12:19:34Z</time></trkpt><trkpt lat="59.0736749209" lon="30.0165033527"><ele>82.33</ele><time>2026-04-25T12:19:41Z</time></trkpt><trkpt lat="59.0737251285" lon="30.0164948869"><ele>82.33</ele><time>2026-04-25T12:19:47Z</time></trkpt><trkpt lat="59.0737566445" lon="30.0165271573"><ele>82.33</ele><time>2026-04-25T12:19:51Z</time></trkpt><trkpt lat="59.0737729054" lon="30.0165608525"><ele>82.33</ele><time>2026-04-25T12:19:53Z</time></trkpt><trkpt lat="59.0738175809" lon="30.0166210346"><ele>82.33</ele><time>2026-04-25T12:19:59Z</time></trkpt><trkpt lat="59.0738773439" lon="30.0166745111"><ele>82.81</ele><time>2026-04-25T12:20:11Z</time></trkpt><trkpt lat="59.0739035793" lon="30.0167184323"><ele>82.81</ele><time>2026-04-25T12:20:19Z</time></trkpt><trkpt lat="59.0740122087" lon="30.0167847332"><ele>82.81</ele><time>2026-04-25T12:20:32Z</time></trkpt><trkpt lat="59.0740189143" lon="30.0168210268"><ele>82.81</ele><time>2026-04-25T12:20:42Z</time></trkpt><trkpt lat="59.0740336664" lon="30.0168446638"><ele>82.81</ele><time>2026-04-25T12:20:52Z</time></trkpt><trkpt lat="59.0740717202" lon="30.0169377867"><ele>82.81</ele><time>2026-04-25T12:20:59Z</time></trkpt><trkpt lat="59.0741081815" lon="30.0170135591"><ele>82.81</ele><time>2026-04-25T12:21:08Z</time></trkpt><trkpt lat="59.0740924235" lon="30.0170815364"><ele>82.81</ele><time>2026-04-25T12:21:13Z</time></trkpt><trkpt lat="59.0740996320" lon="30.0172028225"><ele>82.81</ele><time>2026-04-25T12:21:25Z</time></trkpt><trkpt lat="59.0741041582" lon="30.0172389485"><ele>82.81</ele><time>2026-04-25T12:21:29Z</time></trkpt><trkpt lat="59.0741177369" lon="30.0173723046"><ele>82.33</ele><time>2026-04-25T12:21:40Z</time></trkpt><trkpt lat="59.0741298907" lon="30.0174675230"><ele>82.33</ele><time>2026-04-25T12:21:50Z</time></trkpt><trkpt lat="59.0741311479" lon="30.0175468158"><ele>82.33</ele><time>2026-04-25T12:21:58Z</time></trkpt><trkpt lat="59.0741261188" lon="30.0175720453"><ele>82.33</ele><time>2026-04-25T12:22:00Z</time></trkpt><trkpt lat="59.0741170663" lon="30.0176217500"><ele>82.33</ele><time>2026-04-25T12:22:03Z</time></trkpt><trkpt lat="59.0741666034" lon="30.0177702773"><ele>82.33</ele><time>2026-04-25T12:22:14Z</time></trkpt><trkpt lat="59.0741764102" lon="30.0177882984"><ele>82.33</ele><time>2026-04-25T12:22:16Z</time></trkpt><trkpt lat="59.0741842892" lon="30.0178309623"><ele>82.33</ele><time>2026-04-25T12:22:19Z</time></trkpt><trkpt lat="59.0741895698" lon="30.0179084949"><ele>82.33</ele><time>2026-04-25T12:22:26Z</time></trkpt><trkpt lat="59.0742132068" lon="30.0180333853"><ele>82.33</ele><time>2026-04-25T12:22:39Z</time></trkpt><trkpt lat="59.0742097702" lon="30.0180440303"><ele>82.33</ele><time>2026-04-25T12:23:11Z</time></trkpt><trkpt lat="59.0741967782" lon="30.0180541724"><ele>82.33</ele><time>2026-04-25T12:23:48Z</time></trkpt><trkpt lat="59.0741966106" lon="30.0180721935"><ele>82.33</ele><time>2026-04-25T12:24:20Z</time></trkpt><trkpt lat="59.0741941798" lon="30.0180624705"><ele>82.33</ele><time>2026-04-25T12:24:56Z</time></trkpt><trkpt lat="59.0742006339" lon="30.0180579443"><ele>81.85</ele><time>2026-04-25T12:25:17Z</time></trkpt><trkpt lat="59.0741933417" lon="30.0180469640"><ele>81.85</ele><time>2026-04-25T12:25:47Z</time></trkpt><trkpt lat="59.0741916653" lon="30.0180378277"><ele>81.85</ele><time>2026-04-25T12:26:15Z</time></trkpt><trkpt lat="59.0742015559" lon="30.0180454552"><ele>81.85</ele><time>2026-04-25T12:26:37Z</time></trkpt><trkpt lat="59.0742105246" lon="30.0180451199"><ele>81.85</ele><time>2026-04-25T12:26:54Z</time></trkpt><trkpt lat="59.0742150508" lon="30.0180462934"><ele>81.85</ele><time>2026-04-25T12:27:26Z</time></trkpt><trkpt lat="59.0742156375" lon="30.0180485565"><ele>81.85</ele><time>2026-04-25T12:27:53Z</time></trkpt><trkpt lat="59.0742170624" lon="30.0180485565"><ele>81.37</ele><time>2026-04-25T12:28:18Z</time></trkpt><trkpt lat="59.0742170624" lon="30.0180534180"><ele>81.37</ele><time>2026-04-25T12:28:46Z</time></trkpt><trkpt lat="59.0742231812" lon="30.0180517416"><ele>81.37</ele><time>2026-04-25T12:29:13Z</time></trkpt><trkpt lat="59.0742191579" lon="30.0180431083"><ele>81.37</ele><time>2026-04-25T12:29:40Z</time></trkpt><trkpt lat="59.0742210019" lon="30.0180278532"><ele>80.89</ele><time>2026-04-25T12:30:14Z</time></trkpt><trkpt lat="59.0742230136" lon="30.0180244166"><ele>80.89</ele><time>2026-04-25T12:30:37Z</time></trkpt><trkpt lat="59.0742197447" lon="30.0180183817"><ele>80.89</ele><time>2026-04-25T12:31:09Z</time></trkpt><trkpt lat="59.0742182359" lon="30.0180102512"><ele>81.37</ele><time>2026-04-25T12:31:43Z</time></trkpt><trkpt lat="59.0742134582" lon="30.0180009473"><ele>80.89</ele><time>2026-04-25T12:32:18Z</time></trkpt><trkpt lat="59.0742122009" lon="30.0179922301"><ele>80.89</ele><time>2026-04-25T12:32:53Z</time></trkpt><trkpt lat="59.0742143802" lon="30.0180069823"><ele>80.89</ele><time>2026-04-25T12:33:19Z</time></trkpt><trkpt lat="59.0742139611" lon="30.0180066470"><ele>81.37</ele><time>2026-04-25T12:33:47Z</time></trkpt><trkpt lat="59.0742119495" lon="30.0180092454"><ele>80.89</ele><time>2026-04-25T12:34:18Z</time></trkpt><trkpt lat="59.0741953533" lon="30.0179917272"><ele>81.37</ele><time>2026-04-25T12:34:38Z</time></trkpt><trkpt lat="59.0741877258" lon="30.0180404261"><ele>81.37</ele><time>2026-04-25T12:35:00Z</time></trkpt><trkpt lat="59.0742153022" lon="30.0181768835"><ele>81.37</ele><time>2026-04-25T12:35:11Z</time></trkpt><trkpt lat="59.0742371790" lon="30.0182722695"><ele>81.37</ele><time>2026-04-25T12:35:23Z</time></trkpt><trkpt lat="59.0742204152" lon="30.0182988402"><ele>81.37</ele><time>2026-04-25T12:35:27Z</time></trkpt><trkpt lat="59.0742187388" lon="30.0184158515"><ele>81.37</ele><time>2026-04-25T12:35:39Z</time></trkpt><trkpt lat="59.0742464829" lon="30.0185805559"><ele>81.85</ele><time>2026-04-25T12:35:50Z</time></trkpt><trkpt lat="59.0742659289" lon="30.0187002495"><ele>81.85</ele><time>2026-04-25T12:36:00Z</time></trkpt><trkpt lat="59.0742816869" lon="30.0187829789"><ele>81.37</ele><time>2026-04-25T12:36:13Z</time></trkpt><trkpt lat="59.0742652584" lon="30.0188155007"><ele>81.37</ele><time>2026-04-25T12:36:35Z</time></trkpt><trkpt lat="59.0742415376" lon="30.0188442506"><ele>81.37</ele><time>2026-04-25T12:36:38Z</time></trkpt><trkpt lat="59.0742178168" lon="30.0188643672"><ele>81.37</ele><time>2026-04-25T12:36:41Z</time></trkpt><trkpt lat="59.0741442237" lon="30.0187694002"><ele>81.37</ele><time>2026-04-25T12:36:51Z</time></trkpt><trkpt lat="59.0741135459" lon="30.0187927857"><ele>81.37</ele><time>2026-04-25T12:36:54Z</time></trkpt><trkpt lat="59.0740747377" lon="30.0188926142"><ele>81.37</ele><time>2026-04-25T12:37:03Z</time></trkpt><trkpt lat="59.0740159806" lon="30.0189386308"><ele>81.37</ele><time>2026-04-25T12:37:12Z</time></trkpt><trkpt lat="59.0739544574" lon="30.0189387146"><ele>81.37</ele><time>2026-04-25T12:37:22Z</time></trkpt><trkpt lat="59.0738796070" lon="30.0190368667"><ele>81.37</ele><time>2026-04-25T12:37:32Z</time></trkpt><trkpt lat="59.0738117136" lon="30.0190532953"><ele>81.37</ele><time>2026-04-25T12:37:42Z</time></trkpt><trkpt lat="59.0738089476" lon="30.0190451648"><ele>81.37</ele><time>2026-04-25T12:37:43Z</time></trkpt><trkpt lat="59.0737619251" lon="30.0190278143"><ele>81.37</ele><time>2026-04-25T12:37:54Z</time></trkpt><trkpt lat="59.0737294871" lon="30.0190413930"><ele>81.37</ele><time>2026-04-25T12:37:59Z</time></trkpt><trkpt lat="59.0736862365" lon="30.0190545525"><ele>81.37</ele><time>2026-04-25T12:38:05Z</time></trkpt><trkpt lat="59.0736737475" lon="30.0191076938"><ele>80.89</ele><time>2026-04-25T12:38:21Z</time></trkpt><trkpt lat="59.0736745857" lon="30.0190917682"><ele>80.89</ele><time>2026-04-25T12:38:35Z</time></trkpt><trkpt lat="59.0736698918" lon="30.0190322567"><ele>80.89</ele><time>2026-04-25T12:38:39Z</time></trkpt><trkpt lat="59.0736374538" lon="30.0188265648"><ele>80.89</ele><time>2026-04-25T12:38:51Z</time></trkpt><trkpt lat="59.0736252163" lon="30.0187004171"><ele>80.89</ele><time>2026-04-25T12:38:58Z</time></trkpt><trkpt lat="59.0735937003" lon="30.0185703300"><ele>80.89</ele><time>2026-04-25T12:39:08Z</time></trkpt><trkpt lat="59.0735852346" lon="30.0185404904"><ele>80.89</ele><time>2026-04-25T12:39:13Z</time></trkpt><trkpt lat="59.0735745896" lon="30.0184817333"><ele>81.37</ele><time>2026-04-25T12:39:17Z</time></trkpt><trkpt lat="59.0735274833" lon="30.0184420031"><ele>81.37</ele><time>2026-04-25T12:39:24Z</time></trkpt><trkpt lat="59.0735486895" lon="30.0183532387"><ele>81.37</ele><time>2026-04-25T12:39:31Z</time></trkpt><trkpt lat="59.0735553950" lon="30.0182749517"><ele>81.37</ele><time>2026-04-25T12:39:42Z</time></trkpt><trkpt lat="59.0735720750" lon="30.0181674119"><ele>81.37</ele><time>2026-04-25T12:39:51Z</time></trkpt><trkpt lat="59.0735340212" lon="30.0181360636"><ele>81.37</ele><time>2026-04-25T12:39:56Z</time></trkpt><trkpt lat="59.0734977275" lon="30.0180887058"><ele>81.37</ele><time>2026-04-25T12:40:03Z</time></trkpt><trkpt lat="59.0735077020" lon="30.0179602951"><ele>81.37</ele><time>2026-04-25T12:40:13Z</time></trkpt><trkpt lat="59.0734842326" lon="30.0178188086"><ele>81.37</ele><time>2026-04-25T12:40:25Z</time></trkpt><trkpt lat="59.0734234639" lon="30.0175754819"><ele>81.85</ele><time>2026-04-25T12:40:42Z</time></trkpt><trkpt lat="59.0734226257" lon="30.0175648369"><ele>81.85</ele><time>2026-04-25T12:40:43Z</time></trkpt><trkpt lat="59.0734108910" lon="30.0175447203"><ele>81.85</ele><time>2026-04-25T12:40:45Z</time></trkpt><trkpt lat="59.0734030120" lon="30.0174174830"><ele>81.37</ele><time>2026-04-25T12:40:55Z</time></trkpt><trkpt lat="59.0733875055" lon="30.0173044950"><ele>81.37</ele><time>2026-04-25T12:41:04Z</time></trkpt><trkpt lat="59.0733782016" lon="30.0171708036"><ele>81.37</ele><time>2026-04-25T12:41:13Z</time></trkpt><trkpt lat="59.0733523015" lon="30.0171062630"><ele>81.37</ele><time>2026-04-25T12:41:26Z</time></trkpt><trkpt lat="59.0733299218" lon="30.0170283113"><ele>81.37</ele><time>2026-04-25T12:41:38Z</time></trkpt><trkpt lat="59.0733161755" lon="30.0169937778"><ele>81.37</ele><time>2026-04-25T12:41:53Z</time></trkpt><trkpt lat="59.0733243898" lon="30.0169954542"><ele>81.37</ele><time>2026-04-25T12:42:27Z</time></trkpt><trkpt lat="59.0733137447" lon="30.0169845577"><ele>81.37</ele><time>2026-04-25T12:42:31Z</time></trkpt><trkpt lat="59.0732515510" lon="30.0169927720"><ele>81.37</ele><time>2026-04-25T12:42:37Z</time></trkpt><trkpt lat="59.0732045285" lon="30.0170299038"><ele>81.37</ele><time>2026-04-25T12:42:42Z</time></trkpt><trkpt lat="59.0731803048" lon="30.0170491822"><ele>81.37</ele><time>2026-04-25T12:42:45Z</time></trkpt><trkpt lat="59.0731565841" lon="30.0170507748"><ele>81.37</ele><time>2026-04-25T12:42:48Z</time></trkpt><trkpt lat="59.0731208771" lon="30.0171049219"><ele>81.37</ele><time>2026-04-25T12:42:52Z</time></trkpt><trkpt lat="59.0730467811" lon="30.0170659460"><ele>81.37</ele><time>2026-04-25T12:43:01Z</time></trkpt><trkpt lat="59.0729915444" lon="30.0171721447"><ele>81.37</ele><time>2026-04-25T12:43:12Z</time></trkpt><trkpt lat="59.0729726013" lon="30.0171658583"><ele>81.85</ele><time>2026-04-25T12:43:15Z</time></trkpt><trkpt lat="59.0728893690" lon="30.0172105338"><ele>81.85</ele><time>2026-04-25T12:43:26Z</time></trkpt><trkpt lat="59.0728678275" lon="30.0171769224"><ele>81.85</ele><time>2026-04-25T12:43:37Z</time></trkpt><trkpt lat="59.0728648100" lon="30.0171706360"><ele>81.85</ele><time>2026-04-25T12:43:38Z</time></trkpt><trkpt lat="59.0728550032" lon="30.0171470828"><ele>81.85</ele><time>2026-04-25T12:43:41Z</time></trkpt><trkpt lat="59.0728295222" lon="30.0171578117"><ele>81.85</ele><time>2026-04-25T12:43:44Z</time></trkpt><trkpt lat="59.0727377404" lon="30.0172001403"><ele>81.85</ele><time>2026-04-25T12:43:57Z</time></trkpt><trkpt lat="59.0727369860" lon="30.0172096957"><ele>81.85</ele><time>2026-04-25T12:44:21Z</time></trkpt><trkpt lat="59.0727364831" lon="30.0172874797"><ele>81.85</ele><time>2026-04-25T12:44:30Z</time></trkpt><trkpt lat="59.0727357287" lon="30.0172888208"><ele>81.85</ele><time>2026-04-25T12:44:31Z</time></trkpt><trkpt lat="59.0727244969" lon="30.0174100231"><ele>81.37</ele><time>2026-04-25T12:44:42Z</time></trkpt><trkpt lat="59.0727129299" lon="30.0174768269"><ele>80.41</ele><time>2026-04-25T12:44:50Z</time></trkpt><trkpt lat="59.0727151092" lon="30.0175923295"><ele>80.41</ele><time>2026-04-25T12:45:00Z</time></trkpt><trkpt lat="59.0727243293" lon="30.0176304672"><ele>80.41</ele><time>2026-04-25T12:45:03Z</time></trkpt><trkpt lat="59.0727631375" lon="30.0177562796"><ele>80.41</ele><time>2026-04-25T12:45:15Z</time></trkpt><trkpt lat="59.0727830864" lon="30.0178492349"><ele>80.41</ele><time>2026-04-25T12:45:25Z</time></trkpt><trkpt lat="59.0727871098" lon="30.0179255940"><ele>80.41</ele><time>2026-04-25T12:45:32Z</time></trkpt><trkpt lat="59.0727970004" lon="30.0179693475"><ele>80.41</ele><time>2026-04-25T12:45:45Z</time></trkpt><trkpt lat="59.0727885347" lon="30.0180576928"><ele>80.41</ele><time>2026-04-25T12:45:57Z</time></trkpt><trkpt lat="59.0727840085" lon="30.0180809107"><ele>80.41</ele><time>2026-04-25T12:46:31Z</time></trkpt><trkpt lat="59.0727860201" lon="30.0180721935"><ele>79.93</ele><time>2026-04-25T12:47:01Z</time></trkpt><trkpt lat="59.0727851819" lon="30.0180809945"><ele>79.93</ele><time>2026-04-25T12:47:30Z</time></trkpt><trkpt lat="59.0727871936" lon="30.0180694275"><ele>79.93</ele><time>2026-04-25T12:48:01Z</time></trkpt><trkpt lat="59.0727875289" lon="30.0180821680"><ele>79.93</ele><time>2026-04-25T12:48:25Z</time></trkpt><trkpt lat="59.0727933124" lon="30.0181186292"><ele>79.93</ele><time>2026-04-25T12:48:27Z</time></trkpt><trkpt lat="59.0728063043" lon="30.0183234829"><ele>79.93</ele><time>2026-04-25T12:48:38Z</time></trkpt><trkpt lat="59.0728203859" lon="30.0184921268"><ele>79.93</ele><time>2026-04-25T12:48:50Z</time></trkpt><trkpt lat="59.0728583559" lon="30.0186382234"><ele>79.93</ele><time>2026-04-25T12:48:58Z</time></trkpt><trkpt lat="59.0728640556" lon="30.0186934602"><ele>79.93</ele><time>2026-04-25T12:49:01Z</time></trkpt><trkpt lat="59.0729168616" lon="30.0189456716"><ele>79.93</ele><time>2026-04-25T12:49:14Z</time></trkpt><trkpt lat="59.0729258303" lon="30.0190418120"><ele>79.93</ele><time>2026-04-25T12:49:18Z</time></trkpt><trkpt lat="59.0729030315" lon="30.0191908423"><ele>79.93</ele><time>2026-04-25T12:49:28Z</time></trkpt><trkpt lat="59.0728949010" lon="30.0192449056"><ele>79.93</ele><time>2026-04-25T12:49:31Z</time></trkpt><trkpt lat="59.0729241539" lon="30.0193320774"><ele>79.45</ele><time>2026-04-25T12:49:36Z</time></trkpt><trkpt lat="59.0729425941" lon="30.0193911698"><ele>79.45</ele><time>2026-04-25T12:49:40Z</time></trkpt><trkpt lat="59.0729808994" lon="30.0194525253"><ele>79.45</ele><time>2026-04-25T12:49:53Z</time></trkpt><trkpt lat="59.0729738586" lon="30.0194665231"><ele>79.45</ele><time>2026-04-25T12:50:28Z</time></trkpt><trkpt lat="59.0729694162" lon="30.0194586441"><ele>79.45</ele><time>2026-04-25T12:51:00Z</time></trkpt><trkpt lat="59.0729689132" lon="30.0194497593"><ele>78.97</ele><time>2026-04-25T12:51:33Z</time></trkpt><trkpt lat="59.0729731880" lon="30.0194640085"><ele>78.97</ele><time>2026-04-25T12:51:57Z</time></trkpt><trkpt lat="59.0729790553" lon="30.0194778387"><ele>78.97</ele><time>2026-04-25T12:52:32Z</time></trkpt><trkpt lat="59.0729819890" lon="30.0194807723"><ele>78.48</ele><time>2026-04-25T12:53:09Z</time></trkpt><trkpt lat="59.0729856770" lon="30.0194609072"><ele>78.48</ele><time>2026-04-25T12:53:44Z</time></trkpt><trkpt lat="59.0729907900" lon="30.0194597337"><ele>78.48</ele><time>2026-04-25T12:54:08Z</time></trkpt><trkpt lat="59.0729903709" lon="30.0194794312"><ele>78.48</ele><time>2026-04-25T12:54:45Z</time></trkpt><trkpt lat="59.0729925502" lon="30.0194886513"><ele>78.48</ele><time>2026-04-25T12:55:12Z</time></trkpt><trkpt lat="59.0729938913" lon="30.0194945186"><ele>78.48</ele><time>2026-04-25T12:55:44Z</time></trkpt><trkpt lat="59.0729933884" lon="30.0194984581"><ele>78.48</ele><time>2026-04-25T12:56:12Z</time></trkpt><trkpt lat="59.0729910415" lon="30.0195062533"><ele>78.48</ele><time>2026-04-25T12:56:48Z</time></trkpt><trkpt lat="59.0729816537" lon="30.0195100252"><ele>78.48</ele><time>2026-04-25T12:57:23Z</time></trkpt><trkpt lat="59.0729797259" lon="30.0195054151"><ele>78.48</ele><time>2026-04-25T12:58:00Z</time></trkpt><trkpt lat="59.0729839168" lon="30.0195154734"><ele>78.00</ele><time>2026-04-25T12:58:39Z</time></trkpt><trkpt lat="59.0729809832" lon="30.0195094384"><ele>78.00</ele><time>2026-04-25T12:59:14Z</time></trkpt><trkpt lat="59.0729819052" lon="30.0195180718"><ele>78.97</ele><time>2026-04-25T12:59:48Z</time></trkpt><trkpt lat="59.0729889460" lon="30.0195238553"><ele>78.97</ele><time>2026-04-25T13:00:19Z</time></trkpt><trkpt lat="59.0729919635" lon="30.0195153058"><ele>78.97</ele><time>2026-04-25T13:01:03Z</time></trkpt><trkpt lat="59.0729884431" lon="30.0195219275"><ele>79.45</ele><time>2026-04-25T13:01:37Z</time></trkpt><trkpt lat="59.0729899518" lon="30.0195154734"><ele>79.45</ele><time>2026-04-25T13:02:17Z</time></trkpt><trkpt lat="59.0729847550" lon="30.0195230171"><ele>79.45</ele><time>2026-04-25T13:02:58Z</time></trkpt><trkpt lat="59.0729874372" lon="30.0195278786"><ele>78.97</ele><time>2026-04-25T13:03:39Z</time></trkpt><trkpt lat="59.0729956515" lon="30.0195293035"><ele>78.97</ele><time>2026-04-25T13:04:13Z</time></trkpt><trkpt lat="59.0729930531" lon="30.0195226818"><ele>78.97</ele><time>2026-04-25T13:04:36Z</time></trkpt><trkpt lat="59.0729843359" lon="30.0195221789"><ele>78.97</ele><time>2026-04-25T13:05:15Z</time></trkpt><trkpt lat="59.0729887784" lon="30.0195201673"><ele>78.97</ele><time>2026-04-25T13:05:51Z</time></trkpt><trkpt lat="59.0729896165" lon="30.0195016433"><ele>78.97</ele><time>2026-04-25T13:06:24Z</time></trkpt><trkpt lat="59.0729927178" lon="30.0194816943"><ele>78.97</ele><time>2026-04-25T13:06:57Z</time></trkpt><trkpt lat="59.0729901195" lon="30.0194825325"><ele>78.97</ele><time>2026-04-25T13:07:29Z</time></trkpt><trkpt lat="59.0729948133" lon="30.0194799341"><ele>78.97</ele><time>2026-04-25T13:08:05Z</time></trkpt><trkpt lat="59.0729940590" lon="30.0194759108"><ele>79.45</ele><time>2026-04-25T13:08:37Z</time></trkpt><trkpt lat="59.0729939751" lon="30.0194821972"><ele>79.45</ele><time>2026-04-25T13:09:11Z</time></trkpt><trkpt lat="59.0729933884" lon="30.0194847118"><ele>79.45</ele><time>2026-04-25T13:09:33Z</time></trkpt><trkpt lat="59.0729877725" lon="30.0194641761"><ele>79.93</ele><time>2026-04-25T13:09:47Z</time></trkpt><trkpt lat="59.0729669016" lon="30.0194178242"><ele>79.93</ele><time>2026-04-25T13:10:05Z</time></trkpt><trkpt lat="59.0728993434" lon="30.0194624159"><ele>79.93</ele><time>2026-04-25T13:10:15Z</time></trkpt><trkpt lat="59.0728810709" lon="30.0195438880"><ele>79.93</ele><time>2026-04-25T13:10:21Z</time></trkpt><trkpt lat="59.0727992635" lon="30.0196252763"><ele>79.93</ele><time>2026-04-25T13:10:33Z</time></trkpt><trkpt lat="59.0727835894" lon="30.0196339935"><ele>79.93</ele><time>2026-04-25T13:10:35Z</time></trkpt><trkpt lat="59.0726887062" lon="30.0196608994"><ele>79.93</ele><time>2026-04-25T13:10:47Z</time></trkpt><trkpt lat="59.0726500656" lon="30.0197017193"><ele>79.93</ele><time>2026-04-25T13:10:55Z</time></trkpt><trkpt lat="59.0726110898" lon="30.0197853707"><ele>79.93</ele><time>2026-04-25T13:11:07Z</time></trkpt><trkpt lat="59.0725501534" lon="30.0197998714"><ele>79.93</ele><time>2026-04-25T13:11:18Z</time></trkpt><trkpt lat="59.0725138597" lon="30.0198478997"><ele>79.93</ele><time>2026-04-25T13:11:29Z</time></trkpt><trkpt lat="59.0725177154" lon="30.0198621489"><ele>79.93</ele><time>2026-04-25T13:11:30Z</time></trkpt><trkpt lat="59.0725308750" lon="30.0199407712"><ele>79.93</ele><time>2026-04-25T13:11:35Z</time></trkpt><trkpt lat="59.0725642350" lon="30.0200702716"><ele>79.93</ele><time>2026-04-25T13:11:46Z</time></trkpt><trkpt lat="59.0725875366" lon="30.0202309527"><ele>79.93</ele><time>2026-04-25T13:11:56Z</time></trkpt><trkpt lat="59.0726049710" lon="30.0203439407"><ele>79.93</ele><time>2026-04-25T13:12:02Z</time></trkpt><trkpt lat="59.0726102516" lon="30.0204156060"><ele>79.93</ele><time>2026-04-25T13:12:05Z</time></trkpt><trkpt lat="59.0726308711" lon="30.0205842499"><ele>79.93</ele><time>2026-04-25T13:12:14Z</time></trkpt><trkpt lat="59.0726423543" lon="30.0206050370"><ele>79.93</ele><time>2026-04-25T13:12:16Z</time></trkpt><trkpt lat="59.0726421028" lon="30.0207139179"><ele>79.93</ele><time>2026-04-25T13:12:20Z</time></trkpt><trkpt lat="59.0726425219" lon="30.0208714139"><ele>79.93</ele><time>2026-04-25T13:12:27Z</time></trkpt><trkpt lat="59.0726286080" lon="30.0209219567"><ele>79.93</ele><time>2026-04-25T13:12:29Z</time></trkpt><trkpt lat="59.0726300329" lon="30.0210037641"><ele>79.93</ele><time>2026-04-25T13:12:32Z</time></trkpt><trkpt lat="59.0726164542" lon="30.0210713223"><ele>79.93</ele><time>2026-04-25T13:12:35Z</time></trkpt><trkpt lat="59.0726038814" lon="30.0211993977"><ele>79.45</ele><time>2026-04-25T13:12:45Z</time></trkpt><trkpt lat="59.0726133529" lon="30.0214138906"><ele>79.45</ele><time>2026-04-25T13:12:56Z</time></trkpt><trkpt lat="59.0726056416" lon="30.0214781798"><ele>79.45</ele><time>2026-04-25T13:13:04Z</time></trkpt><trkpt lat="59.0726109222" lon="30.0216117036"><ele>79.45</ele><time>2026-04-25T13:13:11Z</time></trkpt><trkpt lat="59.0726130176" lon="30.0217021443"><ele>79.45</ele><time>2026-04-25T13:13:16Z</time></trkpt><trkpt lat="59.0726084914" lon="30.0217591412"><ele>79.45</ele><time>2026-04-25T13:13:19Z</time></trkpt><trkpt lat="59.0726034623" lon="30.0218343269"><ele>79.45</ele><time>2026-04-25T13:13:23Z</time></trkpt><trkpt lat="59.0725922305" lon="30.0219484046"><ele>79.45</ele><time>2026-04-25T13:13:28Z</time></trkpt><trkpt lat="59.0725882072" lon="30.0220706128"><ele>79.45</ele><time>2026-04-25T13:13:35Z</time></trkpt><trkpt lat="59.0725880396" lon="30.0222451240"><ele>79.45</ele><time>2026-04-25T13:13:45Z</time></trkpt><trkpt lat="59.0725880396" lon="30.0222599600"><ele>79.45</ele><time>2026-04-25T13:13:46Z</time></trkpt><trkpt lat="59.0725658275" lon="30.0225455314"><ele>79.45</ele><time>2026-04-25T13:13:59Z</time></trkpt><trkpt lat="59.0725384187" lon="30.0227240659"><ele>79.45</ele><time>2026-04-25T13:14:07Z</time></trkpt><trkpt lat="59.0725585353" lon="30.0229087193"><ele>79.45</ele><time>2026-04-25T13:14:17Z</time></trkpt><trkpt lat="59.0725369938" lon="30.0231040176"><ele>79.45</ele><time>2026-04-25T13:14:27Z</time></trkpt><trkpt lat="59.0725280251" lon="30.0232147425"><ele>79.45</ele><time>2026-04-25T13:14:32Z</time></trkpt><trkpt lat="59.0725571942" lon="30.0234067719"><ele>79.45</ele><time>2026-04-25T13:14:40Z</time></trkpt><trkpt lat="59.0725883748" lon="30.0235092826"><ele>79.45</ele><time>2026-04-25T13:14:45Z</time></trkpt><trkpt lat="59.0725985169" lon="30.0235993881"><ele>79.45</ele><time>2026-04-25T13:14:49Z</time></trkpt><trkpt lat="59.0726175439" lon="30.0237059221"><ele>79.45</ele><time>2026-04-25T13:14:54Z</time></trkpt><trkpt lat="59.0726178791" lon="30.0237458199"><ele>79.45</ele><time>2026-04-25T13:14:56Z</time></trkpt><trkpt lat="59.0726317093" lon="30.0238298066"><ele>79.45</ele><time>2026-04-25T13:15:01Z</time></trkpt><trkpt lat="59.0726389177" lon="30.0238945987"><ele>79.45</ele><time>2026-04-25T13:15:04Z</time></trkpt><trkpt lat="59.0726494789" lon="30.0240841135"><ele>79.45</ele><time>2026-04-25T13:15:16Z</time></trkpt><trkpt lat="59.0726640634" lon="30.0242198166"><ele>79.45</ele><time>2026-04-25T13:15:24Z</time></trkpt><trkpt lat="59.0726658236" lon="30.0244038831"><ele>79.45</ele><time>2026-04-25T13:15:34Z</time></trkpt><trkpt lat="59.0726891253" lon="30.0245825853"><ele>79.45</ele><time>2026-04-25T13:15:42Z</time></trkpt><trkpt lat="59.0727233235" lon="30.0247752015"><ele>79.45</ele><time>2026-04-25T13:15:54Z</time></trkpt><trkpt lat="59.0727627184" lon="30.0249809772"><ele>79.45</ele><time>2026-04-25T13:16:06Z</time></trkpt><trkpt lat="59.0727675799" lon="30.0249960646"><ele>78.97</ele><time>2026-04-25T13:16:23Z</time></trkpt><trkpt lat="59.0727850143" lon="30.0251030177"><ele>78.97</ele><time>2026-04-25T13:16:28Z</time></trkpt><trkpt lat="59.0728103276" lon="30.0253349449"><ele>78.97</ele><time>2026-04-25T13:16:38Z</time></trkpt><trkpt lat="59.0728446096" lon="30.0255622622"><ele>78.97</ele><time>2026-04-25T13:16:50Z</time></trkpt><trkpt lat="59.0728551708" lon="30.0256720651"><ele>78.97</ele><time>2026-04-25T13:17:02Z</time></trkpt><trkpt lat="59.0728607867" lon="30.0258075166"><ele>78.97</ele><time>2026-04-25T13:17:14Z</time></trkpt><trkpt lat="59.0728844237" lon="30.0259024836"><ele>78.97</ele><time>2026-04-25T13:17:19Z</time></trkpt><trkpt lat="59.0728829987" lon="30.0259519368"><ele>78.97</ele><time>2026-04-25T13:17:21Z</time></trkpt><trkpt lat="59.0729323681" lon="30.0261318963"><ele>78.97</ele><time>2026-04-25T13:17:33Z</time></trkpt><trkpt lat="59.0729424264" lon="30.0262801722"><ele>78.97</ele><time>2026-04-25T13:17:39Z</time></trkpt><trkpt lat="59.0729565080" lon="30.0265535060"><ele>78.97</ele><time>2026-04-25T13:17:50Z</time></trkpt><trkpt lat="59.0729829110" lon="30.0268204696"><ele>78.97</ele><time>2026-04-25T13:18:02Z</time></trkpt><trkpt lat="59.0729941428" lon="30.0269144308"><ele>78.97</ele><time>2026-04-25T13:18:07Z</time></trkpt><trkpt lat="59.0730288438" lon="30.0271076337"><ele>78.97</ele><time>2026-04-25T13:18:20Z</time></trkpt><trkpt lat="59.0730609465" lon="30.0272917841"><ele>78.97</ele><time>2026-04-25T13:18:28Z</time></trkpt><trkpt lat="59.0730908699" lon="30.0275426544"><ele>78.97</ele><time>2026-04-25T13:18:38Z</time></trkpt><trkpt lat="59.0730807278" lon="30.0275834743"><ele>78.97</ele><time>2026-04-25T13:18:42Z</time></trkpt><trkpt lat="59.0729813185" lon="30.0276493561"><ele>78.97</ele><time>2026-04-25T13:18:52Z</time></trkpt><trkpt lat="59.0729710087" lon="30.0276568159"><ele>78.97</ele><time>2026-04-25T13:18:53Z</time></trkpt><trkpt lat="59.0729151014" lon="30.0276724901"><ele>78.97</ele><time>2026-04-25T13:18:58Z</time></trkpt><trkpt lat="59.0727669094" lon="30.0277752522"><ele>78.97</ele><time>2026-04-25T13:19:11Z</time></trkpt><trkpt lat="59.0727565996" lon="30.0277781021"><ele>78.97</ele><time>2026-04-25T13:19:12Z</time></trkpt><trkpt lat="59.0726681706" lon="30.0277712289"><ele>78.48</ele><time>2026-04-25T13:19:23Z</time></trkpt><trkpt lat="59.0725704376" lon="30.0277965423"><ele>78.48</ele><time>2026-04-25T13:19:36Z</time></trkpt><trkpt lat="59.0725606307" lon="30.0278019905"><ele>78.48</ele><time>2026-04-25T13:19:38Z</time></trkpt><trkpt lat="59.0724998619" lon="30.0278384518"><ele>77.52</ele><time>2026-04-25T13:19:47Z</time></trkpt><trkpt lat="59.0724528395" lon="30.0278506894"><ele>77.52</ele><time>2026-04-25T13:19:55Z</time></trkpt><trkpt lat="59.0723685175" lon="30.0278995559"><ele>77.04</ele><time>2026-04-25T13:20:04Z</time></trkpt><trkpt lat="59.0723142866" lon="30.0279404595"><ele>77.04</ele><time>2026-04-25T13:20:12Z</time></trkpt><trkpt lat="59.0722590499" lon="30.0279576425"><ele>77.04</ele><time>2026-04-25T13:20:21Z</time></trkpt><trkpt lat="59.0722441301" lon="30.0279840454"><ele>77.04</ele><time>2026-04-25T13:20:25Z</time></trkpt><trkpt lat="59.0721961018" lon="30.0279629230"><ele>77.04</ele><time>2026-04-25T13:20:32Z</time></trkpt><trkpt lat="59.0721235983" lon="30.0279513560"><ele>76.56</ele><time>2026-04-25T13:20:42Z</time></trkpt><trkpt lat="59.0721050743" lon="30.0279366039"><ele>76.56</ele><time>2026-04-25T13:20:45Z</time></trkpt><trkpt lat="59.0720532741" lon="30.0279391184"><ele>76.56</ele><time>2026-04-25T13:20:54Z</time></trkpt><trkpt lat="59.0719746519" lon="30.0280013122"><ele>76.56</ele><time>2026-04-25T13:21:04Z</time></trkpt><trkpt lat="59.0718860552" lon="30.0280593149"><ele>76.56</ele><time>2026-04-25T13:21:14Z</time></trkpt><trkpt lat="59.0718692075" lon="30.0280511007"><ele>76.56</ele><time>2026-04-25T13:21:17Z</time></trkpt><trkpt lat="59.0718570538" lon="30.0280762464"><ele>76.56</ele><time>2026-04-25T13:21:20Z</time></trkpt><trkpt lat="59.0717493463" lon="30.0281102769"><ele>76.08</ele><time>2026-04-25T13:21:30Z</time></trkpt><trkpt lat="59.0716743283" lon="30.0281537790"><ele>76.08</ele><time>2026-04-25T13:21:39Z</time></trkpt><trkpt lat="59.0716331732" lon="30.0281386916"><ele>76.08</ele><time>2026-04-25T13:21:45Z</time></trkpt><trkpt lat="59.0715848934" lon="30.0281429663"><ele>76.08</ele><time>2026-04-25T13:21:55Z</time></trkpt><trkpt lat="59.0715143178" lon="30.0281624962"><ele>76.08</ele><time>2026-04-25T13:22:05Z</time></trkpt><trkpt lat="59.0715076122" lon="30.0281552039"><ele>76.08</ele><time>2026-04-25T13:22:06Z</time></trkpt><trkpt lat="59.0713577438" lon="30.0282024778"><ele>76.08</ele><time>2026-04-25T13:22:17Z</time></trkpt><trkpt lat="59.0712863300" lon="30.0282209180"><ele>76.08</ele><time>2026-04-25T13:22:27Z</time></trkpt><trkpt lat="59.0712022595" lon="30.0282382686"><ele>76.08</ele><time>2026-04-25T13:22:36Z</time></trkpt><trkpt lat="59.0711131599" lon="30.0282900687"><ele>76.08</ele><time>2026-04-25T13:22:47Z</time></trkpt><trkpt lat="59.0711047780" lon="30.0282893982"><ele>76.08</ele><time>2026-04-25T13:22:48Z</time></trkpt><trkpt lat="59.0710137505" lon="30.0283420365"><ele>76.08</ele><time>2026-04-25T13:22:59Z</time></trkpt><trkpt lat="59.0709668119" lon="30.0283862092"><ele>76.08</ele><time>2026-04-25T13:23:15Z</time></trkpt><trkpt lat="59.0708894469" lon="30.0284171384"><ele>76.08</ele><time>2026-04-25T13:23:25Z</time></trkpt><trkpt lat="59.0708148479" lon="30.0284110196"><ele>76.08</ele><time>2026-04-25T13:23:32Z</time></trkpt><trkpt lat="59.0707441885" lon="30.0284293760"><ele>76.08</ele><time>2026-04-25T13:23:37Z</time></trkpt><trkpt lat="59.0706239920" lon="30.0284450501"><ele>76.08</ele><time>2026-04-25T13:23:51Z</time></trkpt><trkpt lat="59.0704398416" lon="30.0285054836"><ele>76.08</ele><time>2026-04-25T13:24:07Z</time></trkpt><trkpt lat="59.0703528374" lon="30.0285442080"><ele>76.08</ele><time>2026-04-25T13:24:22Z</time></trkpt><trkpt lat="59.0703302063" lon="30.0285734609"><ele>76.08</ele><time>2026-04-25T13:24:43Z</time></trkpt><trkpt lat="59.0702350717" lon="30.0285954215"><ele>76.08</ele><time>2026-04-25T13:24:51Z</time></trkpt><trkpt lat="59.0701949224" lon="30.0285969302"><ele>76.08</ele><time>2026-04-25T13:24:54Z</time></trkpt><trkpt lat="59.0700704511" lon="30.0286742952"><ele>76.08</ele><time>2026-04-25T13:25:07Z</time></trkpt><trkpt lat="59.0699645877" lon="30.0286837667"><ele>76.08</ele><time>2026-04-25T13:25:19Z</time></trkpt><trkpt lat="59.0699149668" lon="30.0286942441"><ele>76.08</ele><time>2026-04-25T13:25:29Z</time></trkpt><trkpt lat="59.0698921680" lon="30.0286824256"><ele>76.08</ele><time>2026-04-25T13:25:34Z</time></trkpt><trkpt lat="59.0697989613" lon="30.0287235808"><ele>76.08</ele><time>2026-04-25T13:25:44Z</time></trkpt><trkpt lat="59.0697706304" lon="30.0287446193"><ele>77.04</ele><time>2026-04-25T13:25:47Z</time></trkpt><trkpt lat="59.0696998034" lon="30.0288248342"><ele>77.04</ele><time>2026-04-25T13:25:56Z</time></trkpt><trkpt lat="59.0696153976" lon="30.0288227387"><ele>77.04</ele><time>2026-04-25T13:26:07Z</time></trkpt><trkpt lat="59.0695718117" lon="30.0288515724"><ele>77.52</ele><time>2026-04-25T13:26:16Z</time></trkpt><trkpt lat="59.0695066005" lon="30.0288648158"><ele>77.52</ele><time>2026-04-25T13:26:24Z</time></trkpt><trkpt lat="59.0694765095" lon="30.0288758799"><ele>77.52</ele><time>2026-04-25T13:26:27Z</time></trkpt><trkpt lat="59.0693964623" lon="30.0288977567"><ele>77.52</ele><time>2026-04-25T13:26:38Z</time></trkpt><trkpt lat="59.0693336818" lon="30.0289243273"><ele>77.04</ele><time>2026-04-25T13:26:48Z</time></trkpt><trkpt lat="59.0692446660" lon="30.0289559271"><ele>77.04</ele><time>2026-04-25T13:26:58Z</time></trkpt><trkpt lat="59.0691437479" lon="30.0289758760"><ele>77.04</ele><time>2026-04-25T13:27:08Z</time></trkpt><trkpt lat="59.0690956358" lon="30.0289814081"><ele>77.04</ele><time>2026-04-25T13:27:17Z</time></trkpt><trkpt lat="59.0690352023" lon="30.0290136784"><ele>77.04</ele><time>2026-04-25T13:27:28Z</time></trkpt><trkpt lat="59.0689518861" lon="30.0290608685"><ele>77.04</ele><time>2026-04-25T13:27:39Z</time></trkpt><trkpt lat="59.0688562486" lon="30.0290705077"><ele>77.04</ele><time>2026-04-25T13:27:50Z</time></trkpt><trkpt lat="59.0688487049" lon="30.0290674064"><ele>77.04</ele><time>2026-04-25T13:27:51Z</time></trkpt><trkpt lat="59.0687514748" lon="30.0291296840"><ele>77.04</ele><time>2026-04-25T13:28:02Z</time></trkpt><trkpt lat="59.0686421748" lon="30.0291265827"><ele>77.04</ele><time>2026-04-25T13:28:12Z</time></trkpt><trkpt lat="59.0685519855" lon="30.0291622896"><ele>77.04</ele><time>2026-04-25T13:28:22Z</time></trkpt><trkpt lat="59.0685334615" lon="30.0291868486"><ele>77.04</ele><time>2026-04-25T13:28:24Z</time></trkpt><trkpt lat="59.0684757940" lon="30.0292299315"><ele>77.04</ele><time>2026-04-25T13:28:32Z</time></trkpt><trkpt lat="59.0684710164" lon="30.0292295963"><ele>77.04</ele><time>2026-04-25T13:28:33Z</time></trkpt><trkpt lat="59.0684242453" lon="30.0292112399"><ele>77.04</ele><time>2026-04-25T13:28:40Z</time></trkpt><trkpt lat="59.0683824196" lon="30.0291829929"><ele>77.04</ele><time>2026-04-25T13:28:50Z</time></trkpt><trkpt lat="59.0683424380" lon="30.0291487947"><ele>76.56</ele><time>2026-04-25T13:29:00Z</time></trkpt><trkpt lat="59.0682744607" lon="30.0291093159"><ele>76.56</ele><time>2026-04-25T13:29:11Z</time></trkpt><trkpt lat="59.0682892967" lon="30.0290944800"><ele>76.56</ele><time>2026-04-25T13:29:28Z</time></trkpt><trkpt lat="59.0682459623" lon="30.0291065499"><ele>76.56</ele><time>2026-04-25T13:29:41Z</time></trkpt><trkpt lat="59.0682043042" lon="30.0291240681"><ele>76.56</ele><time>2026-04-25T13:29:47Z</time></trkpt><trkpt lat="59.0681415237" lon="30.0292614475"><ele>76.56</ele><time>2026-04-25T13:29:59Z</time></trkpt><trkpt lat="59.0680208243" lon="30.0293342862"><ele>76.56</ele><time>2026-04-25T13:30:14Z</time></trkpt><trkpt lat="59.0679132845" lon="30.0293179415"><ele>76.56</ele><time>2026-04-25T13:30:27Z</time></trkpt><trkpt lat="59.0678301360" lon="30.0294026826"><ele>76.56</ele><time>2026-04-25T13:30:36Z</time></trkpt><trkpt lat="59.0676916670" lon="30.0294633675"><ele>76.56</ele><time>2026-04-25T13:30:47Z</time></trkpt><trkpt lat="59.0676178224" lon="30.0294703245"><ele>76.56</ele><time>2026-04-25T13:30:57Z</time></trkpt><trkpt lat="59.0676013101" lon="30.0294699054"><ele>76.56</ele><time>2026-04-25T13:31:01Z</time></trkpt><trkpt lat="59.0675055049" lon="30.0294887647"><ele>76.56</ele><time>2026-04-25T13:31:12Z</time></trkpt><trkpt lat="59.0674683731" lon="30.0295084622"><ele>76.56</ele><time>2026-04-25T13:31:15Z</time></trkpt><trkpt lat="59.0673454944" lon="30.0295736734"><ele>76.56</ele><time>2026-04-25T13:31:27Z</time></trkpt><trkpt lat="59.0672625974" lon="30.0295919459"><ele>76.56</ele><time>2026-04-25T13:31:37Z</time></trkpt><trkpt lat="59.0672345180" lon="30.0295838155"><ele>76.56</ele><time>2026-04-25T13:31:42Z</time></trkpt><trkpt lat="59.0671482682" lon="30.0295102224"><ele>76.56</ele><time>2026-04-25T13:31:53Z</time></trkpt><trkpt lat="59.0671137348" lon="30.0296100508"><ele>76.56</ele><time>2026-04-25T13:32:03Z</time></trkpt><trkpt lat="59.0670390520" lon="30.0296596717"><ele>76.56</ele><time>2026-04-25T13:32:17Z</time></trkpt><trkpt lat="59.0669901855" lon="30.0296959653"><ele>76.56</ele><time>2026-04-25T13:32:27Z</time></trkpt><trkpt lat="59.0669496171" lon="30.0296866614"><ele>76.56</ele><time>2026-04-25T13:32:38Z</time></trkpt><trkpt lat="59.0668759402" lon="30.0297062751"><ele>76.56</ele><time>2026-04-25T13:32:47Z</time></trkpt><trkpt lat="59.0668200329" lon="30.0297843106"><ele>76.56</ele><time>2026-04-25T13:32:59Z</time></trkpt><trkpt lat="59.0667709988" lon="30.0298009068"><ele>76.56</ele><time>2026-04-25T13:33:11Z</time></trkpt><trkpt lat="59.0667434223" lon="30.0298082829"><ele>76.56</ele><time>2026-04-25T13:33:34Z</time></trkpt><trkpt lat="59.0667390637" lon="30.0298268069"><ele>76.56</ele><time>2026-04-25T13:33:57Z</time></trkpt><trkpt lat="59.0667389799" lon="30.0298360270"><ele>76.56</ele><time>2026-04-25T13:34:17Z</time></trkpt><trkpt lat="59.0667172708" lon="30.0298330933"><ele>76.56</ele><time>2026-04-25T13:34:33Z</time></trkpt><trkpt lat="59.0667110682" lon="30.0298363622"><ele>76.56</ele><time>2026-04-25T13:34:47Z</time></trkpt><trkpt lat="59.0667078830" lon="30.0298289023"><ele>76.56</ele><time>2026-04-25T13:35:08Z</time></trkpt><trkpt lat="59.0667052008" lon="30.0298276450"><ele>76.56</ele><time>2026-04-25T13:35:32Z</time></trkpt><trkpt lat="59.0667021833" lon="30.0298366975"><ele>76.56</ele><time>2026-04-25T13:35:58Z</time></trkpt><trkpt lat="59.0667010099" lon="30.0298443250"><ele>76.08</ele><time>2026-04-25T13:36:12Z</time></trkpt><trkpt lat="59.0667072125" lon="30.0298534613"><ele>76.08</ele><time>2026-04-25T13:36:34Z</time></trkpt><trkpt lat="59.0666964836" lon="30.0298648607"><ele>76.08</ele><time>2026-04-25T13:36:53Z</time></trkpt><trkpt lat="59.0666699130" lon="30.0298805349"><ele>76.08</ele><time>2026-04-25T13:37:07Z</time></trkpt><trkpt lat="59.0665977448" lon="30.0298895035"><ele>76.08</ele><time>2026-04-25T13:37:18Z</time></trkpt><trkpt lat="59.0665588528" lon="30.0298465881"><ele>76.08</ele><time>2026-04-25T13:37:28Z</time></trkpt><trkpt lat="59.0665511414" lon="30.0298631843"><ele>76.08</ele><time>2026-04-25T13:37:40Z</time></trkpt><trkpt lat="59.0664821584" lon="30.0299071893"><ele>76.08</ele><time>2026-04-25T13:37:51Z</time></trkpt><trkpt lat="59.0663880296" lon="30.0299654435"><ele>76.08</ele><time>2026-04-25T13:38:01Z</time></trkpt><trkpt lat="59.0663646441" lon="30.0299805310"><ele>76.08</ele><time>2026-04-25T13:38:03Z</time></trkpt><trkpt lat="59.0663265064" lon="30.0300411321"><ele>76.08</ele><time>2026-04-25T13:38:10Z</time></trkpt><trkpt lat="59.0662840102" lon="30.0300444011"><ele>76.08</ele><time>2026-04-25T13:38:16Z</time></trkpt><trkpt lat="59.0662120096" lon="30.0299853086"><ele>76.08</ele><time>2026-04-25T13:38:28Z</time></trkpt><trkpt lat="59.0661497321" lon="30.0300263800"><ele>76.08</ele><time>2026-04-25T13:38:38Z</time></trkpt><trkpt lat="59.0661501512" lon="30.0300045870"><ele>76.08</ele><time>2026-04-25T13:39:02Z</time></trkpt><trkpt lat="59.0661347285" lon="30.0300093647"><ele>75.60</ele><time>2026-04-25T13:39:12Z</time></trkpt><trkpt lat="59.0660859458" lon="30.0300460774"><ele>75.60</ele><time>2026-04-25T13:39:24Z</time></trkpt><trkpt lat="59.0660397615" lon="30.0300702173"><ele>75.60</ele><time>2026-04-25T13:39:35Z</time></trkpt><trkpt lat="59.0659979358" lon="30.0301112048"><ele>75.60</ele><time>2026-04-25T13:39:47Z</time></trkpt><trkpt lat="59.0659554396" lon="30.0301518571"><ele>75.60</ele><time>2026-04-25T13:39:59Z</time></trkpt><trkpt lat="59.0659364127" lon="30.0301643461"><ele>75.60</ele><time>2026-04-25T13:40:15Z</time></trkpt><trkpt lat="59.0659337305" lon="30.0301791821"><ele>75.60</ele><time>2026-04-25T13:40:35Z</time></trkpt><trkpt lat="59.0658915695" lon="30.0302201696"><ele>75.60</ele><time>2026-04-25T13:40:43Z</time></trkpt><trkpt lat="59.0658309683" lon="30.0302820280"><ele>75.60</ele><time>2026-04-25T13:40:53Z</time></trkpt><trkpt lat="59.0657336544" lon="30.0303021446"><ele>75.12</ele><time>2026-04-25T13:41:02Z</time></trkpt><trkpt lat="59.0656820219" lon="30.0302568823"><ele>75.12</ele><time>2026-04-25T13:41:08Z</time></trkpt><trkpt lat="59.0656192414" lon="30.0302507635"><ele>75.12</ele><time>2026-04-25T13:41:16Z</time></trkpt><trkpt lat="59.0655343328" lon="30.0302877277"><ele>75.12</ele><time>2026-04-25T13:41:22Z</time></trkpt><trkpt lat="59.0654282179" lon="30.0303038210"><ele>75.12</ele><time>2026-04-25T13:41:29Z</time></trkpt><trkpt lat="59.0653925948" lon="30.0303117838"><ele>75.12</ele><time>2026-04-25T13:41:31Z</time></trkpt><trkpt lat="59.0652677882" lon="30.0303576328"><ele>75.12</ele><time>2026-04-25T13:41:41Z</time></trkpt><trkpt lat="59.0651651938" lon="30.0303758215"><ele>75.12</ele><time>2026-04-25T13:41:49Z</time></trkpt><trkpt lat="59.0650802851" lon="30.0304232631"><ele>75.12</ele><time>2026-04-25T13:41:59Z</time></trkpt><trkpt lat="59.0649515390" lon="30.0304407813"><ele>75.12</ele><time>2026-04-25T13:42:11Z</time></trkpt><trkpt lat="59.0648134053" lon="30.0304781646"><ele>75.12</ele><time>2026-04-25T13:42:25Z</time></trkpt><trkpt lat="59.0646669734" lon="30.0305049866"><ele>75.12</ele><time>2026-04-25T13:42:38Z</time></trkpt><trkpt lat="59.0646194480" lon="30.0305130333"><ele>75.12</ele><time>2026-04-25T13:42:42Z</time></trkpt><trkpt lat="59.0645131655" lon="30.0305713713"><ele>74.64</ele><time>2026-04-25T13:42:54Z</time></trkpt><trkpt lat="59.0644528996" lon="30.0305870455"><ele>74.64</ele><time>2026-04-25T13:43:02Z</time></trkpt><trkpt lat="59.0643961541" lon="30.0306245964"><ele>74.64</ele><time>2026-04-25T13:43:15Z</time></trkpt><trkpt lat="59.0643651411" lon="30.0306651648"><ele>74.64</ele><time>2026-04-25T13:43:25Z</time></trkpt><trkpt lat="59.0643022768" lon="30.0307007041"><ele>74.64</ele><time>2026-04-25T13:43:32Z</time></trkpt><trkpt lat="59.0642086510" lon="30.0307232514"><ele>74.64</ele><time>2026-04-25T13:43:42Z</time></trkpt><trkpt lat="59.0641248319" lon="30.0307499897"><ele>74.64</ele><time>2026-04-25T13:43:51Z</time></trkpt><trkpt lat="59.0641090740" lon="30.0307450444"><ele>74.64</ele><time>2026-04-25T13:43:52Z</time></trkpt><trkpt lat="59.0639948286" lon="30.0307737105"><ele>74.64</ele><time>2026-04-25T13:44:03Z</time></trkpt><trkpt lat="59.0639392566" lon="30.0308095012"><ele>74.64</ele><time>2026-04-25T13:44:13Z</time></trkpt><trkpt lat="59.0639049746" lon="30.0308001135"><ele>74.16</ele><time>2026-04-25T13:44:24Z</time></trkpt><trkpt lat="59.0638771467" lon="30.0308217388"><ele>74.16</ele><time>2026-04-25T13:44:35Z</time></trkpt><trkpt lat="59.0638603829" lon="30.0308180507"><ele>74.16</ele><time>2026-04-25T13:44:46Z</time></trkpt><trkpt lat="59.0638302080" lon="30.0308385026"><ele>74.16</ele><time>2026-04-25T13:44:59Z</time></trkpt><trkpt lat="59.0638163779" lon="30.0308423582"><ele>74.16</ele><time>2026-04-25T13:45:18Z</time></trkpt><trkpt lat="59.0637983568" lon="30.0308411010"><ele>74.16</ele><time>2026-04-25T13:45:33Z</time></trkpt><trkpt lat="59.0637644101" lon="30.0308443699"><ele>73.68</ele><time>2026-04-25T13:45:50Z</time></trkpt><trkpt lat="59.0636942536" lon="30.0308447890"><ele>73.68</ele><time>2026-04-25T13:46:01Z</time></trkpt><trkpt lat="59.0636380110" lon="30.0308645703"><ele>73.68</ele><time>2026-04-25T13:46:12Z</time></trkpt><trkpt lat="59.0636302996" lon="30.0308772270"><ele>73.68</ele><time>2026-04-25T13:46:13Z</time></trkpt><trkpt lat="59.0635611489" lon="30.0309357326"><ele>73.68</ele><time>2026-04-25T13:46:23Z</time></trkpt><trkpt lat="59.0635305550" lon="30.0309465453"><ele>73.68</ele><time>2026-04-25T13:46:33Z</time></trkpt><trkpt lat="59.0635314770" lon="30.0309441984"><ele>74.16</ele><time>2026-04-25T13:46:52Z</time></trkpt><trkpt lat="59.0635205805" lon="30.0309338048"><ele>74.16</ele><time>2026-04-25T13:47:10Z</time></trkpt><trkpt lat="59.0634748992" lon="30.0309678353"><ele>74.16</ele><time>2026-04-25T13:47:14Z</time></trkpt><trkpt lat="59.0634125378" lon="30.0309612136"><ele>74.16</ele><time>2026-04-25T13:47:19Z</time></trkpt><trkpt lat="59.0633462369" lon="30.0310221501"><ele>73.68</ele><time>2026-04-25T13:47:35Z</time></trkpt><trkpt lat="59.0633266233" lon="30.0310385786"><ele>73.68</ele><time>2026-04-25T13:47:59Z</time></trkpt><trkpt lat="59.0633026510" lon="30.0310386624"><ele>73.68</ele><time>2026-04-25T13:48:11Z</time></trkpt><trkpt lat="59.0633004718" lon="30.0310293585"><ele>73.68</ele><time>2026-04-25T13:48:34Z</time></trkpt><trkpt lat="59.0633144695" lon="30.0310211442"><ele>73.68</ele><time>2026-04-25T13:48:57Z</time></trkpt><trkpt lat="59.0633149724" lon="30.0310312863"><ele>73.20</ele><time>2026-04-25T13:49:14Z</time></trkpt><trkpt lat="59.0633130446" lon="30.0310302805"><ele>73.20</ele><time>2026-04-25T13:49:33Z</time></trkpt><trkpt lat="59.0633195825" lon="30.0310928933"><ele>73.20</ele><time>2026-04-25T13:49:45Z</time></trkpt><trkpt lat="59.0633129608" lon="30.0310640596"><ele>73.20</ele><time>2026-04-25T13:50:05Z</time></trkpt><trkpt lat="59.0633139666" lon="30.0310532469"><ele>73.20</ele><time>2026-04-25T13:50:18Z</time></trkpt><trkpt lat="59.0633094404" lon="30.0310637243"><ele>73.68</ele><time>2026-04-25T13:50:40Z</time></trkpt><trkpt lat="59.0633126255" lon="30.0310669094"><ele>73.68</ele><time>2026-04-25T13:51:04Z</time></trkpt><trkpt lat="59.0633222647" lon="30.0311269239"><ele>73.68</ele><time>2026-04-25T13:51:14Z</time></trkpt><trkpt lat="59.0633221809" lon="30.0311467890"><ele>73.20</ele><time>2026-04-25T13:51:33Z</time></trkpt><trkpt lat="59.0633185767" lon="30.0311518181"><ele>73.20</ele><time>2026-04-25T13:51:48Z</time></trkpt><trkpt lat="59.0633205045" lon="30.0311288517"><ele>73.20</ele><time>2026-04-25T13:52:05Z</time></trkpt><trkpt lat="59.0633233543" lon="30.0311544165"><ele>73.20</ele><time>2026-04-25T13:52:45Z</time></trkpt><trkpt lat="59.0633078478" lon="30.0311503094"><ele>73.68</ele><time>2026-04-25T13:53:24Z</time></trkpt><trkpt lat="59.0633141343" lon="30.0311254989"><ele>73.68</ele><time>2026-04-25T13:54:03Z</time></trkpt><trkpt lat="59.0633181576" lon="30.0311322045"><ele>73.68</ele><time>2026-04-25T13:54:41Z</time></trkpt><trkpt lat="59.0633100271" lon="30.0311430171"><ele>73.20</ele><time>2026-04-25T13:55:27Z</time></trkpt><trkpt lat="59.0633232705" lon="30.0311254151"><ele>73.68</ele><time>2026-04-25T13:56:07Z</time></trkpt><trkpt lat="59.0633274615" lon="30.0311130099"><ele>73.68</ele><time>2026-04-25T13:56:20Z</time></trkpt><trkpt lat="59.0633320715" lon="30.0311080646"><ele>73.68</ele><time>2026-04-25T13:56:43Z</time></trkpt><trkpt lat="59.0633505117" lon="30.0311549194"><ele>72.24</ele><time>2026-04-25T13:57:18Z</time></trkpt><trkpt lat="59.0633526072" lon="30.0311578531"><ele>72.24</ele><time>2026-04-25T13:57:55Z</time></trkpt><trkpt lat="59.0633394476" lon="30.0311711803"><ele>72.24</ele><time>2026-04-25T13:58:31Z</time></trkpt><trkpt lat="59.0633330774" lon="30.0311829988"><ele>72.24</ele><time>2026-04-25T13:59:06Z</time></trkpt><trkpt lat="59.0633366816" lon="30.0311979186"><ele>72.24</ele><time>2026-04-25T13:59:41Z</time></trkpt><trkpt lat="59.0633412078" lon="30.0312241539"><ele>72.24</ele><time>2026-04-25T14:00:17Z</time></trkpt><trkpt lat="59.0633381903" lon="30.0312139280"><ele>72.24</ele><time>2026-04-25T14:00:50Z</time></trkpt><trkpt lat="59.0633308981" lon="30.0312022772"><ele>72.24</ele><time>2026-04-25T14:01:26Z</time></trkpt><trkpt lat="59.0633299761" lon="30.0312149338"><ele>72.24</ele><time>2026-04-25T14:02:00Z</time></trkpt><trkpt lat="59.0633304790" lon="30.0312180351"><ele>72.24</ele><time>2026-04-25T14:02:37Z</time></trkpt><trkpt lat="59.0633244440" lon="30.0312237348"><ele>72.24</ele><time>2026-04-25T14:03:08Z</time></trkpt><trkpt lat="59.0633190796" lon="30.0312245730"><ele>72.24</ele><time>2026-04-25T14:03:47Z</time></trkpt><trkpt lat="59.0633153915" lon="30.0312218908"><ele>72.72</ele><time>2026-04-25T14:04:26Z</time></trkpt><trkpt lat="59.0633093566" lon="30.0312217232"><ele>72.72</ele><time>2026-04-25T14:05:07Z</time></trkpt><trkpt lat="59.0633132122" lon="30.0311959069"><ele>72.72</ele><time>2026-04-25T14:05:50Z</time></trkpt><trkpt lat="59.0633078478" lon="30.0311898720"><ele>72.72</ele><time>2026-04-25T14:06:30Z</time></trkpt><trkpt lat="59.0633159783" lon="30.0312024448"><ele>72.72</ele><time>2026-04-25T14:07:08Z</time></trkpt><trkpt lat="59.0633148048" lon="30.0312048756"><ele>72.72</ele><time>2026-04-25T14:07:44Z</time></trkpt><trkpt lat="59.0633135475" lon="30.0312040374"><ele>73.68</ele><time>2026-04-25T14:08:17Z</time></trkpt><trkpt lat="59.0633101948" lon="30.0311974157"><ele>73.68</ele><time>2026-04-25T14:08:47Z</time></trkpt><trkpt lat="59.0633190796" lon="30.0312031992"><ele>73.68</ele><time>2026-04-25T14:09:25Z</time></trkpt><trkpt lat="59.0633284673" lon="30.0312208012"><ele>73.68</ele><time>2026-04-25T14:10:01Z</time></trkpt><trkpt lat="59.0633303951" lon="30.0311985053"><ele>73.68</ele><time>2026-04-25T14:10:41Z</time></trkpt><trkpt lat="59.0633387771" lon="30.0311987568"><ele>73.68</ele><time>2026-04-25T14:11:19Z</time></trkpt><trkpt lat="59.0633478295" lon="30.0312069710"><ele>73.68</ele><time>2026-04-25T14:11:51Z</time></trkpt><trkpt lat="59.0633491706" lon="30.0311834179"><ele>73.68</ele><time>2026-04-25T14:12:29Z</time></trkpt><trkpt lat="59.0633520205" lon="30.0311928056"><ele>73.68</ele><time>2026-04-25T14:13:07Z</time></trkpt><trkpt lat="59.0633487515" lon="30.0312088989"><ele>73.68</ele><time>2026-04-25T14:13:43Z</time></trkpt><trkpt lat="59.0633422136" lon="30.0312211365"><ele>74.16</ele><time>2026-04-25T14:14:13Z</time></trkpt><trkpt lat="59.0633424651" lon="30.0312210526"><ele>74.16</ele><time>2026-04-25T14:14:47Z</time></trkpt><trkpt lat="59.0633407049" lon="30.0312192924"><ele>74.16</ele><time>2026-04-25T14:15:19Z</time></trkpt><trkpt lat="59.0633448120" lon="30.0312396605"><ele>74.64</ele><time>2026-04-25T14:15:53Z</time></trkpt><trkpt lat="59.0633427165" lon="30.0312330388"><ele>74.64</ele><time>2026-04-25T14:16:26Z</time></trkpt><trkpt lat="59.0633438900" lon="30.0311945658"><ele>75.12</ele><time>2026-04-25T14:16:41Z</time></trkpt></trkseg></trk></gpx>